PWSweather.com
Personal Weather Stations
Station Observations
ALLANTONFL
Allanton, Panama City, FL 32404

AllantonPanama City, FL 32404

Lat: 30.036, Lon: -85.48284060000003

Elevation: 11

Station Type: Acurite 5in1

High Low Average
Temperature 85.1°F29.5°C 74.1°F23.4°C 76.9°F24.9°C
Dew Point 77.9°F25.5°C 72.3°F22.4°C 74.1°F23.4°C
Winds 13.0 mph 20.9 kmh Calm Calm 1.0 mph SSE1.6 kmh SSE
Wind Gusts 14.0 mph22.5 kmh -- 2.0 mph3.2 kmh
Humidity 95% 78% 91%
Pressure 30.04 in1017.3 mb 29.96 in1014.6 mb -
Precipitation 1.69 in42.9 mm - -
Hour Temp Dew Point Humidity Winds Wind Gusts Pressure Precip Precip Rate Daily Precip Total
12:00 AM 74.1°F23.4°C 72.6°F22.6°C 95% Calm Calm -- 30.02 in1016.6 mb 0.09 in2.3 mm 0.00 in0.0 mm 0.09 in2.3 mm
12:01 AM 74.1°F23.4°C 72.6°F22.6°C 95% Calm Calm -- 30.02 in1016.6 mb 0.09 in2.3 mm 0.00 in0.0 mm 0.09 in2.3 mm
12:02 AM 74.1°F23.4°C 72.6°F22.6°C 95% Calm Calm -- 30.02 in1016.6 mb 0.09 in2.3 mm 0.00 in0.0 mm 0.09 in2.3 mm
12:03 AM 74.1°F23.4°C 72.6°F22.6°C 95% 1.7 mph WSW2.7 kmh WSW 1.7 mph2.7 kmh 30.02 in1016.6 mb 0.09 in2.3 mm 0.00 in0.0 mm 0.09 in2.3 mm
12:04 AM 74.5°F23.6°C 73.0°F22.8°C 95% Calm Calm 1.7 mph2.7 kmh 30.02 in1016.6 mb 0.09 in2.3 mm 0.00 in0.0 mm 0.09 in2.3 mm
12:05 AM 74.7°F23.7°C 73.2°F22.9°C 95% Calm Calm 1.7 mph2.7 kmh 30.02 in1016.6 mb 0.09 in2.3 mm 0.00 in0.0 mm 0.09 in2.3 mm
12:06 AM 75.0°F23.9°C 73.5°F23.1°C 95% 2.2 mph SW3.5 kmh SW 3.2 mph5.1 kmh 30.02 in1016.6 mb 0.09 in2.3 mm 0.00 in0.0 mm 0.09 in2.3 mm
12:07 AM 75.2°F24.0°C 73.7°F23.2°C 95% 2.7 mph SW4.3 kmh SW 3.2 mph5.1 kmh 30.02 in1016.6 mb 0.09 in2.3 mm 0.00 in0.0 mm 0.09 in2.3 mm
12:08 AM 75.4°F24.1°C 73.9°F23.3°C 95% 2.2 mph SW3.5 kmh SW 3.2 mph5.1 kmh 30.02 in1016.6 mb 0.09 in2.3 mm 0.00 in0.0 mm 0.09 in2.3 mm
12:09 AM 75.4°F24.1°C 73.9°F23.3°C 95% Calm Calm 3.2 mph5.1 kmh 30.02 in1016.6 mb 0.09 in2.3 mm 0.00 in0.0 mm 0.09 in2.3 mm
12:10 AM 75.4°F24.1°C 73.9°F23.3°C 95% Calm Calm 3.2 mph5.1 kmh 30.02 in1016.6 mb 0.09 in2.3 mm 0.00 in0.0 mm 0.09 in2.3 mm
12:11 AM 75.7°F24.3°C 74.2°F23.4°C 95% 2.2 mph W3.5 kmh W 4.7 mph7.6 kmh 30.02 in1016.6 mb 0.09 in2.3 mm 0.00 in0.0 mm 0.09 in2.3 mm
12:12 AM 75.7°F24.3°C 74.2°F23.4°C 95% 2.2 mph SW3.5 kmh SW 4.7 mph7.6 kmh 30.02 in1016.6 mb 0.09 in2.3 mm 0.00 in0.0 mm 0.09 in2.3 mm
12:13 AM 75.7°F24.3°C 74.2°F23.4°C 95% Calm Calm 4.7 mph7.6 kmh 30.02 in1016.6 mb 0.09 in2.3 mm 0.00 in0.0 mm 0.09 in2.3 mm
12:14 AM 75.7°F24.3°C 74.2°F23.4°C 95% Calm Calm 4.7 mph7.6 kmh 30.02 in1016.6 mb 0.09 in2.3 mm 0.00 in0.0 mm 0.09 in2.3 mm
12:15 AM 75.7°F24.3°C 74.2°F23.4°C 95% 4.7 mph WSW7.6 kmh WSW 4.7 mph7.6 kmh 30.02 in1016.6 mb 0.08 in2.0 mm 0.00 in0.0 mm 0.09 in2.3 mm
12:16 AM 75.7°F24.3°C 73.8°F23.2°C 94% Calm Calm 4.7 mph7.6 kmh 30.02 in1016.6 mb 0.05 in1.3 mm 0.00 in0.0 mm 0.09 in2.3 mm
12:17 AM 75.7°F24.3°C 73.8°F23.2°C 94% Calm Calm 4.7 mph7.6 kmh 30.02 in1016.6 mb 0.02 in0.5 mm 0.00 in0.0 mm 0.09 in2.3 mm
12:18 AM 75.7°F24.3°C 73.8°F23.2°C 94% Calm Calm 4.7 mph7.6 kmh 30.02 in1016.6 mb 0.02 in0.5 mm 0.00 in0.0 mm 0.09 in2.3 mm
12:19 AM 75.7°F24.3°C 73.8°F23.2°C 94% 4.2 mph W6.8 kmh W 4.7 mph7.6 kmh 30.02 in1016.6 mb 0.02 in0.5 mm 0.00 in0.0 mm 0.09 in2.3 mm
12:20 AM 75.9°F24.4°C 74.0°F23.3°C 94% 3.2 mph SW5.1 kmh SW 4.7 mph7.6 kmh 30.02 in1016.6 mb 0.01 in0.3 mm 0.00 in0.0 mm 0.09 in2.3 mm
12:21 AM 75.9°F24.4°C 74.0°F23.3°C 94% 2.2 mph WSW3.5 kmh WSW 4.7 mph7.6 kmh 30.02 in1016.6 mb 0.01 in0.3 mm 0.00 in0.0 mm 0.09 in2.3 mm
12:22 AM 76.1°F24.5°C 74.2°F23.4°C 94% 4.7 mph W7.6 kmh W 4.7 mph7.6 kmh 30.02 in1016.6 mb 0.01 in0.3 mm 0.00 in0.0 mm 0.09 in2.3 mm
12:23 AM 76.3°F24.6°C 74.1°F23.4°C 93% 5.8 mph WSW9.3 kmh WSW 5.8 mph9.3 kmh 30.02 in1016.6 mb 0.01 in0.3 mm 0.00 in0.0 mm 0.09 in2.3 mm
12:24 AM 76.5°F24.7°C 74.3°F23.5°C 93% 4.7 mph SW7.6 kmh SW 5.8 mph9.3 kmh 30.02 in1016.6 mb 0.01 in0.3 mm 0.00 in0.0 mm 0.09 in2.3 mm
12:25 AM 76.5°F24.7°C 74.3°F23.5°C 93% 2.2 mph SW3.5 kmh SW 5.8 mph9.3 kmh 30.02 in1016.6 mb 0.01 in0.3 mm 0.00 in0.0 mm 0.09 in2.3 mm
12:26 AM 76.5°F24.7°C 74.3°F23.5°C 93% Calm Calm 5.8 mph9.3 kmh 30.02 in1016.6 mb 0.01 in0.3 mm 0.00 in0.0 mm 0.09 in2.3 mm
12:27 AM 76.5°F24.7°C 74.3°F23.5°C 93% Calm Calm 5.8 mph9.3 kmh 30.02 in1016.6 mb 0.01 in0.3 mm 0.00 in0.0 mm 0.09 in2.3 mm
12:28 AM 76.5°F24.7°C 74.3°F23.5°C 93% 4.2 mph SSW6.8 kmh SSW 5.8 mph9.3 kmh 30.02 in1016.6 mb 0.01 in0.3 mm 0.00 in0.0 mm 0.09 in2.3 mm
12:29 AM 76.5°F24.7°C 74.3°F23.5°C 93% Calm Calm 5.8 mph9.3 kmh 30.02 in1016.6 mb 0.01 in0.3 mm 0.00 in0.0 mm 0.09 in2.3 mm
12:30 AM 76.5°F24.7°C 74.3°F23.5°C 93% Calm Calm 5.8 mph9.3 kmh 30.02 in1016.6 mb 0.01 in0.3 mm 0.00 in0.0 mm 0.09 in2.3 mm
12:31 AM 76.5°F24.7°C 74.3°F23.5°C 93% 5.3 mph W8.5 kmh W 5.8 mph9.3 kmh 30.02 in1016.6 mb 0.01 in0.3 mm 0.00 in0.0 mm 0.09 in2.3 mm
12:32 AM 76.6°F24.8°C 74.4°F23.6°C 93% 2.7 mph SW4.3 kmh SW 5.8 mph9.3 kmh 30.02 in1016.6 mb 0.01 in0.3 mm 0.00 in0.0 mm 0.09 in2.3 mm
12:33 AM 76.8°F24.9°C 74.6°F23.7°C 93% 5.3 mph SW8.5 kmh SW 5.3 mph8.5 kmh 30.02 in1016.6 mb 0.01 in0.3 mm 0.00 in0.0 mm 0.09 in2.3 mm
12:34 AM 77.0°F25.0°C 74.8°F23.8°C 93% 2.2 mph SW3.5 kmh SW 5.3 mph8.5 kmh 30.02 in1016.6 mb 0.01 in0.3 mm 0.00 in0.0 mm 0.09 in2.3 mm
12:35 AM 77.0°F25.0°C 74.8°F23.8°C 93% 4.2 mph WSW6.8 kmh WSW 5.3 mph8.5 kmh 30.02 in1016.6 mb 0.01 in0.3 mm 0.00 in0.0 mm 0.09 in2.3 mm
12:36 AM 77.0°F25.0°C 74.8°F23.8°C 93% 2.7 mph SW4.3 kmh SW 5.3 mph8.5 kmh 30.01 in1016.3 mb 0.01 in0.3 mm 0.00 in0.0 mm 0.09 in2.3 mm
12:37 AM 77.2°F25.1°C 75.0°F23.9°C 93% 5.3 mph WSW8.5 kmh WSW 5.8 mph9.3 kmh 30.01 in1016.3 mb 0.01 in0.3 mm 0.00 in0.0 mm 0.09 in2.3 mm
12:38 AM 77.4°F25.2°C 75.2°F24.0°C 93% 2.7 mph W4.3 kmh W 5.8 mph9.3 kmh 30.01 in1016.3 mb 0.01 in0.3 mm 0.00 in0.0 mm 0.09 in2.3 mm
12:39 AM 77.4°F25.2°C 75.2°F24.0°C 93% 4.2 mph WSW6.8 kmh WSW 5.8 mph9.3 kmh 30.01 in1016.3 mb 0.01 in0.3 mm 0.00 in0.0 mm 0.09 in2.3 mm
12:40 AM 77.5°F25.3°C 75.3°F24.1°C 93% 2.2 mph SW3.5 kmh SW 5.8 mph9.3 kmh 30.01 in1016.3 mb 0.01 in0.3 mm 0.00 in0.0 mm 0.09 in2.3 mm
12:41 AM 77.5°F25.3°C 75.0°F23.9°C 92% 3.2 mph WSW5.1 kmh WSW 5.8 mph9.3 kmh 30.01 in1016.3 mb 0.01 in0.3 mm 0.00 in0.0 mm 0.09 in2.3 mm
12:42 AM 77.7°F25.4°C 75.2°F24.0°C 92% 4.2 mph WSW6.8 kmh WSW 9.9 mph15.9 kmh 30.01 in1016.3 mb 0.01 in0.3 mm 0.00 in0.0 mm 0.09 in2.3 mm
12:43 AM 77.7°F25.4°C 75.2°F24.0°C 92% 7.3 mph WSW11.7 kmh WSW 9.9 mph15.9 kmh 30.01 in1016.3 mb 0.01 in0.3 mm 0.00 in0.0 mm 0.09 in2.3 mm
12:44 AM 77.9°F25.5°C 75.4°F24.1°C 92% 5.8 mph SW9.3 kmh SW 9.9 mph15.9 kmh 30.01 in1016.3 mb 0.01 in0.3 mm 0.00 in0.0 mm 0.09 in2.3 mm
12:45 AM 77.9°F25.5°C 75.1°F23.9°C 91% 4.2 mph WSW6.8 kmh WSW 9.9 mph15.9 kmh 30.01 in1016.3 mb 0.00 in0.0 mm 0.00 in0.0 mm 0.09 in2.3 mm
12:46 AM 77.9°F25.5°C 75.1°F23.9°C 91% 1.7 mph WSW2.7 kmh WSW 9.9 mph15.9 kmh 30.01 in1016.3 mb 0.00 in0.0 mm 0.00 in0.0 mm 0.09 in2.3 mm
12:47 AM 77.9°F25.5°C 75.1°F23.9°C 91% Calm Calm 9.9 mph15.9 kmh 30.01 in1016.3 mb 0.00 in0.0 mm 0.00 in0.0 mm 0.09 in2.3 mm
12:48 AM 77.9°F25.5°C 75.1°F23.9°C 91% Calm Calm 9.9 mph15.9 kmh 29.99 in1015.6 mb 0.00 in0.0 mm 0.00 in0.0 mm 0.09 in2.3 mm
12:49 AM 77.9°F25.5°C 75.1°F23.9°C 91% 4.2 mph WSW6.8 kmh WSW 9.9 mph15.9 kmh 29.99 in1015.6 mb 0.00 in0.0 mm 0.00 in0.0 mm 0.09 in2.3 mm
12:50 AM 77.9°F25.5°C 75.1°F23.9°C 91% 3.2 mph SW5.1 kmh SW 9.9 mph15.9 kmh 29.99 in1015.6 mb 0.00 in0.0 mm 0.00 in0.0 mm 0.09 in2.3 mm
12:51 AM 77.9°F25.5°C 75.1°F23.9°C 91% Calm Calm 9.9 mph15.9 kmh 29.99 in1015.6 mb 0.00 in0.0 mm 0.00 in0.0 mm 0.09 in2.3 mm
12:52 AM 77.9°F25.5°C 75.1°F23.9°C 91% 2.2 mph WSW3.5 kmh WSW 7.8 mph12.6 kmh 29.99 in1015.6 mb 0.00 in0.0 mm 0.00 in0.0 mm 0.09 in2.3 mm
12:53 AM 78.1°F25.6°C 75.3°F24.1°C 91% 4.7 mph W7.6 kmh W 7.8 mph12.6 kmh 29.99 in1015.6 mb 0.00 in0.0 mm 0.00 in0.0 mm 0.09 in2.3 mm
12:54 AM 78.3°F25.7°C 75.4°F24.1°C 91% 1.7 mph SSW2.7 kmh SSW 5.8 mph9.3 kmh 29.99 in1015.6 mb 0.00 in0.0 mm 0.00 in0.0 mm 0.09 in2.3 mm
12:55 AM 78.3°F25.7°C 75.4°F24.1°C 91% 1.7 mph SW2.7 kmh SW 5.3 mph8.5 kmh 29.99 in1015.6 mb 0.00 in0.0 mm 0.00 in0.0 mm 0.09 in2.3 mm
12:56 AM 78.3°F25.7°C 75.4°F24.1°C 91% Calm Calm 5.3 mph8.5 kmh 29.99 in1015.6 mb 0.00 in0.0 mm 0.00 in0.0 mm 0.09 in2.3 mm
12:57 AM 78.3°F25.7°C 75.4°F24.1°C 91% 2.2 mph SW3.5 kmh SW 5.3 mph8.5 kmh 29.99 in1015.6 mb 0.00 in0.0 mm 0.00 in0.0 mm 0.09 in2.3 mm
12:58 AM 78.3°F25.7°C 75.4°F24.1°C 91% 2.2 mph SW3.5 kmh SW 5.3 mph8.5 kmh 29.99 in1015.6 mb 0.00 in0.0 mm 0.00 in0.0 mm 0.09 in2.3 mm
12:59 AM 78.4°F25.8°C 75.5°F24.2°C 91% 3.7 mph WSW6.0 kmh WSW 5.3 mph8.5 kmh 29.99 in1015.6 mb 0.00 in0.0 mm 0.00 in0.0 mm 0.09 in2.3 mm
01:00 AM 78.4°F25.8°C 75.5°F24.2°C 91% 4.7 mph WSW7.6 kmh WSW 5.3 mph8.5 kmh 29.99 in1015.6 mb 0.00 in0.0 mm 0.00 in0.0 mm 0.09 in2.3 mm
01:01 AM 78.6°F25.9°C 75.7°F24.3°C 91% 2.2 mph SW3.5 kmh SW 5.3 mph8.5 kmh 29.99 in1015.6 mb 0.00 in0.0 mm 0.00 in0.0 mm 0.09 in2.3 mm
01:02 AM 78.6°F25.9°C 75.7°F24.3°C 91% 2.2 mph WSW3.5 kmh WSW 5.3 mph8.5 kmh 29.99 in1015.6 mb 0.00 in0.0 mm 0.00 in0.0 mm 0.09 in2.3 mm
01:03 AM 78.6°F25.9°C 75.7°F24.3°C 91% Calm Calm 5.3 mph8.5 kmh 29.99 in1015.6 mb 0.00 in0.0 mm 0.00 in0.0 mm 0.09 in2.3 mm
01:04 AM 78.6°F25.9°C 75.7°F24.3°C 91% Calm Calm 5.3 mph8.5 kmh 29.99 in1015.6 mb 0.00 in0.0 mm 0.00 in0.0 mm 0.09 in2.3 mm
01:05 AM 78.6°F25.9°C 75.7°F24.3°C 91% Calm Calm 5.3 mph8.5 kmh 29.99 in1015.6 mb 0.00 in0.0 mm 0.00 in0.0 mm 0.09 in2.3 mm
01:06 AM 78.6°F25.9°C 75.7°F24.3°C 91% 1.7 mph SSW2.7 kmh SSW 5.3 mph8.5 kmh 29.99 in1015.6 mb 0.00 in0.0 mm 0.00 in0.0 mm 0.09 in2.3 mm
01:07 AM 78.6°F25.9°C 75.7°F24.3°C 91% Calm Calm 5.3 mph8.5 kmh 29.99 in1015.6 mb 0.00 in0.0 mm 0.00 in0.0 mm 0.09 in2.3 mm
01:08 AM 78.6°F25.9°C 75.7°F24.3°C 91% Calm Calm 5.3 mph8.5 kmh 29.99 in1015.6 mb 0.00 in0.0 mm 0.00 in0.0 mm 0.09 in2.3 mm
01:09 AM 78.6°F25.9°C 75.7°F24.3°C 91% Calm Calm 4.7 mph7.6 kmh 29.99 in1015.6 mb 0.00 in0.0 mm 0.00 in0.0 mm 0.09 in2.3 mm
01:10 AM 78.6°F25.9°C 75.7°F24.3°C 91% Calm Calm 4.7 mph7.6 kmh 29.99 in1015.6 mb 0.00 in0.0 mm 0.00 in0.0 mm 0.09 in2.3 mm
01:11 AM 78.6°F25.9°C 75.7°F24.3°C 91% Calm Calm 2.2 mph3.5 kmh 29.99 in1015.6 mb 0.00 in0.0 mm 0.00 in0.0 mm 0.09 in2.3 mm
01:12 AM 78.6°F25.9°C 75.7°F24.3°C 91% Calm Calm 2.2 mph3.5 kmh 29.99 in1015.6 mb 0.00 in0.0 mm 0.00 in0.0 mm 0.09 in2.3 mm
01:13 AM 78.4°F25.8°C 75.5°F24.2°C 91% 1.7 mph W2.7 kmh W 2.7 mph4.3 kmh 29.98 in1015.2 mb 0.00 in0.0 mm 0.00 in0.0 mm 0.09 in2.3 mm
01:14 AM 78.4°F25.8°C 75.2°F24.0°C 90% 4.7 mph WSW7.6 kmh WSW 4.7 mph7.6 kmh 29.98 in1015.2 mb 0.00 in0.0 mm 0.00 in0.0 mm 0.09 in2.3 mm
01:15 AM 78.4°F25.8°C 75.2°F24.0°C 90% 2.2 mph WSW3.5 kmh WSW 4.7 mph7.6 kmh 29.98 in1015.2 mb 0.00 in0.0 mm 0.00 in0.0 mm 0.09 in2.3 mm
01:16 AM 78.3°F25.7°C 75.1°F23.9°C 90% Calm Calm 4.7 mph7.6 kmh 29.98 in1015.2 mb 0.00 in0.0 mm 0.00 in0.0 mm 0.09 in2.3 mm
01:17 AM 78.3°F25.7°C 75.1°F23.9°C 90% Calm Calm 4.7 mph7.6 kmh 29.98 in1015.2 mb 0.00 in0.0 mm 0.00 in0.0 mm 0.09 in2.3 mm
01:18 AM 78.3°F25.7°C 75.1°F23.9°C 90% Calm Calm 4.7 mph7.6 kmh 29.98 in1015.2 mb 0.00 in0.0 mm 0.00 in0.0 mm 0.09 in2.3 mm
01:19 AM 78.3°F25.7°C 74.8°F23.8°C 89% Calm Calm 4.7 mph7.6 kmh 29.98 in1015.2 mb 0.00 in0.0 mm 0.00 in0.0 mm 0.09 in2.3 mm
01:20 AM 78.3°F25.7°C 74.8°F23.8°C 89% Calm Calm 4.7 mph7.6 kmh 29.98 in1015.2 mb 0.00 in0.0 mm 0.00 in0.0 mm 0.09 in2.3 mm
01:21 AM 78.3°F25.7°C 74.8°F23.8°C 89% Calm Calm 4.7 mph7.6 kmh 29.98 in1015.2 mb 0.00 in0.0 mm 0.00 in0.0 mm 0.09 in2.3 mm
01:22 AM 78.3°F25.7°C 74.8°F23.8°C 89% Calm Calm 4.7 mph7.6 kmh 29.98 in1015.2 mb 0.00 in0.0 mm 0.00 in0.0 mm 0.09 in2.3 mm
01:23 AM 78.3°F25.7°C 74.8°F23.8°C 89% Calm Calm 4.7 mph7.6 kmh 29.98 in1015.2 mb 0.00 in0.0 mm 0.00 in0.0 mm 0.09 in2.3 mm
01:24 AM 78.1°F25.6°C 74.6°F23.7°C 89% Calm Calm 4.7 mph7.6 kmh 29.98 in1015.2 mb 0.00 in0.0 mm 0.00 in0.0 mm 0.09 in2.3 mm
01:25 AM 78.1°F25.6°C 74.6°F23.7°C 89% Calm Calm 2.2 mph3.5 kmh 29.97 in1014.9 mb 0.00 in0.0 mm 0.00 in0.0 mm 0.09 in2.3 mm
01:26 AM 78.1°F25.6°C 74.6°F23.7°C 89% Calm Calm 1.7 mph2.7 kmh 29.97 in1014.9 mb 0.00 in0.0 mm 0.00 in0.0 mm 0.09 in2.3 mm
01:27 AM 78.1°F25.6°C 74.6°F23.7°C 89% Calm Calm 1.7 mph2.7 kmh 29.97 in1014.9 mb 0.00 in0.0 mm 0.00 in0.0 mm 0.09 in2.3 mm
01:28 AM 78.1°F25.6°C 74.6°F23.7°C 89% Calm Calm 1.7 mph2.7 kmh 29.97 in1014.9 mb 0.00 in0.0 mm 0.00 in0.0 mm 0.09 in2.3 mm
01:29 AM 78.1°F25.6°C 74.6°F23.7°C 89% Calm Calm -- 29.97 in1014.9 mb 0.00 in0.0 mm 0.00 in0.0 mm 0.09 in2.3 mm
01:30 AM 78.1°F25.6°C 74.6°F23.7°C 89% Calm Calm -- 29.97 in1014.9 mb 0.00 in0.0 mm 0.00 in0.0 mm 0.09 in2.3 mm
01:31 AM 77.9°F25.5°C 74.4°F23.6°C 89% Calm Calm -- 29.97 in1014.9 mb 0.01 in0.3 mm 0.60 in15.2 mm 0.10 in2.5 mm
01:32 AM 77.9°F25.5°C 74.4°F23.6°C 89% 1.1 mph WSW1.8 kmh WSW 1.7 mph2.7 kmh 29.97 in1014.9 mb 0.01 in0.3 mm 0.00 in0.0 mm 0.10 in2.5 mm
01:33 AM 77.9°F25.5°C 74.4°F23.6°C 89% Calm Calm 1.7 mph2.7 kmh 29.97 in1014.9 mb 0.01 in0.3 mm 0.00 in0.0 mm 0.10 in2.5 mm
01:34 AM 77.9°F25.5°C 74.4°F23.6°C 89% Calm Calm 1.7 mph2.7 kmh 29.97 in1014.9 mb 0.01 in0.3 mm 0.00 in0.0 mm 0.10 in2.5 mm
01:35 AM 77.9°F25.5°C 74.4°F23.6°C 89% Calm Calm 1.7 mph2.7 kmh 29.97 in1014.9 mb 0.01 in0.3 mm 0.00 in0.0 mm 0.10 in2.5 mm
01:36 AM 77.9°F25.5°C 74.4°F23.6°C 89% Calm Calm 1.7 mph2.7 kmh 29.96 in1014.6 mb 0.01 in0.3 mm 0.00 in0.0 mm 0.10 in2.5 mm
01:37 AM 77.9°F25.5°C 74.4°F23.6°C 89% Calm Calm 1.7 mph2.7 kmh 29.96 in1014.6 mb 0.01 in0.3 mm 0.00 in0.0 mm 0.10 in2.5 mm
01:38 AM 77.9°F25.5°C 74.4°F23.6°C 89% Calm Calm 1.7 mph2.7 kmh 29.96 in1014.6 mb 0.01 in0.3 mm 0.00 in0.0 mm 0.10 in2.5 mm
01:39 AM 77.9°F25.5°C 74.4°F23.6°C 89% Calm Calm 1.7 mph2.7 kmh 29.96 in1014.6 mb 0.01 in0.3 mm 0.00 in0.0 mm 0.10 in2.5 mm
01:40 AM 77.9°F25.5°C 74.4°F23.6°C 89% Calm Calm 1.7 mph2.7 kmh 29.96 in1014.6 mb 0.01 in0.3 mm 0.00 in0.0 mm 0.10 in2.5 mm
01:41 AM 77.9°F25.5°C 74.4°F23.6°C 89% Calm Calm 1.7 mph2.7 kmh 29.96 in1014.6 mb 0.01 in0.3 mm 0.00 in0.0 mm 0.10 in2.5 mm
01:42 AM 77.9°F25.5°C 74.4°F23.6°C 89% Calm Calm 1.7 mph2.7 kmh 29.96 in1014.6 mb 0.01 in0.3 mm 0.00 in0.0 mm 0.10 in2.5 mm
01:43 AM 77.7°F25.4°C 74.2°F23.4°C 89% Calm Calm 1.7 mph2.7 kmh 29.96 in1014.6 mb 0.01 in0.3 mm 0.00 in0.0 mm 0.10 in2.5 mm
01:44 AM 77.7°F25.4°C 74.5°F23.6°C 90% Calm Calm 1.7 mph2.7 kmh 29.96 in1014.6 mb 0.01 in0.3 mm 0.00 in0.0 mm 0.10 in2.5 mm
01:45 AM 77.7°F25.4°C 74.5°F23.6°C 90% Calm Calm -- 29.96 in1014.6 mb 0.01 in0.3 mm 0.00 in0.0 mm 0.10 in2.5 mm
01:46 AM 77.4°F25.2°C 74.2°F23.4°C 90% Calm Calm -- 29.96 in1014.6 mb 0.01 in0.3 mm 0.00 in0.0 mm 0.10 in2.5 mm
01:47 AM 77.4°F25.2°C 74.2°F23.4°C 90% Calm Calm -- 29.96 in1014.6 mb 0.01 in0.3 mm 0.00 in0.0 mm 0.10 in2.5 mm
01:48 AM 77.2°F25.1°C 74.0°F23.3°C 90% Calm Calm -- 29.97 in1014.9 mb 0.01 in0.3 mm 0.00 in0.0 mm 0.10 in2.5 mm
01:49 AM 77.2°F25.1°C 74.0°F23.3°C 90% Calm Calm -- 29.97 in1014.9 mb 0.01 in0.3 mm 0.00 in0.0 mm 0.10 in2.5 mm
01:50 AM 77.2°F25.1°C 74.0°F23.3°C 90% Calm Calm -- 29.97 in1014.9 mb 0.01 in0.3 mm 0.00 in0.0 mm 0.10 in2.5 mm
01:51 AM 77.0°F25.0°C 73.8°F23.2°C 90% Calm Calm -- 29.97 in1014.9 mb 0.01 in0.3 mm 0.00 in0.0 mm 0.10 in2.5 mm
01:52 AM 77.0°F25.0°C 74.2°F23.4°C 91% Calm Calm -- 29.97 in1014.9 mb 0.01 in0.3 mm 0.00 in0.0 mm 0.10 in2.5 mm
01:53 AM 76.8°F24.9°C 74.0°F23.3°C 91% Calm Calm -- 29.97 in1014.9 mb 0.01 in0.3 mm 0.00 in0.0 mm 0.10 in2.5 mm
01:54 AM 76.8°F24.9°C 74.0°F23.3°C 91% Calm Calm -- 29.97 in1014.9 mb 0.01 in0.3 mm 0.00 in0.0 mm 0.10 in2.5 mm
01:55 AM 76.8°F24.9°C 74.0°F23.3°C 91% Calm Calm -- 29.97 in1014.9 mb 0.01 in0.3 mm 0.00 in0.0 mm 0.10 in2.5 mm
01:56 AM 76.6°F24.8°C 73.8°F23.2°C 91% Calm Calm -- 29.97 in1014.9 mb 0.01 in0.3 mm 0.00 in0.0 mm 0.10 in2.5 mm
01:57 AM 76.6°F24.8°C 73.8°F23.2°C 91% Calm Calm -- 29.97 in1014.9 mb 0.01 in0.3 mm 0.00 in0.0 mm 0.10 in2.5 mm
01:58 AM 76.6°F24.8°C 73.8°F23.2°C 91% Calm Calm -- 29.97 in1014.9 mb 0.01 in0.3 mm 0.00 in0.0 mm 0.10 in2.5 mm
01:59 AM 76.6°F24.8°C 73.8°F23.2°C 91% Calm Calm -- 29.97 in1014.9 mb 0.01 in0.3 mm 0.00 in0.0 mm 0.10 in2.5 mm
02:00 AM 76.6°F24.8°C 73.8°F23.2°C 91% Calm Calm -- 29.98 in1015.2 mb 0.01 in0.3 mm 0.00 in0.0 mm 0.10 in2.5 mm
02:01 AM 76.6°F24.8°C 73.8°F23.2°C 91% Calm Calm -- 29.98 in1015.2 mb 0.01 in0.3 mm 0.00 in0.0 mm 0.10 in2.5 mm
02:02 AM 76.6°F24.8°C 73.8°F23.2°C 91% Calm Calm -- 29.98 in1015.2 mb 0.01 in0.3 mm 0.00 in0.0 mm 0.10 in2.5 mm
02:03 AM 76.6°F24.8°C 74.1°F23.4°C 92% Calm Calm -- 29.98 in1015.2 mb 0.01 in0.3 mm 0.00 in0.0 mm 0.10 in2.5 mm
02:04 AM 76.5°F24.7°C 74.0°F23.3°C 92% Calm Calm -- 29.98 in1015.2 mb 0.01 in0.3 mm 0.00 in0.0 mm 0.10 in2.5 mm
02:05 AM 76.5°F24.7°C 74.0°F23.3°C 92% Calm Calm -- 29.98 in1015.2 mb 0.01 in0.3 mm 0.00 in0.0 mm 0.10 in2.5 mm
02:06 AM 76.5°F24.7°C 74.0°F23.3°C 92% Calm Calm -- 29.98 in1015.2 mb 0.01 in0.3 mm 0.00 in0.0 mm 0.10 in2.5 mm
02:07 AM 76.5°F24.7°C 74.0°F23.3°C 92% Calm Calm -- 29.98 in1015.2 mb 0.01 in0.3 mm 0.00 in0.0 mm 0.10 in2.5 mm
02:08 AM 76.5°F24.7°C 74.0°F23.3°C 92% Calm Calm -- 29.98 in1015.2 mb 0.01 in0.3 mm 0.00 in0.0 mm 0.10 in2.5 mm
02:09 AM 76.5°F24.7°C 74.0°F23.3°C 92% Calm Calm -- 29.98 in1015.2 mb 0.01 in0.3 mm 0.00 in0.0 mm 0.10 in2.5 mm
02:10 AM 76.5°F24.7°C 74.0°F23.3°C 92% Calm Calm -- 29.98 in1015.2 mb 0.01 in0.3 mm 0.00 in0.0 mm 0.10 in2.5 mm
02:11 AM 76.5°F24.7°C 74.0°F23.3°C 92% Calm Calm -- 29.98 in1015.2 mb 0.01 in0.3 mm 0.00 in0.0 mm 0.10 in2.5 mm
02:12 AM 76.5°F24.7°C 74.0°F23.3°C 92% Calm Calm -- 29.98 in1015.2 mb 0.01 in0.3 mm 0.00 in0.0 mm 0.10 in2.5 mm
02:13 AM 76.5°F24.7°C 74.0°F23.3°C 92% Calm Calm -- 29.97 in1014.9 mb 0.01 in0.3 mm 0.00 in0.0 mm 0.10 in2.5 mm
02:14 AM 76.5°F24.7°C 74.0°F23.3°C 92% Calm Calm -- 29.97 in1014.9 mb 0.01 in0.3 mm 0.00 in0.0 mm 0.10 in2.5 mm
02:15 AM 76.5°F24.7°C 74.0°F23.3°C 92% Calm Calm -- 29.97 in1014.9 mb 0.01 in0.3 mm 0.00 in0.0 mm 0.10 in2.5 mm
02:16 AM 76.5°F24.7°C 74.0°F23.3°C 92% Calm Calm -- 29.97 in1014.9 mb 0.01 in0.3 mm 0.00 in0.0 mm 0.10 in2.5 mm
02:17 AM 76.5°F24.7°C 74.0°F23.3°C 92% Calm Calm -- 29.97 in1014.9 mb 0.01 in0.3 mm 0.00 in0.0 mm 0.10 in2.5 mm
02:18 AM 76.5°F24.7°C 74.3°F23.5°C 93% Calm Calm -- 29.97 in1014.9 mb 0.01 in0.3 mm 0.00 in0.0 mm 0.10 in2.5 mm
02:19 AM 76.5°F24.7°C 74.3°F23.5°C 93% Calm Calm -- 29.97 in1014.9 mb 0.01 in0.3 mm 0.00 in0.0 mm 0.10 in2.5 mm
02:20 AM 76.5°F24.7°C 74.3°F23.5°C 93% Calm Calm -- 29.97 in1014.9 mb 0.01 in0.3 mm 0.00 in0.0 mm 0.10 in2.5 mm
02:21 AM 76.5°F24.7°C 74.3°F23.5°C 93% Calm Calm -- 29.97 in1014.9 mb 0.01 in0.3 mm 0.00 in0.0 mm 0.10 in2.5 mm
02:22 AM 76.5°F24.7°C 74.3°F23.5°C 93% Calm Calm -- 29.97 in1014.9 mb 0.01 in0.3 mm 0.00 in0.0 mm 0.10 in2.5 mm
02:23 AM 76.5°F24.7°C 74.3°F23.5°C 93% Calm Calm -- 29.97 in1014.9 mb 0.01 in0.3 mm 0.00 in0.0 mm 0.10 in2.5 mm
02:24 AM 76.5°F24.7°C 74.3°F23.5°C 93% Calm Calm -- 29.97 in1014.9 mb 0.01 in0.3 mm 0.00 in0.0 mm 0.10 in2.5 mm
02:25 AM 76.5°F24.7°C 74.3°F23.5°C 93% Calm Calm -- 29.98 in1015.2 mb 0.01 in0.3 mm 0.00 in0.0 mm 0.10 in2.5 mm
02:26 AM 76.5°F24.7°C 74.3°F23.5°C 93% Calm Calm -- 29.98 in1015.2 mb 0.01 in0.3 mm 0.00 in0.0 mm 0.10 in2.5 mm
02:27 AM 76.5°F24.7°C 74.3°F23.5°C 93% Calm Calm -- 29.98 in1015.2 mb 0.01 in0.3 mm 0.00 in0.0 mm 0.10 in2.5 mm
02:28 AM 76.5°F24.7°C 74.3°F23.5°C 93% Calm Calm -- 29.98 in1015.2 mb 0.01 in0.3 mm 0.00 in0.0 mm 0.10 in2.5 mm
02:29 AM 76.5°F24.7°C 74.3°F23.5°C 93% Calm Calm -- 29.98 in1015.2 mb 0.01 in0.3 mm 0.00 in0.0 mm 0.10 in2.5 mm
02:30 AM 76.5°F24.7°C 74.3°F23.5°C 93% Calm Calm -- 29.98 in1015.2 mb 0.01 in0.3 mm 0.00 in0.0 mm 0.10 in2.5 mm
02:31 AM 76.5°F24.7°C 74.3°F23.5°C 93% Calm Calm -- 29.98 in1015.2 mb 0.00 in0.0 mm 0.00 in0.0 mm 0.10 in2.5 mm
02:32 AM 76.5°F24.7°C 74.3°F23.5°C 93% Calm Calm -- 29.98 in1015.2 mb 0.00 in0.0 mm 0.00 in0.0 mm 0.10 in2.5 mm
02:33 AM 76.5°F24.7°C 74.3°F23.5°C 93% Calm Calm -- 29.98 in1015.2 mb 0.00 in0.0 mm 0.00 in0.0 mm 0.10 in2.5 mm
02:34 AM 76.5°F24.7°C 74.3°F23.5°C 93% Calm Calm -- 29.98 in1015.2 mb 0.00 in0.0 mm 0.00 in0.0 mm 0.10 in2.5 mm
02:35 AM 76.5°F24.7°C 74.3°F23.5°C 93% Calm Calm -- 29.98 in1015.2 mb 0.00 in0.0 mm 0.00 in0.0 mm 0.10 in2.5 mm
02:36 AM 76.5°F24.7°C 74.3°F23.5°C 93% Calm Calm -- 29.98 in1015.2 mb 0.00 in0.0 mm 0.00 in0.0 mm 0.10 in2.5 mm
02:37 AM 76.5°F24.7°C 74.3°F23.5°C 93% Calm Calm -- 29.98 in1015.2 mb 0.00 in0.0 mm 0.00 in0.0 mm 0.10 in2.5 mm
02:38 AM 76.5°F24.7°C 74.3°F23.5°C 93% Calm Calm -- 29.98 in1015.2 mb 0.00 in0.0 mm 0.00 in0.0 mm 0.10 in2.5 mm
02:39 AM 76.5°F24.7°C 74.3°F23.5°C 93% Calm Calm -- 29.98 in1015.2 mb 0.00 in0.0 mm 0.00 in0.0 mm 0.10 in2.5 mm
02:40 AM 76.3°F24.6°C 74.1°F23.4°C 93% Calm Calm -- 29.98 in1015.2 mb 0.00 in0.0 mm 0.00 in0.0 mm 0.10 in2.5 mm
02:41 AM 76.3°F24.6°C 74.1°F23.4°C 93% Calm Calm -- 29.98 in1015.2 mb 0.00 in0.0 mm 0.00 in0.0 mm 0.10 in2.5 mm
02:42 AM 76.1°F24.5°C 73.9°F23.3°C 93% 2.2 mph ESE3.5 kmh ESE 2.2 mph3.5 kmh 29.98 in1015.2 mb 0.00 in0.0 mm 0.00 in0.0 mm 0.10 in2.5 mm
02:43 AM 76.1°F24.5°C 73.9°F23.3°C 93% 2.7 mph W4.3 kmh W 2.7 mph4.3 kmh 29.98 in1015.2 mb 0.00 in0.0 mm 0.00 in0.0 mm 0.10 in2.5 mm
02:44 AM 75.9°F24.4°C 73.7°F23.2°C 93% 2.2 mph NE3.5 kmh NE 2.7 mph4.3 kmh 29.98 in1015.2 mb 0.00 in0.0 mm 0.00 in0.0 mm 0.10 in2.5 mm
02:45 AM 75.9°F24.4°C 73.7°F23.2°C 93% Calm Calm 2.7 mph4.3 kmh 29.98 in1015.2 mb 0.00 in0.0 mm 0.00 in0.0 mm 0.10 in2.5 mm
02:46 AM 75.9°F24.4°C 73.7°F23.2°C 93% Calm Calm 2.7 mph4.3 kmh 29.98 in1015.2 mb 0.00 in0.0 mm 0.00 in0.0 mm 0.10 in2.5 mm
02:47 AM 75.9°F24.4°C 73.7°F23.2°C 93% Calm Calm 2.7 mph4.3 kmh 29.98 in1015.2 mb 0.00 in0.0 mm 0.00 in0.0 mm 0.10 in2.5 mm
02:48 AM 75.7°F24.3°C 73.2°F22.9°C 92% Calm Calm 2.7 mph4.3 kmh 29.99 in1015.6 mb 0.00 in0.0 mm 0.00 in0.0 mm 0.10 in2.5 mm
02:49 AM 75.7°F24.3°C 73.2°F22.9°C 92% Calm Calm 2.7 mph4.3 kmh 29.99 in1015.6 mb 0.00 in0.0 mm 0.00 in0.0 mm 0.10 in2.5 mm
02:50 AM 75.7°F24.3°C 73.2°F22.9°C 92% Calm Calm 2.7 mph4.3 kmh 29.99 in1015.6 mb 0.00 in0.0 mm 0.00 in0.0 mm 0.10 in2.5 mm
02:51 AM 75.7°F24.3°C 73.2°F22.9°C 92% Calm Calm 2.7 mph4.3 kmh 29.99 in1015.6 mb 0.00 in0.0 mm 0.00 in0.0 mm 0.10 in2.5 mm
02:52 AM 75.7°F24.3°C 73.2°F22.9°C 92% Calm Calm 2.7 mph4.3 kmh 29.99 in1015.6 mb 0.00 in0.0 mm 0.00 in0.0 mm 0.10 in2.5 mm
02:53 AM 75.7°F24.3°C 73.2°F22.9°C 92% Calm Calm 2.7 mph4.3 kmh 29.99 in1015.6 mb 0.00 in0.0 mm 0.00 in0.0 mm 0.10 in2.5 mm
02:54 AM 75.7°F24.3°C 73.2°F22.9°C 92% Calm Calm 2.2 mph3.5 kmh 29.99 in1015.6 mb 0.00 in0.0 mm 0.00 in0.0 mm 0.10 in2.5 mm
02:55 AM 75.7°F24.3°C 73.2°F22.9°C 92% Calm Calm -- 29.99 in1015.6 mb 0.00 in0.0 mm 0.00 in0.0 mm 0.10 in2.5 mm
02:56 AM 75.7°F24.3°C 73.2°F22.9°C 92% Calm Calm -- 29.99 in1015.6 mb 0.00 in0.0 mm 0.00 in0.0 mm 0.10 in2.5 mm
02:57 AM 75.7°F24.3°C 73.2°F22.9°C 92% Calm Calm -- 29.99 in1015.6 mb 0.00 in0.0 mm 0.00 in0.0 mm 0.10 in2.5 mm
02:58 AM 75.7°F24.3°C 73.2°F22.9°C 92% Calm Calm -- 29.99 in1015.6 mb 0.00 in0.0 mm 0.00 in0.0 mm 0.10 in2.5 mm
02:59 AM 75.6°F24.2°C 73.1°F22.8°C 92% Calm Calm -- 29.99 in1015.6 mb 0.00 in0.0 mm 0.00 in0.0 mm 0.10 in2.5 mm
03:00 AM 75.6°F24.2°C 73.1°F22.8°C 92% Calm Calm -- 29.99 in1015.6 mb 0.00 in0.0 mm 0.00 in0.0 mm 0.10 in2.5 mm
03:01 AM 75.6°F24.2°C 73.1°F22.8°C 92% Calm Calm -- 29.99 in1015.6 mb 0.00 in0.0 mm 0.00 in0.0 mm 0.10 in2.5 mm
03:02 AM 75.6°F24.2°C 73.1°F22.8°C 92% Calm Calm -- 29.99 in1015.6 mb 0.00 in0.0 mm 0.00 in0.0 mm 0.10 in2.5 mm
03:03 AM 75.6°F24.2°C 73.1°F22.8°C 92% Calm Calm -- 29.99 in1015.6 mb 0.00 in0.0 mm 0.00 in0.0 mm 0.10 in2.5 mm
03:04 AM 75.6°F24.2°C 73.1°F22.8°C 92% Calm Calm -- 29.99 in1015.6 mb 0.00 in0.0 mm 0.00 in0.0 mm 0.10 in2.5 mm
03:05 AM 75.6°F24.2°C 73.1°F22.8°C 92% Calm Calm -- 29.99 in1015.6 mb 0.00 in0.0 mm 0.00 in0.0 mm 0.10 in2.5 mm
03:06 AM 75.4°F24.1°C 72.9°F22.7°C 92% Calm Calm -- 29.99 in1015.6 mb 0.00 in0.0 mm 0.00 in0.0 mm 0.10 in2.5 mm
03:07 AM 75.4°F24.1°C 72.9°F22.7°C 92% Calm Calm -- 29.99 in1015.6 mb 0.00 in0.0 mm 0.00 in0.0 mm 0.10 in2.5 mm
03:08 AM 75.4°F24.1°C 72.9°F22.7°C 92% Calm Calm -- 29.99 in1015.6 mb 0.00 in0.0 mm 0.00 in0.0 mm 0.10 in2.5 mm
03:09 AM 75.4°F24.1°C 72.9°F22.7°C 92% Calm Calm -- 29.99 in1015.6 mb 0.00 in0.0 mm 0.00 in0.0 mm 0.10 in2.5 mm
03:10 AM 75.4°F24.1°C 72.9°F22.7°C 92% Calm Calm -- 29.99 in1015.6 mb 0.00 in0.0 mm 0.00 in0.0 mm 0.10 in2.5 mm
03:11 AM 75.4°F24.1°C 72.9°F22.7°C 92% Calm Calm -- 29.99 in1015.6 mb 0.00 in0.0 mm 0.00 in0.0 mm 0.10 in2.5 mm
03:12 AM 75.2°F24.0°C 72.7°F22.6°C 92% Calm Calm -- 29.99 in1015.6 mb 0.00 in0.0 mm 0.00 in0.0 mm 0.10 in2.5 mm
03:13 AM 75.2°F24.0°C 72.7°F22.6°C 92% Calm Calm -- 29.99 in1015.6 mb 0.00 in0.0 mm 0.00 in0.0 mm 0.10 in2.5 mm
03:14 AM 75.2°F24.0°C 72.7°F22.6°C 92% Calm Calm -- 29.99 in1015.6 mb 0.00 in0.0 mm 0.00 in0.0 mm 0.10 in2.5 mm
03:15 AM 75.2°F24.0°C 72.7°F22.6°C 92% Calm Calm -- 29.99 in1015.6 mb 0.00 in0.0 mm 0.00 in0.0 mm 0.10 in2.5 mm
03:16 AM 75.2°F24.0°C 72.7°F22.6°C 92% Calm Calm -- 29.99 in1015.6 mb 0.00 in0.0 mm 0.00 in0.0 mm 0.10 in2.5 mm
03:17 AM 75.0°F23.9°C 72.5°F22.5°C 92% Calm Calm -- 29.99 in1015.6 mb 0.00 in0.0 mm 0.00 in0.0 mm 0.10 in2.5 mm
03:18 AM 75.0°F23.9°C 72.5°F22.5°C 92% Calm Calm -- 29.99 in1015.6 mb 0.00 in0.0 mm 0.00 in0.0 mm 0.10 in2.5 mm
03:19 AM 75.0°F23.9°C 72.5°F22.5°C 92% Calm Calm -- 29.99 in1015.6 mb 0.00 in0.0 mm 0.00 in0.0 mm 0.10 in2.5 mm
03:20 AM 75.0°F23.9°C 72.5°F22.5°C 92% Calm Calm -- 29.99 in1015.6 mb 0.00 in0.0 mm 0.00 in0.0 mm 0.10 in2.5 mm
03:21 AM 75.0°F23.9°C 72.5°F22.5°C 92% Calm Calm -- 29.99 in1015.6 mb 0.00 in0.0 mm 0.00 in0.0 mm 0.10 in2.5 mm
03:22 AM 75.0°F23.9°C 72.5°F22.5°C 92% Calm Calm -- 29.99 in1015.6 mb 0.00 in0.0 mm 0.00 in0.0 mm 0.10 in2.5 mm
03:23 AM 75.0°F23.9°C 72.5°F22.5°C 92% Calm Calm -- 29.99 in1015.6 mb 0.00 in0.0 mm 0.00 in0.0 mm 0.10 in2.5 mm
03:24 AM 75.0°F23.9°C 72.5°F22.5°C 92% Calm Calm -- 30.00 in1015.9 mb 0.00 in0.0 mm 0.00 in0.0 mm 0.10 in2.5 mm
03:25 AM 75.0°F23.9°C 72.5°F22.5°C 92% Calm Calm -- 30.00 in1015.9 mb 0.00 in0.0 mm 0.00 in0.0 mm 0.10 in2.5 mm
03:26 AM 75.0°F23.9°C 72.5°F22.5°C 92% Calm Calm -- 30.00 in1015.9 mb 0.00 in0.0 mm 0.00 in0.0 mm 0.10 in2.5 mm
03:27 AM 75.0°F23.9°C 72.5°F22.5°C 92% Calm Calm -- 30.00 in1015.9 mb 0.01 in0.3 mm 0.60 in15.2 mm 0.11 in2.8 mm
03:28 AM 74.8°F23.8°C 72.3°F22.4°C 92% Calm Calm -- 30.00 in1015.9 mb 0.01 in0.3 mm 0.00 in0.0 mm 0.11 in2.8 mm
03:29 AM 74.8°F23.8°C 72.3°F22.4°C 92% Calm Calm -- 30.00 in1015.9 mb 0.01 in0.3 mm 0.00 in0.0 mm 0.11 in2.8 mm
03:30 AM 74.8°F23.8°C 72.3°F22.4°C 92% Calm Calm -- 30.00 in1015.9 mb 0.01 in0.3 mm 0.00 in0.0 mm 0.11 in2.8 mm
03:31 AM 74.8°F23.8°C 72.3°F22.4°C 92% Calm Calm -- 30.00 in1015.9 mb 0.01 in0.3 mm 0.00 in0.0 mm 0.11 in2.8 mm
03:32 AM 74.8°F23.8°C 72.3°F22.4°C 92% Calm Calm -- 30.00 in1015.9 mb 0.02 in0.5 mm 0.60 in15.2 mm 0.12 in3.0 mm
03:33 AM 74.8°F23.8°C 72.3°F22.4°C 92% Calm Calm -- 30.00 in1015.9 mb 0.02 in0.5 mm 0.00 in0.0 mm 0.12 in3.0 mm
03:34 AM 74.8°F23.8°C 72.3°F22.4°C 92% Calm Calm -- 30.00 in1015.9 mb 0.02 in0.5 mm 0.00 in0.0 mm 0.12 in3.0 mm
03:35 AM 74.8°F23.8°C 72.6°F22.6°C 93% Calm Calm -- 30.00 in1015.9 mb 0.02 in0.5 mm 0.00 in0.0 mm 0.12 in3.0 mm
03:36 AM 74.8°F23.8°C 72.6°F22.6°C 93% Calm Calm -- 30.00 in1015.9 mb 0.02 in0.5 mm 0.00 in0.0 mm 0.12 in3.0 mm
03:37 AM 74.8°F23.8°C 72.6°F22.6°C 93% Calm Calm -- 29.99 in1015.6 mb 0.02 in0.5 mm 0.00 in0.0 mm 0.12 in3.0 mm
03:38 AM 74.8°F23.8°C 72.6°F22.6°C 93% Calm Calm -- 29.99 in1015.6 mb 0.03 in0.8 mm 0.60 in15.2 mm 0.13 in3.3 mm
03:39 AM 74.8°F23.8°C 72.6°F22.6°C 93% Calm Calm -- 29.99 in1015.6 mb 0.03 in0.8 mm 0.00 in0.0 mm 0.13 in3.3 mm
03:40 AM 74.8°F23.8°C 72.6°F22.6°C 93% Calm Calm -- 29.99 in1015.6 mb 0.03 in0.8 mm 0.00 in0.0 mm 0.13 in3.3 mm
03:41 AM 74.8°F23.8°C 72.6°F22.6°C 93% Calm Calm -- 29.99 in1015.6 mb 0.03 in0.8 mm 0.00 in0.0 mm 0.13 in3.3 mm
03:42 AM 74.8°F23.8°C 72.6°F22.6°C 93% Calm Calm -- 29.99 in1015.6 mb 0.04 in1.0 mm 0.60 in15.2 mm 0.14 in3.6 mm
03:43 AM 74.8°F23.8°C 72.6°F22.6°C 93% Calm Calm -- 29.99 in1015.6 mb 0.04 in1.0 mm 0.00 in0.0 mm 0.14 in3.6 mm
03:44 AM 74.8°F23.8°C 72.6°F22.6°C 93% Calm Calm -- 29.99 in1015.6 mb 0.04 in1.0 mm 0.00 in0.0 mm 0.14 in3.6 mm
03:45 AM 74.8°F23.8°C 72.6°F22.6°C 93% Calm Calm -- 29.99 in1015.6 mb 0.04 in1.0 mm 0.00 in0.0 mm 0.14 in3.6 mm
03:46 AM 74.8°F23.8°C 72.6°F22.6°C 93% Calm Calm -- 29.99 in1015.6 mb 0.05 in1.3 mm 0.60 in15.2 mm 0.15 in3.8 mm
03:47 AM 74.8°F23.8°C 72.6°F22.6°C 93% Calm Calm -- 29.99 in1015.6 mb 0.05 in1.3 mm 0.00 in0.0 mm 0.15 in3.8 mm
03:48 AM 74.8°F23.8°C 72.6°F22.6°C 93% Calm Calm -- 29.99 in1015.6 mb 0.06 in1.5 mm 0.60 in15.2 mm 0.16 in4.1 mm
03:49 AM 74.8°F23.8°C 72.6°F22.6°C 93% Calm Calm -- 29.99 in1015.6 mb 0.06 in1.5 mm 0.00 in0.0 mm 0.16 in4.1 mm
03:50 AM 74.8°F23.8°C 72.6°F22.6°C 93% Calm Calm -- 29.99 in1015.6 mb 0.06 in1.5 mm 0.00 in0.0 mm 0.16 in4.1 mm
03:51 AM 74.8°F23.8°C 72.6°F22.6°C 93% Calm Calm -- 29.99 in1015.6 mb 0.06 in1.5 mm 0.00 in0.0 mm 0.16 in4.1 mm
03:52 AM 74.8°F23.8°C 72.6°F22.6°C 93% Calm Calm -- 29.99 in1015.6 mb 0.06 in1.5 mm 0.00 in0.0 mm 0.16 in4.1 mm
03:53 AM 74.8°F23.8°C 72.6°F22.6°C 93% Calm Calm -- 29.99 in1015.6 mb 0.06 in1.5 mm 0.00 in0.0 mm 0.16 in4.1 mm
03:54 AM 74.8°F23.8°C 72.6°F22.6°C 93% Calm Calm -- 29.99 in1015.6 mb 0.07 in1.8 mm 0.60 in15.2 mm 0.17 in4.3 mm
03:55 AM 74.8°F23.8°C 72.6°F22.6°C 93% Calm Calm -- 29.99 in1015.6 mb 0.07 in1.8 mm 0.00 in0.0 mm 0.17 in4.3 mm
03:56 AM 74.8°F23.8°C 72.6°F22.6°C 93% Calm Calm -- 29.99 in1015.6 mb 0.07 in1.8 mm 0.00 in0.0 mm 0.17 in4.3 mm
03:57 AM 74.8°F23.8°C 72.6°F22.6°C 93% Calm Calm -- 29.99 in1015.6 mb 0.07 in1.8 mm 0.00 in0.0 mm 0.17 in4.3 mm
03:58 AM 74.8°F23.8°C 72.6°F22.6°C 93% Calm Calm -- 29.99 in1015.6 mb 0.07 in1.8 mm 0.00 in0.0 mm 0.17 in4.3 mm
03:59 AM 74.8°F23.8°C 72.6°F22.6°C 93% Calm Calm -- 29.99 in1015.6 mb 0.07 in1.8 mm 0.00 in0.0 mm 0.17 in4.3 mm
04:00 AM 74.8°F23.8°C 72.6°F22.6°C 93% Calm Calm -- 29.98 in1015.2 mb 0.08 in2.0 mm 0.01 in0.3 mm 0.18 in4.6 mm
04:01 AM 74.8°F23.8°C 72.6°F22.6°C 93% Calm Calm -- 29.98 in1015.2 mb 0.08 in2.0 mm 0.00 in0.0 mm 0.18 in4.6 mm
04:02 AM 74.8°F23.8°C 72.6°F22.6°C 93% Calm Calm -- 29.98 in1015.2 mb 0.08 in2.0 mm 0.00 in0.0 mm 0.18 in4.6 mm
04:03 AM 74.8°F23.8°C 72.6°F22.6°C 93% Calm Calm -- 29.98 in1015.2 mb 0.08 in2.0 mm 0.00 in0.0 mm 0.18 in4.6 mm
04:04 AM 74.8°F23.8°C 72.6°F22.6°C 93% Calm Calm -- 29.98 in1015.2 mb 0.08 in2.0 mm 0.00 in0.0 mm 0.18 in4.6 mm
04:05 AM 74.8°F23.8°C 72.6°F22.6°C 93% 1.7 mph E2.7 kmh E 1.7 mph2.7 kmh 29.98 in1015.2 mb 0.08 in2.0 mm 0.00 in0.0 mm 0.18 in4.6 mm
04:06 AM 74.8°F23.8°C 72.6°F22.6°C 93% Calm Calm 1.7 mph2.7 kmh 29.98 in1015.2 mb 0.08 in2.0 mm 0.00 in0.0 mm 0.18 in4.6 mm
04:07 AM 74.8°F23.8°C 72.6°F22.6°C 93% Calm Calm 1.7 mph2.7 kmh 29.98 in1015.2 mb 0.08 in2.0 mm 0.00 in0.0 mm 0.18 in4.6 mm
04:08 AM 74.8°F23.8°C 72.6°F22.6°C 93% Calm Calm 1.7 mph2.7 kmh 29.98 in1015.2 mb 0.08 in2.0 mm 0.00 in0.0 mm 0.18 in4.6 mm
04:09 AM 74.8°F23.8°C 72.6°F22.6°C 93% Calm Calm 1.7 mph2.7 kmh 29.98 in1015.2 mb 0.08 in2.0 mm 0.00 in0.0 mm 0.18 in4.6 mm
04:10 AM 74.8°F23.8°C 72.6°F22.6°C 93% Calm Calm 1.7 mph2.7 kmh 29.98 in1015.2 mb 0.09 in2.3 mm 0.60 in15.2 mm 0.19 in4.8 mm
04:11 AM 74.8°F23.8°C 72.6°F22.6°C 93% Calm Calm 1.7 mph2.7 kmh 29.98 in1015.2 mb 0.09 in2.3 mm 0.00 in0.0 mm 0.19 in4.8 mm
04:12 AM 74.8°F23.8°C 72.6°F22.6°C 93% Calm Calm 1.7 mph2.7 kmh 29.97 in1014.9 mb 0.09 in2.3 mm 0.00 in0.0 mm 0.19 in4.8 mm
04:13 AM 74.8°F23.8°C 72.6°F22.6°C 93% Calm Calm 1.7 mph2.7 kmh 29.97 in1014.9 mb 0.09 in2.3 mm 0.00 in0.0 mm 0.19 in4.8 mm
04:14 AM 74.8°F23.8°C 72.6°F22.6°C 93% Calm Calm 1.7 mph2.7 kmh 29.97 in1014.9 mb 0.09 in2.3 mm 0.00 in0.0 mm 0.19 in4.8 mm
04:15 AM 74.8°F23.8°C 72.6°F22.6°C 93% Calm Calm 1.7 mph2.7 kmh 29.97 in1014.9 mb 0.09 in2.3 mm 0.00 in0.0 mm 0.19 in4.8 mm
04:16 AM 74.8°F23.8°C 72.6°F22.6°C 93% Calm Calm -- 29.97 in1014.9 mb 0.09 in2.3 mm 0.00 in0.0 mm 0.19 in4.8 mm
04:17 AM 74.8°F23.8°C 72.6°F22.6°C 93% Calm Calm -- 29.97 in1014.9 mb 0.09 in2.3 mm 0.00 in0.0 mm 0.19 in4.8 mm
04:18 AM 74.8°F23.8°C 72.6°F22.6°C 93% Calm Calm -- 29.97 in1014.9 mb 0.09 in2.3 mm 0.00 in0.0 mm 0.19 in4.8 mm
04:19 AM 74.8°F23.8°C 72.6°F22.6°C 93% Calm Calm -- 29.97 in1014.9 mb 0.09 in2.3 mm 0.00 in0.0 mm 0.19 in4.8 mm
04:20 AM 74.8°F23.8°C 72.6°F22.6°C 93% Calm Calm -- 29.97 in1014.9 mb 0.09 in2.3 mm 0.00 in0.0 mm 0.19 in4.8 mm
04:21 AM 74.8°F23.8°C 72.6°F22.6°C 93% Calm Calm -- 29.97 in1014.9 mb 0.09 in2.3 mm 0.00 in0.0 mm 0.19 in4.8 mm
04:22 AM 74.8°F23.8°C 72.6°F22.6°C 93% Calm Calm -- 29.97 in1014.9 mb 0.09 in2.3 mm 0.00 in0.0 mm 0.19 in4.8 mm
04:23 AM 74.8°F23.8°C 72.6°F22.6°C 93% Calm Calm -- 29.97 in1014.9 mb 0.09 in2.3 mm 0.00 in0.0 mm 0.19 in4.8 mm
04:24 AM 74.8°F23.8°C 72.6°F22.6°C 93% Calm Calm -- 29.97 in1014.9 mb 0.09 in2.3 mm 0.00 in0.0 mm 0.19 in4.8 mm
04:25 AM 74.8°F23.8°C 72.6°F22.6°C 93% Calm Calm -- 29.97 in1014.9 mb 0.09 in2.3 mm 0.00 in0.0 mm 0.19 in4.8 mm
04:26 AM 74.8°F23.8°C 72.6°F22.6°C 93% Calm Calm -- 29.97 in1014.9 mb 0.09 in2.3 mm 0.00 in0.0 mm 0.19 in4.8 mm
04:27 AM 74.8°F23.8°C 72.6°F22.6°C 93% Calm Calm -- 29.97 in1014.9 mb 0.08 in2.0 mm 0.00 in0.0 mm 0.19 in4.8 mm
04:28 AM 74.8°F23.8°C 72.6°F22.6°C 93% Calm Calm -- 29.97 in1014.9 mb 0.08 in2.0 mm 0.00 in0.0 mm 0.19 in4.8 mm
04:29 AM 74.8°F23.8°C 72.6°F22.6°C 93% Calm Calm -- 29.97 in1014.9 mb 0.08 in2.0 mm 0.00 in0.0 mm 0.19 in4.8 mm
04:30 AM 74.8°F23.8°C 72.6°F22.6°C 93% Calm Calm -- 29.97 in1014.9 mb 0.08 in2.0 mm 0.00 in0.0 mm 0.19 in4.8 mm
04:31 AM 74.8°F23.8°C 72.6°F22.6°C 93% Calm Calm -- 29.97 in1014.9 mb 0.08 in2.0 mm 0.00 in0.0 mm 0.19 in4.8 mm
04:32 AM 74.8°F23.8°C 72.6°F22.6°C 93% Calm Calm -- 29.97 in1014.9 mb 0.07 in1.8 mm 0.00 in0.0 mm 0.19 in4.8 mm
04:33 AM 74.8°F23.8°C 72.6°F22.6°C 93% Calm Calm -- 29.97 in1014.9 mb 0.07 in1.8 mm 0.00 in0.0 mm 0.19 in4.8 mm
04:34 AM 74.8°F23.8°C 72.6°F22.6°C 93% 2.7 mph SSW4.3 kmh SSW 2.7 mph4.3 kmh 29.97 in1014.9 mb 0.07 in1.8 mm 0.00 in0.0 mm 0.19 in4.8 mm
04:35 AM 74.8°F23.8°C 72.6°F22.6°C 93% 1.7 mph SSE2.7 kmh SSE 2.7 mph4.3 kmh 29.97 in1014.9 mb 0.07 in1.8 mm 0.00 in0.0 mm 0.19 in4.8 mm
04:36 AM 74.8°F23.8°C 72.6°F22.6°C 93% Calm Calm 2.7 mph4.3 kmh 29.97 in1014.9 mb 0.07 in1.8 mm 0.00 in0.0 mm 0.19 in4.8 mm
04:37 AM 74.8°F23.8°C 72.6°F22.6°C 93% Calm Calm 2.7 mph4.3 kmh 29.98 in1015.2 mb 0.07 in1.8 mm 0.00 in0.0 mm 0.19 in4.8 mm
04:38 AM 74.8°F23.8°C 73.0°F22.8°C 94% Calm Calm 2.7 mph4.3 kmh 29.98 in1015.2 mb 0.06 in1.5 mm 0.00 in0.0 mm 0.19 in4.8 mm
04:39 AM 74.8°F23.8°C 73.0°F22.8°C 94% Calm Calm 2.7 mph4.3 kmh 29.98 in1015.2 mb 0.06 in1.5 mm 0.00 in0.0 mm 0.19 in4.8 mm
04:40 AM 74.8°F23.8°C 73.0°F22.8°C 94% 1.1 mph NNW1.8 kmh NNW 2.7 mph4.3 kmh 29.98 in1015.2 mb 0.06 in1.5 mm 0.00 in0.0 mm 0.19 in4.8 mm
04:41 AM 75.0°F23.9°C 73.2°F22.9°C 94% 1.7 mph ESE2.7 kmh ESE 2.7 mph4.3 kmh 29.98 in1015.2 mb 0.06 in1.5 mm 0.00 in0.0 mm 0.19 in4.8 mm
04:42 AM 75.0°F23.9°C 73.2°F22.9°C 94% 3.2 mph ESE5.1 kmh ESE 3.2 mph5.1 kmh 29.98 in1015.2 mb 0.05 in1.3 mm 0.00 in0.0 mm 0.19 in4.8 mm
04:43 AM 75.0°F23.9°C 73.2°F22.9°C 94% 1.7 mph SSW2.7 kmh SSW 3.2 mph5.1 kmh 29.98 in1015.2 mb 0.05 in1.3 mm 0.00 in0.0 mm 0.19 in4.8 mm
04:44 AM 75.0°F23.9°C 73.2°F22.9°C 94% 2.2 mph ESE3.5 kmh ESE 3.2 mph5.1 kmh 29.98 in1015.2 mb 0.05 in1.3 mm 0.00 in0.0 mm 0.19 in4.8 mm
04:45 AM 75.0°F23.9°C 73.2°F22.9°C 94% Calm Calm 3.2 mph5.1 kmh 29.98 in1015.2 mb 0.05 in1.3 mm 0.00 in0.0 mm 0.19 in4.8 mm
04:46 AM 75.0°F23.9°C 73.2°F22.9°C 94% Calm Calm 3.2 mph5.1 kmh 29.98 in1015.2 mb 0.04 in1.0 mm 0.00 in0.0 mm 0.19 in4.8 mm
04:47 AM 75.0°F23.9°C 73.2°F22.9°C 94% Calm Calm 3.2 mph5.1 kmh 29.98 in1015.2 mb 0.04 in1.0 mm 0.00 in0.0 mm 0.19 in4.8 mm
04:48 AM 75.0°F23.9°C 73.2°F22.9°C 94% Calm Calm 3.2 mph5.1 kmh 29.98 in1015.2 mb 0.04 in1.0 mm 0.00 in0.0 mm 0.19 in4.8 mm
04:49 AM 75.0°F23.9°C 73.2°F22.9°C 94% Calm Calm 3.2 mph5.1 kmh 29.98 in1015.2 mb 0.03 in0.8 mm 0.00 in0.0 mm 0.19 in4.8 mm
04:50 AM 75.0°F23.9°C 73.2°F22.9°C 94% Calm Calm 3.2 mph5.1 kmh 29.98 in1015.2 mb 0.03 in0.8 mm 0.00 in0.0 mm 0.19 in4.8 mm
04:51 AM 75.0°F23.9°C 73.2°F22.9°C 94% Calm Calm 3.2 mph5.1 kmh 29.98 in1015.2 mb 0.03 in0.8 mm 0.00 in0.0 mm 0.19 in4.8 mm
04:52 AM 75.0°F23.9°C 73.2°F22.9°C 94% Calm Calm 2.7 mph4.3 kmh 29.98 in1015.2 mb 0.03 in0.8 mm 0.00 in0.0 mm 0.19 in4.8 mm
04:53 AM 75.0°F23.9°C 73.2°F22.9°C 94% Calm Calm 2.7 mph4.3 kmh 29.98 in1015.2 mb 0.03 in0.8 mm 0.00 in0.0 mm 0.19 in4.8 mm
04:54 AM 75.0°F23.9°C 73.2°F22.9°C 94% Calm Calm 2.7 mph4.3 kmh 29.98 in1015.2 mb 0.02 in0.5 mm 0.00 in0.0 mm 0.19 in4.8 mm
04:55 AM 75.0°F23.9°C 73.2°F22.9°C 94% Calm Calm -- 29.98 in1015.2 mb 0.03 in0.8 mm 0.60 in15.2 mm 0.20 in5.1 mm
04:56 AM 75.0°F23.9°C 73.2°F22.9°C 94% Calm Calm -- 29.98 in1015.2 mb 0.03 in0.8 mm 0.00 in0.0 mm 0.20 in5.1 mm
04:57 AM 75.0°F23.9°C 73.2°F22.9°C 94% Calm Calm -- 29.98 in1015.2 mb 0.03 in0.8 mm 0.00 in0.0 mm 0.20 in5.1 mm
04:58 AM 75.0°F23.9°C 73.2°F22.9°C 94% Calm Calm -- 29.98 in1015.2 mb 0.03 in0.8 mm 0.00 in0.0 mm 0.20 in5.1 mm
04:59 AM 75.0°F23.9°C 73.2°F22.9°C 94% Calm Calm -- 29.98 in1015.2 mb 0.03 in0.8 mm 0.00 in0.0 mm 0.20 in5.1 mm
05:00 AM 75.0°F23.9°C 73.2°F22.9°C 94% Calm Calm -- 29.99 in1015.6 mb 0.02 in0.5 mm 0.00 in0.0 mm 0.20 in5.1 mm
05:01 AM 75.2°F24.0°C 73.3°F22.9°C 94% Calm Calm -- 29.99 in1015.6 mb 0.02 in0.5 mm 0.00 in0.0 mm 0.20 in5.1 mm
05:02 AM 75.2°F24.0°C 73.3°F22.9°C 94% Calm Calm -- 29.99 in1015.6 mb 0.02 in0.5 mm 0.00 in0.0 mm 0.20 in5.1 mm
05:03 AM 75.2°F24.0°C 73.3°F22.9°C 94% Calm Calm -- 29.99 in1015.6 mb 0.02 in0.5 mm 0.00 in0.0 mm 0.20 in5.1 mm
05:04 AM 75.2°F24.0°C 73.3°F22.9°C 94% Calm Calm -- 29.99 in1015.6 mb 0.02 in0.5 mm 0.00 in0.0 mm 0.20 in5.1 mm
05:05 AM 75.2°F24.0°C 73.3°F22.9°C 94% Calm Calm -- 29.99 in1015.6 mb 0.02 in0.5 mm 0.00 in0.0 mm 0.20 in5.1 mm
05:06 AM 75.2°F24.0°C 73.3°F22.9°C 94% Calm Calm -- 29.99 in1015.6 mb 0.02 in0.5 mm 0.00 in0.0 mm 0.20 in5.1 mm
05:07 AM 75.2°F24.0°C 73.3°F22.9°C 94% Calm Calm -- 29.99 in1015.6 mb 0.02 in0.5 mm 0.00 in0.0 mm 0.20 in5.1 mm
05:08 AM 75.2°F24.0°C 73.3°F22.9°C 94% Calm Calm -- 29.99 in1015.6 mb 0.02 in0.5 mm 0.00 in0.0 mm 0.20 in5.1 mm
05:09 AM 75.2°F24.0°C 73.3°F22.9°C 94% Calm Calm -- 29.99 in1015.6 mb 0.02 in0.5 mm 0.00 in0.0 mm 0.20 in5.1 mm
05:10 AM 75.2°F24.0°C 73.3°F22.9°C 94% Calm Calm -- 29.99 in1015.6 mb 0.02 in0.5 mm 0.00 in0.0 mm 0.20 in5.1 mm
05:11 AM 75.2°F24.0°C 73.3°F22.9°C 94% Calm Calm -- 29.99 in1015.6 mb 0.01 in0.3 mm 0.00 in0.0 mm 0.20 in5.1 mm
05:12 AM 75.2°F24.0°C 73.3°F22.9°C 94% Calm Calm -- 29.99 in1015.6 mb 0.01 in0.3 mm 0.00 in0.0 mm 0.20 in5.1 mm
05:13 AM 75.0°F23.9°C 73.2°F22.9°C 94% Calm Calm -- 29.99 in1015.6 mb 0.01 in0.3 mm 0.00 in0.0 mm 0.20 in5.1 mm
05:14 AM 75.0°F23.9°C 73.2°F22.9°C 94% Calm Calm -- 29.99 in1015.6 mb 0.01 in0.3 mm 0.00 in0.0 mm 0.20 in5.1 mm
05:15 AM 75.0°F23.9°C 73.2°F22.9°C 94% Calm Calm -- 29.99 in1015.6 mb 0.01 in0.3 mm 0.00 in0.0 mm 0.20 in5.1 mm
05:16 AM 75.0°F23.9°C 73.2°F22.9°C 94% Calm Calm -- 29.99 in1015.6 mb 0.01 in0.3 mm 0.00 in0.0 mm 0.20 in5.1 mm
05:17 AM 75.0°F23.9°C 73.2°F22.9°C 94% Calm Calm -- 29.99 in1015.6 mb 0.01 in0.3 mm 0.00 in0.0 mm 0.20 in5.1 mm
05:18 AM 75.0°F23.9°C 73.2°F22.9°C 94% Calm Calm -- 29.99 in1015.6 mb 0.01 in0.3 mm 0.00 in0.0 mm 0.20 in5.1 mm
05:19 AM 75.0°F23.9°C 73.2°F22.9°C 94% Calm Calm -- 29.99 in1015.6 mb 0.01 in0.3 mm 0.00 in0.0 mm 0.20 in5.1 mm
05:20 AM 75.0°F23.9°C 73.2°F22.9°C 94% Calm Calm -- 29.99 in1015.6 mb 0.01 in0.3 mm 0.00 in0.0 mm 0.20 in5.1 mm
05:21 AM 75.0°F23.9°C 73.2°F22.9°C 94% Calm Calm -- 29.99 in1015.6 mb 0.01 in0.3 mm 0.00 in0.0 mm 0.20 in5.1 mm
05:22 AM 75.0°F23.9°C 73.2°F22.9°C 94% Calm Calm -- 29.99 in1015.6 mb 0.01 in0.3 mm 0.00 in0.0 mm 0.20 in5.1 mm
05:23 AM 75.0°F23.9°C 73.2°F22.9°C 94% Calm Calm -- 29.99 in1015.6 mb 0.01 in0.3 mm 0.00 in0.0 mm 0.20 in5.1 mm
05:24 AM 75.0°F23.9°C 73.2°F22.9°C 94% Calm Calm -- 29.99 in1015.6 mb 0.01 in0.3 mm 0.00 in0.0 mm 0.20 in5.1 mm
05:25 AM 75.0°F23.9°C 73.2°F22.9°C 94% Calm Calm -- 30.00 in1015.9 mb 0.01 in0.3 mm 0.00 in0.0 mm 0.20 in5.1 mm
05:26 AM 75.0°F23.9°C 73.2°F22.9°C 94% Calm Calm -- 30.00 in1015.9 mb 0.01 in0.3 mm 0.00 in0.0 mm 0.20 in5.1 mm
05:27 AM 75.0°F23.9°C 73.2°F22.9°C 94% Calm Calm -- 30.00 in1015.9 mb 0.01 in0.3 mm 0.00 in0.0 mm 0.20 in5.1 mm
05:28 AM 75.0°F23.9°C 73.2°F22.9°C 94% Calm Calm -- 30.00 in1015.9 mb 0.01 in0.3 mm 0.00 in0.0 mm 0.20 in5.1 mm
05:29 AM 75.0°F23.9°C 73.2°F22.9°C 94% Calm Calm -- 30.00 in1015.9 mb 0.01 in0.3 mm 0.00 in0.0 mm 0.20 in5.1 mm
05:30 AM 75.0°F23.9°C 73.2°F22.9°C 94% Calm Calm -- 30.00 in1015.9 mb 0.02 in0.5 mm 0.60 in15.2 mm 0.21 in5.3 mm
05:31 AM 75.0°F23.9°C 73.2°F22.9°C 94% Calm Calm -- 30.00 in1015.9 mb 0.02 in0.5 mm 0.00 in0.0 mm 0.21 in5.3 mm
05:32 AM 75.0°F23.9°C 73.2°F22.9°C 94% Calm Calm -- 30.00 in1015.9 mb 0.02 in0.5 mm 0.00 in0.0 mm 0.21 in5.3 mm
05:33 AM 75.0°F23.9°C 73.2°F22.9°C 94% Calm Calm -- 30.00 in1015.9 mb 0.02 in0.5 mm 0.00 in0.0 mm 0.21 in5.3 mm
05:34 AM 75.0°F23.9°C 73.2°F22.9°C 94% Calm Calm -- 30.00 in1015.9 mb 0.02 in0.5 mm 0.00 in0.0 mm 0.21 in5.3 mm
05:35 AM 75.0°F23.9°C 73.2°F22.9°C 94% Calm Calm -- 30.00 in1015.9 mb 0.02 in0.5 mm 0.00 in0.0 mm 0.21 in5.3 mm
05:36 AM 75.0°F23.9°C 73.2°F22.9°C 94% Calm Calm -- 30.00 in1015.9 mb 0.02 in0.5 mm 0.00 in0.0 mm 0.21 in5.3 mm
05:37 AM 75.0°F23.9°C 73.2°F22.9°C 94% Calm Calm -- 30.00 in1015.9 mb 0.02 in0.5 mm 0.00 in0.0 mm 0.21 in5.3 mm
05:38 AM 75.0°F23.9°C 73.2°F22.9°C 94% Calm Calm -- 30.00 in1015.9 mb 0.02 in0.5 mm 0.00 in0.0 mm 0.21 in5.3 mm
05:39 AM 75.0°F23.9°C 73.2°F22.9°C 94% Calm Calm -- 30.00 in1015.9 mb 0.02 in0.5 mm 0.00 in0.0 mm 0.21 in5.3 mm
05:40 AM 74.8°F23.8°C 73.0°F22.8°C 94% Calm Calm -- 30.00 in1015.9 mb 0.02 in0.5 mm 0.00 in0.0 mm 0.21 in5.3 mm
05:41 AM 74.8°F23.8°C 73.0°F22.8°C 94% Calm Calm -- 30.00 in1015.9 mb 0.03 in0.8 mm 0.60 in15.2 mm 0.22 in5.6 mm
05:42 AM 74.8°F23.8°C 73.0°F22.8°C 94% Calm Calm -- 30.00 in1015.9 mb 0.03 in0.8 mm 0.00 in0.0 mm 0.22 in5.6 mm
05:43 AM 74.8°F23.8°C 73.0°F22.8°C 94% Calm Calm -- 30.00 in1015.9 mb 0.03 in0.8 mm 0.00 in0.0 mm 0.22 in5.6 mm
05:44 AM 74.8°F23.8°C 73.0°F22.8°C 94% Calm Calm -- 30.00 in1015.9 mb 0.03 in0.8 mm 0.00 in0.0 mm 0.22 in5.6 mm
05:45 AM 74.8°F23.8°C 73.0°F22.8°C 94% Calm Calm -- 30.00 in1015.9 mb 0.03 in0.8 mm 0.00 in0.0 mm 0.22 in5.6 mm
05:46 AM 74.8°F23.8°C 73.0°F22.8°C 94% Calm Calm -- 30.00 in1015.9 mb 0.03 in0.8 mm 0.00 in0.0 mm 0.22 in5.6 mm
05:47 AM 74.8°F23.8°C 73.0°F22.8°C 94% Calm Calm -- 30.00 in1015.9 mb 0.03 in0.8 mm 0.00 in0.0 mm 0.22 in5.6 mm
05:48 AM 74.8°F23.8°C 73.0°F22.8°C 94% Calm Calm -- 30.00 in1015.9 mb 0.03 in0.8 mm 0.00 in0.0 mm 0.22 in5.6 mm
05:49 AM 74.8°F23.8°C 73.0°F22.8°C 94% Calm Calm -- 30.00 in1015.9 mb 0.03 in0.8 mm 0.00 in0.0 mm 0.22 in5.6 mm
05:50 AM 74.8°F23.8°C 73.0°F22.8°C 94% Calm Calm -- 30.00 in1015.9 mb 0.03 in0.8 mm 0.00 in0.0 mm 0.22 in5.6 mm
05:51 AM 74.8°F23.8°C 73.0°F22.8°C 94% Calm Calm -- 30.00 in1015.9 mb 0.03 in0.8 mm 0.00 in0.0 mm 0.22 in5.6 mm
05:52 AM 74.8°F23.8°C 73.0°F22.8°C 94% Calm Calm -- 30.00 in1015.9 mb 0.03 in0.8 mm 0.00 in0.0 mm 0.22 in5.6 mm
05:53 AM 74.8°F23.8°C 73.0°F22.8°C 94% Calm Calm -- 30.00 in1015.9 mb 0.03 in0.8 mm 0.00 in0.0 mm 0.22 in5.6 mm
05:54 AM 74.8°F23.8°C 73.0°F22.8°C 94% Calm Calm -- 30.00 in1015.9 mb 0.03 in0.8 mm 0.00 in0.0 mm 0.22 in5.6 mm
05:55 AM 74.8°F23.8°C 73.0°F22.8°C 94% Calm Calm -- 30.00 in1015.9 mb 0.02 in0.5 mm 0.00 in0.0 mm 0.22 in5.6 mm
05:56 AM 74.8°F23.8°C 73.0°F22.8°C 94% Calm Calm -- 30.00 in1015.9 mb 0.02 in0.5 mm 0.00 in0.0 mm 0.22 in5.6 mm
05:57 AM 74.8°F23.8°C 73.0°F22.8°C 94% Calm Calm -- 30.00 in1015.9 mb 0.02 in0.5 mm 0.00 in0.0 mm 0.22 in5.6 mm
05:58 AM 74.8°F23.8°C 73.0°F22.8°C 94% Calm Calm -- 30.00 in1015.9 mb 0.02 in0.5 mm 0.00 in0.0 mm 0.22 in5.6 mm
05:59 AM 74.8°F23.8°C 73.0°F22.8°C 94% Calm Calm -- 30.00 in1015.9 mb 0.02 in0.5 mm 0.00 in0.0 mm 0.22 in5.6 mm
06:00 AM 74.8°F23.8°C 73.0°F22.8°C 94% Calm Calm -- 30.00 in1015.9 mb 0.02 in0.5 mm 0.00 in0.0 mm 0.22 in5.6 mm
06:01 AM 74.8°F23.8°C 73.0°F22.8°C 94% Calm Calm -- 30.00 in1015.9 mb 0.02 in0.5 mm 0.00 in0.0 mm 0.22 in5.6 mm
06:02 AM 74.8°F23.8°C 73.0°F22.8°C 94% Calm Calm -- 30.00 in1015.9 mb 0.02 in0.5 mm 0.00 in0.0 mm 0.22 in5.6 mm
06:03 AM 74.8°F23.8°C 73.0°F22.8°C 94% Calm Calm -- 30.00 in1015.9 mb 0.02 in0.5 mm 0.00 in0.0 mm 0.22 in5.6 mm
06:04 AM 75.0°F23.9°C 73.2°F22.9°C 94% Calm Calm -- 30.00 in1015.9 mb 0.02 in0.5 mm 0.00 in0.0 mm 0.22 in5.6 mm
06:05 AM 75.0°F23.9°C 73.2°F22.9°C 94% Calm Calm -- 30.00 in1015.9 mb 0.02 in0.5 mm 0.00 in0.0 mm 0.22 in5.6 mm
06:06 AM 75.0°F23.9°C 73.2°F22.9°C 94% Calm Calm -- 30.00 in1015.9 mb 0.02 in0.5 mm 0.00 in0.0 mm 0.22 in5.6 mm
06:07 AM 75.0°F23.9°C 73.2°F22.9°C 94% Calm Calm -- 30.00 in1015.9 mb 0.02 in0.5 mm 0.00 in0.0 mm 0.22 in5.6 mm
06:08 AM 75.2°F24.0°C 73.3°F22.9°C 94% Calm Calm -- 30.00 in1015.9 mb 0.02 in0.5 mm 0.00 in0.0 mm 0.22 in5.6 mm
06:09 AM 75.2°F24.0°C 73.3°F22.9°C 94% Calm Calm -- 30.00 in1015.9 mb 0.02 in0.5 mm 0.00 in0.0 mm 0.22 in5.6 mm
06:10 AM 75.2°F24.0°C 73.3°F22.9°C 94% Calm Calm -- 30.00 in1015.9 mb 0.02 in0.5 mm 0.00 in0.0 mm 0.22 in5.6 mm
06:11 AM 75.2°F24.0°C 73.3°F22.9°C 94% Calm Calm -- 30.00 in1015.9 mb 0.02 in0.5 mm 0.00 in0.0 mm 0.22 in5.6 mm
06:12 AM 75.4°F24.1°C 73.5°F23.1°C 94% Calm Calm -- 30.00 in1015.9 mb 0.02 in0.5 mm 0.00 in0.0 mm 0.22 in5.6 mm
06:13 AM 75.4°F24.1°C 73.5°F23.1°C 94% 1.7 mph ENE2.7 kmh ENE 1.7 mph2.7 kmh 30.00 in1015.9 mb 0.02 in0.5 mm 0.00 in0.0 mm 0.22 in5.6 mm
06:14 AM 75.4°F24.1°C 73.5°F23.1°C 94% 1.7 mph ENE2.7 kmh ENE 1.7 mph2.7 kmh 30.00 in1015.9 mb 0.02 in0.5 mm 0.00 in0.0 mm 0.22 in5.6 mm
06:15 AM 75.4°F24.1°C 73.5°F23.1°C 94% Calm Calm 1.7 mph2.7 kmh 30.00 in1015.9 mb 0.02 in0.5 mm 0.00 in0.0 mm 0.22 in5.6 mm
06:16 AM 75.4°F24.1°C 73.5°F23.1°C 94% 2.2 mph SSE3.5 kmh SSE 3.2 mph5.1 kmh 30.00 in1015.9 mb 0.03 in0.8 mm 0.60 in15.2 mm 0.23 in5.8 mm
06:17 AM 75.4°F24.1°C 73.5°F23.1°C 94% Calm Calm 3.2 mph5.1 kmh 30.00 in1015.9 mb 0.03 in0.8 mm 0.00 in0.0 mm 0.23 in5.8 mm
06:18 AM 75.4°F24.1°C 73.5°F23.1°C 94% 2.2 mph ESE3.5 kmh ESE 3.2 mph5.1 kmh 30.00 in1015.9 mb 0.03 in0.8 mm 0.00 in0.0 mm 0.23 in5.8 mm
06:19 AM 75.4°F24.1°C 73.5°F23.1°C 94% Calm Calm 3.2 mph5.1 kmh 30.00 in1015.9 mb 0.03 in0.8 mm 0.00 in0.0 mm 0.23 in5.8 mm
06:20 AM 75.4°F24.1°C 73.5°F23.1°C 94% Calm Calm 3.2 mph5.1 kmh 30.00 in1015.9 mb 0.03 in0.8 mm 0.00 in0.0 mm 0.23 in5.8 mm
06:21 AM 75.4°F24.1°C 73.5°F23.1°C 94% Calm Calm 3.2 mph5.1 kmh 30.00 in1015.9 mb 0.03 in0.8 mm 0.00 in0.0 mm 0.23 in5.8 mm
06:22 AM 75.4°F24.1°C 73.5°F23.1°C 94% Calm Calm 3.2 mph5.1 kmh 30.00 in1015.9 mb 0.03 in0.8 mm 0.00 in0.0 mm 0.23 in5.8 mm
06:23 AM 75.4°F24.1°C 73.5°F23.1°C 94% Calm Calm 3.2 mph5.1 kmh 30.00 in1015.9 mb 0.03 in0.8 mm 0.00 in0.0 mm 0.23 in5.8 mm
06:24 AM 75.4°F24.1°C 73.5°F23.1°C 94% Calm Calm 3.2 mph5.1 kmh 30.00 in1015.9 mb 0.03 in0.8 mm 0.00 in0.0 mm 0.23 in5.8 mm
06:25 AM 75.4°F24.1°C 73.5°F23.1°C 94% Calm Calm 3.2 mph5.1 kmh 30.00 in1015.9 mb 0.03 in0.8 mm 0.00 in0.0 mm 0.23 in5.8 mm
06:26 AM 75.4°F24.1°C 73.5°F23.1°C 94% Calm Calm 2.2 mph3.5 kmh 30.00 in1015.9 mb 0.03 in0.8 mm 0.00 in0.0 mm 0.23 in5.8 mm
06:27 AM 75.2°F24.0°C 73.3°F22.9°C 94% Calm Calm 2.2 mph3.5 kmh 30.00 in1015.9 mb 0.03 in0.8 mm 0.00 in0.0 mm 0.23 in5.8 mm
06:28 AM 75.2°F24.0°C 73.3°F22.9°C 94% Calm Calm 2.2 mph3.5 kmh 30.00 in1015.9 mb 0.03 in0.8 mm 0.00 in0.0 mm 0.23 in5.8 mm
06:29 AM 75.2°F24.0°C 73.3°F22.9°C 94% Calm Calm -- 30.00 in1015.9 mb 0.03 in0.8 mm 0.00 in0.0 mm 0.23 in5.8 mm
06:30 AM 75.2°F24.0°C 73.3°F22.9°C 94% Calm Calm -- 30.00 in1015.9 mb 0.02 in0.5 mm 0.00 in0.0 mm 0.23 in5.8 mm
06:31 AM 75.2°F24.0°C 73.3°F22.9°C 94% Calm Calm -- 30.00 in1015.9 mb 0.02 in0.5 mm 0.00 in0.0 mm 0.23 in5.8 mm
06:32 AM 75.2°F24.0°C 73.3°F22.9°C 94% Calm Calm -- 30.00 in1015.9 mb 0.02 in0.5 mm 0.00 in0.0 mm 0.23 in5.8 mm
06:33 AM 75.2°F24.0°C 73.3°F22.9°C 94% Calm Calm -- 30.00 in1015.9 mb 0.02 in0.5 mm 0.00 in0.0 mm 0.23 in5.8 mm
06:34 AM 75.2°F24.0°C 73.3°F22.9°C 94% Calm Calm -- 30.00 in1015.9 mb 0.02 in0.5 mm 0.00 in0.0 mm 0.23 in5.8 mm
06:35 AM 75.2°F24.0°C 73.3°F22.9°C 94% Calm Calm -- 30.00 in1015.9 mb 0.02 in0.5 mm 0.00 in0.0 mm 0.23 in5.8 mm
06:36 AM 75.2°F24.0°C 73.3°F22.9°C 94% Calm Calm -- 30.00 in1015.9 mb 0.02 in0.5 mm 0.00 in0.0 mm 0.23 in5.8 mm
06:37 AM 75.2°F24.0°C 73.3°F22.9°C 94% Calm Calm -- 30.00 in1015.9 mb 0.02 in0.5 mm 0.00 in0.0 mm 0.23 in5.8 mm
06:38 AM 75.2°F24.0°C 73.3°F22.9°C 94% Calm Calm -- 30.00 in1015.9 mb 0.02 in0.5 mm 0.00 in0.0 mm 0.23 in5.8 mm
06:39 AM 75.2°F24.0°C 73.3°F22.9°C 94% Calm Calm -- 30.00 in1015.9 mb 0.02 in0.5 mm 0.00 in0.0 mm 0.23 in5.8 mm
06:40 AM 75.2°F24.0°C 73.3°F22.9°C 94% Calm Calm -- 30.00 in1015.9 mb 0.02 in0.5 mm 0.00 in0.0 mm 0.23 in5.8 mm
06:41 AM 75.2°F24.0°C 73.3°F22.9°C 94% Calm Calm -- 30.00 in1015.9 mb 0.01 in0.3 mm 0.00 in0.0 mm 0.23 in5.8 mm
06:42 AM 75.2°F24.0°C 73.3°F22.9°C 94% Calm Calm -- 30.00 in1015.9 mb 0.01 in0.3 mm 0.00 in0.0 mm 0.23 in5.8 mm
06:43 AM 75.2°F24.0°C 73.3°F22.9°C 94% Calm Calm -- 30.00 in1015.9 mb 0.01 in0.3 mm 0.00 in0.0 mm 0.23 in5.8 mm
06:44 AM 75.2°F24.0°C 73.3°F22.9°C 94% Calm Calm -- 30.00 in1015.9 mb 0.01 in0.3 mm 0.00 in0.0 mm 0.23 in5.8 mm
06:45 AM 75.2°F24.0°C 73.3°F22.9°C 94% Calm Calm -- 30.00 in1015.9 mb 0.01 in0.3 mm 0.00 in0.0 mm 0.23 in5.8 mm
06:46 AM 75.2°F24.0°C 73.3°F22.9°C 94% Calm Calm -- 30.00 in1015.9 mb 0.01 in0.3 mm 0.00 in0.0 mm 0.23 in5.8 mm
06:47 AM 75.2°F24.0°C 73.3°F22.9°C 94% Calm Calm -- 30.00 in1015.9 mb 0.01 in0.3 mm 0.00 in0.0 mm 0.23 in5.8 mm
06:48 AM 75.2°F24.0°C 73.3°F22.9°C 94% Calm Calm -- 30.00 in1015.9 mb 0.01 in0.3 mm 0.00 in0.0 mm 0.23 in5.8 mm
06:49 AM 75.2°F24.0°C 73.3°F22.9°C 94% Calm Calm -- 30.00 in1015.9 mb 0.01 in0.3 mm 0.00 in0.0 mm 0.23 in5.8 mm
06:50 AM 75.2°F24.0°C 73.3°F22.9°C 94% Calm Calm -- 30.00 in1015.9 mb 0.01 in0.3 mm 0.00 in0.0 mm 0.23 in5.8 mm
06:51 AM 75.2°F24.0°C 73.3°F22.9°C 94% Calm Calm -- 30.00 in1015.9 mb 0.01 in0.3 mm 0.00 in0.0 mm 0.23 in5.8 mm
06:52 AM 75.2°F24.0°C 73.3°F22.9°C 94% Calm Calm -- 30.00 in1015.9 mb 0.01 in0.3 mm 0.00 in0.0 mm 0.23 in5.8 mm
06:53 AM 75.2°F24.0°C 73.3°F22.9°C 94% Calm Calm -- 30.00 in1015.9 mb 0.01 in0.3 mm 0.00 in0.0 mm 0.23 in5.8 mm
06:54 AM 75.2°F24.0°C 73.3°F22.9°C 94% Calm Calm -- 30.00 in1015.9 mb 0.01 in0.3 mm 0.00 in0.0 mm 0.23 in5.8 mm
06:55 AM 75.2°F24.0°C 73.3°F22.9°C 94% Calm Calm -- 30.00 in1015.9 mb 0.01 in0.3 mm 0.00 in0.0 mm 0.23 in5.8 mm
06:56 AM 75.2°F24.0°C 73.3°F22.9°C 94% Calm Calm -- 30.00 in1015.9 mb 0.01 in0.3 mm 0.00 in0.0 mm 0.23 in5.8 mm
06:57 AM 75.2°F24.0°C 73.3°F22.9°C 94% Calm Calm -- 30.00 in1015.9 mb 0.01 in0.3 mm 0.00 in0.0 mm 0.23 in5.8 mm
06:58 AM 75.2°F24.0°C 73.3°F22.9°C 94% Calm Calm -- 30.00 in1015.9 mb 0.01 in0.3 mm 0.00 in0.0 mm 0.23 in5.8 mm
06:59 AM 75.2°F24.0°C 73.3°F22.9°C 94% Calm Calm -- 30.00 in1015.9 mb 0.01 in0.3 mm 0.00 in0.0 mm 0.23 in5.8 mm
07:00 AM 75.2°F24.0°C 73.3°F22.9°C 94% Calm Calm -- 30.00 in1015.9 mb 0.01 in0.3 mm 0.00 in0.0 mm 0.23 in5.8 mm
07:01 AM 75.2°F24.0°C 73.3°F22.9°C 94% Calm Calm -- 30.00 in1015.9 mb 0.01 in0.3 mm 0.00 in0.0 mm 0.23 in5.8 mm
07:02 AM 75.2°F24.0°C 73.3°F22.9°C 94% Calm Calm -- 30.00 in1015.9 mb 0.01 in0.3 mm 0.00 in0.0 mm 0.23 in5.8 mm
07:03 AM 75.2°F24.0°C 73.3°F22.9°C 94% Calm Calm -- 30.00 in1015.9 mb 0.01 in0.3 mm 0.00 in0.0 mm 0.23 in5.8 mm
07:04 AM 75.2°F24.0°C 73.3°F22.9°C 94% Calm Calm -- 30.00 in1015.9 mb 0.01 in0.3 mm 0.00 in0.0 mm 0.23 in5.8 mm
07:05 AM 75.2°F24.0°C 73.3°F22.9°C 94% Calm Calm -- 30.00 in1015.9 mb 0.01 in0.3 mm 0.00 in0.0 mm 0.23 in5.8 mm
07:06 AM 75.2°F24.0°C 73.3°F22.9°C 94% Calm Calm -- 30.00 in1015.9 mb 0.01 in0.3 mm 0.00 in0.0 mm 0.23 in5.8 mm
07:07 AM 75.2°F24.0°C 73.3°F22.9°C 94% Calm Calm -- 30.00 in1015.9 mb 0.01 in0.3 mm 0.00 in0.0 mm 0.23 in5.8 mm
07:08 AM 75.2°F24.0°C 73.3°F22.9°C 94% Calm Calm -- 30.00 in1015.9 mb 0.01 in0.3 mm 0.00 in0.0 mm 0.23 in5.8 mm
07:09 AM 75.2°F24.0°C 73.3°F22.9°C 94% Calm Calm -- 30.00 in1015.9 mb 0.01 in0.3 mm 0.00 in0.0 mm 0.23 in5.8 mm
07:10 AM 75.4°F24.1°C 73.5°F23.1°C 94% Calm Calm -- 30.00 in1015.9 mb 0.01 in0.3 mm 0.00 in0.0 mm 0.23 in5.8 mm
07:11 AM 75.4°F24.1°C 73.5°F23.1°C 94% Calm Calm -- 30.00 in1015.9 mb 0.01 in0.3 mm 0.00 in0.0 mm 0.23 in5.8 mm
07:12 AM 75.4°F24.1°C 73.2°F22.9°C 93% Calm Calm -- 30.00 in1015.9 mb 0.01 in0.3 mm 0.00 in0.0 mm 0.23 in5.8 mm
07:13 AM 75.4°F24.1°C 73.2°F22.9°C 93% Calm Calm -- 30.00 in1015.9 mb 0.01 in0.3 mm 0.00 in0.0 mm 0.23 in5.8 mm
07:14 AM 75.4°F24.1°C 73.2°F22.9°C 93% Calm Calm -- 30.00 in1015.9 mb 0.01 in0.3 mm 0.00 in0.0 mm 0.23 in5.8 mm
07:15 AM 75.4°F24.1°C 73.2°F22.9°C 93% Calm Calm -- 30.00 in1015.9 mb 0.01 in0.3 mm 0.00 in0.0 mm 0.23 in5.8 mm
07:16 AM 75.4°F24.1°C 73.2°F22.9°C 93% Calm Calm -- 30.00 in1015.9 mb 0.00 in0.0 mm 0.00 in0.0 mm 0.23 in5.8 mm
07:17 AM 75.4°F24.1°C 73.2°F22.9°C 93% Calm Calm -- 30.00 in1015.9 mb 0.00 in0.0 mm 0.00 in0.0 mm 0.23 in5.8 mm
07:18 AM 75.6°F24.2°C 73.4°F23.0°C 93% Calm Calm -- 30.00 in1015.9 mb 0.00 in0.0 mm 0.00 in0.0 mm 0.23 in5.8 mm
07:19 AM 75.6°F24.2°C 73.4°F23.0°C 93% Calm Calm -- 30.00 in1015.9 mb 0.00 in0.0 mm 0.00 in0.0 mm 0.23 in5.8 mm
07:20 AM 75.6°F24.2°C 73.4°F23.0°C 93% Calm Calm -- 30.00 in1015.9 mb 0.00 in0.0 mm 0.00 in0.0 mm 0.23 in5.8 mm
07:21 AM 75.6°F24.2°C 73.4°F23.0°C 93% Calm Calm -- 30.00 in1015.9 mb 0.00 in0.0 mm 0.00 in0.0 mm 0.23 in5.8 mm
07:22 AM 75.7°F24.3°C 73.5°F23.1°C 93% Calm Calm -- 30.00 in1015.9 mb 0.00 in0.0 mm 0.00 in0.0 mm 0.23 in5.8 mm
07:23 AM 75.7°F24.3°C 73.5°F23.1°C 93% Calm Calm -- 30.00 in1015.9 mb 0.00 in0.0 mm 0.00 in0.0 mm 0.23 in5.8 mm
07:24 AM 75.7°F24.3°C 73.5°F23.1°C 93% Calm Calm -- 30.00 in1015.9 mb 0.00 in0.0 mm 0.00 in0.0 mm 0.23 in5.8 mm
07:25 AM 75.7°F24.3°C 73.5°F23.1°C 93% Calm Calm -- 30.01 in1016.3 mb 0.00 in0.0 mm 0.00 in0.0 mm 0.23 in5.8 mm
07:26 AM 75.7°F24.3°C 73.5°F23.1°C 93% Calm Calm -- 30.01 in1016.3 mb 0.00 in0.0 mm 0.00 in0.0 mm 0.23 in5.8 mm
07:27 AM 75.9°F24.4°C 73.7°F23.2°C 93% Calm Calm -- 30.01 in1016.3 mb 0.00 in0.0 mm 0.00 in0.0 mm 0.23 in5.8 mm
07:28 AM 75.9°F24.4°C 73.7°F23.2°C 93% Calm Calm -- 30.01 in1016.3 mb 0.00 in0.0 mm 0.00 in0.0 mm 0.23 in5.8 mm
07:29 AM 75.9°F24.4°C 73.7°F23.2°C 93% Calm Calm -- 30.01 in1016.3 mb 0.00 in0.0 mm 0.00 in0.0 mm 0.23 in5.8 mm
07:30 AM 76.1°F24.5°C 73.9°F23.3°C 93% Calm Calm -- 30.01 in1016.3 mb 0.00 in0.0 mm 0.00 in0.0 mm 0.23 in5.8 mm
07:31 AM 76.1°F24.5°C 73.9°F23.3°C 93% Calm Calm -- 30.01 in1016.3 mb 0.00 in0.0 mm 0.00 in0.0 mm 0.23 in5.8 mm
07:32 AM 76.1°F24.5°C 73.9°F23.3°C 93% Calm Calm -- 30.01 in1016.3 mb 0.00 in0.0 mm 0.00 in0.0 mm 0.23 in5.8 mm
07:33 AM 76.1°F24.5°C 73.9°F23.3°C 93% Calm Calm -- 30.01 in1016.3 mb 0.00 in0.0 mm 0.00 in0.0 mm 0.23 in5.8 mm
07:34 AM 76.3°F24.6°C 74.1°F23.4°C 93% Calm Calm -- 30.01 in1016.3 mb 0.00 in0.0 mm 0.00 in0.0 mm 0.23 in5.8 mm
07:35 AM 76.3°F24.6°C 74.1°F23.4°C 93% Calm Calm -- 30.01 in1016.3 mb 0.00 in0.0 mm 0.00 in0.0 mm 0.23 in5.8 mm
07:36 AM 76.3°F24.6°C 74.1°F23.4°C 93% Calm Calm -- 30.01 in1016.3 mb 0.00 in0.0 mm 0.00 in0.0 mm 0.23 in5.8 mm
07:37 AM 76.3°F24.6°C 74.1°F23.4°C 93% Calm Calm -- 30.01 in1016.3 mb 0.00 in0.0 mm 0.00 in0.0 mm 0.23 in5.8 mm
07:38 AM 76.3°F24.6°C 74.1°F23.4°C 93% Calm Calm -- 30.01 in1016.3 mb 0.00 in0.0 mm 0.00 in0.0 mm 0.23 in5.8 mm
07:39 AM 76.3°F24.6°C 74.1°F23.4°C 93% Calm Calm -- 30.01 in1016.3 mb 0.00 in0.0 mm 0.00 in0.0 mm 0.23 in5.8 mm
07:40 AM 76.3°F24.6°C 74.1°F23.4°C 93% Calm Calm -- 30.01 in1016.3 mb 0.00 in0.0 mm 0.00 in0.0 mm 0.23 in5.8 mm
07:41 AM 76.3°F24.6°C 74.1°F23.4°C 93% Calm Calm -- 30.01 in1016.3 mb 0.00 in0.0 mm 0.00 in0.0 mm 0.23 in5.8 mm
07:42 AM 76.3°F24.6°C 74.1°F23.4°C 93% Calm Calm -- 30.01 in1016.3 mb 0.00 in0.0 mm 0.00 in0.0 mm 0.23 in5.8 mm
07:43 AM 76.3°F24.6°C 74.1°F23.4°C 93% Calm Calm -- 30.01 in1016.3 mb 0.00 in0.0 mm 0.00 in0.0 mm 0.23 in5.8 mm
07:44 AM 76.3°F24.6°C 74.1°F23.4°C 93% Calm Calm -- 30.01 in1016.3 mb 0.00 in0.0 mm 0.00 in0.0 mm 0.23 in5.8 mm
07:45 AM 76.3°F24.6°C 74.1°F23.4°C 93% Calm Calm -- 30.01 in1016.3 mb 0.00 in0.0 mm 0.00 in0.0 mm 0.23 in5.8 mm
07:46 AM 76.3°F24.6°C 74.1°F23.4°C 93% Calm Calm -- 30.01 in1016.3 mb 0.00 in0.0 mm 0.00 in0.0 mm 0.23 in5.8 mm
07:47 AM 76.5°F24.7°C 74.3°F23.5°C 93% Calm Calm -- 30.01 in1016.3 mb 0.00 in0.0 mm 0.00 in0.0 mm 0.23 in5.8 mm
07:48 AM 76.5°F24.7°C 74.3°F23.5°C 93% Calm Calm -- 30.01 in1016.3 mb 0.00 in0.0 mm 0.00 in0.0 mm 0.23 in5.8 mm
07:49 AM 76.5°F24.7°C 74.3°F23.5°C 93% Calm Calm -- 30.01 in1016.3 mb 0.00 in0.0 mm 0.00 in0.0 mm 0.23 in5.8 mm
07:50 AM 76.5°F24.7°C 74.3°F23.5°C 93% Calm Calm -- 30.02 in1016.6 mb 0.00 in0.0 mm 0.00 in0.0 mm 0.23 in5.8 mm
07:51 AM 76.5°F24.7°C 74.3°F23.5°C 93% Calm Calm -- 30.02 in1016.6 mb 0.00 in0.0 mm 0.00 in0.0 mm 0.23 in5.8 mm
07:52 AM 76.5°F24.7°C 74.3°F23.5°C 93% Calm Calm -- 30.02 in1016.6 mb 0.00 in0.0 mm 0.00 in0.0 mm 0.23 in5.8 mm
07:53 AM 76.5°F24.7°C 74.3°F23.5°C 93% Calm Calm -- 30.02 in1016.6 mb 0.00 in0.0 mm 0.00 in0.0 mm 0.23 in5.8 mm
07:54 AM 76.5°F24.7°C 74.3°F23.5°C 93% Calm Calm -- 30.02 in1016.6 mb 0.00 in0.0 mm 0.00 in0.0 mm 0.23 in5.8 mm
07:55 AM 76.5°F24.7°C 74.3°F23.5°C 93% Calm Calm -- 30.02 in1016.6 mb 0.00 in0.0 mm 0.00 in0.0 mm 0.23 in5.8 mm
07:56 AM 76.5°F24.7°C 74.3°F23.5°C 93% Calm Calm -- 30.02 in1016.6 mb 0.00 in0.0 mm 0.00 in0.0 mm 0.23 in5.8 mm
07:57 AM 76.5°F24.7°C 74.3°F23.5°C 93% Calm Calm -- 30.02 in1016.6 mb 0.00 in0.0 mm 0.00 in0.0 mm 0.23 in5.8 mm
07:58 AM 76.5°F24.7°C 74.3°F23.5°C 93% Calm Calm -- 30.02 in1016.6 mb 0.00 in0.0 mm 0.00 in0.0 mm 0.23 in5.8 mm
07:59 AM 76.5°F24.7°C 74.3°F23.5°C 93% Calm Calm -- 30.02 in1016.6 mb 0.00 in0.0 mm 0.00 in0.0 mm 0.23 in5.8 mm
08:00 AM 76.5°F24.7°C 74.3°F23.5°C 93% Calm Calm -- 30.02 in1016.6 mb 0.00 in0.0 mm 0.00 in0.0 mm 0.23 in5.8 mm
08:01 AM 76.5°F24.7°C 74.3°F23.5°C 93% Calm Calm -- 30.02 in1016.6 mb 0.00 in0.0 mm 0.00 in0.0 mm 0.23 in5.8 mm
08:02 AM 76.5°F24.7°C 74.3°F23.5°C 93% Calm Calm -- 30.02 in1016.6 mb 0.00 in0.0 mm 0.00 in0.0 mm 0.23 in5.8 mm
08:03 AM 76.5°F24.7°C 74.3°F23.5°C 93% Calm Calm -- 30.02 in1016.6 mb 0.00 in0.0 mm 0.00 in0.0 mm 0.23 in5.8 mm
08:04 AM 76.5°F24.7°C 74.3°F23.5°C 93% Calm Calm -- 30.02 in1016.6 mb 0.00 in0.0 mm 0.00 in0.0 mm 0.23 in5.8 mm
08:05 AM 76.5°F24.7°C 74.3°F23.5°C 93% Calm Calm -- 30.02 in1016.6 mb 0.01 in0.3 mm 0.60 in15.2 mm 0.24 in6.1 mm
08:06 AM 76.5°F24.7°C 74.3°F23.5°C 93% 1.7 mph SE2.7 kmh SE 3.2 mph5.1 kmh 30.02 in1016.6 mb 0.01 in0.3 mm 0.00 in0.0 mm 0.24 in6.1 mm
08:07 AM 76.5°F24.7°C 74.3°F23.5°C 93% 1.1 mph ESE1.8 kmh ESE 3.2 mph5.1 kmh 30.02 in1016.6 mb 0.01 in0.3 mm 0.00 in0.0 mm 0.24 in6.1 mm
08:08 AM 76.5°F24.7°C 74.3°F23.5°C 93% Calm Calm 3.2 mph5.1 kmh 30.02 in1016.6 mb 0.01 in0.3 mm 0.00 in0.0 mm 0.24 in6.1 mm
08:09 AM 76.5°F24.7°C 74.3°F23.5°C 93% Calm Calm 3.2 mph5.1 kmh 30.02 in1016.6 mb 0.02 in0.5 mm 0.60 in15.2 mm 0.25 in6.4 mm
08:10 AM 76.5°F24.7°C 74.3°F23.5°C 93% Calm Calm 3.2 mph5.1 kmh 30.02 in1016.6 mb 0.03 in0.8 mm 0.60 in15.2 mm 0.26 in6.6 mm
08:11 AM 76.5°F24.7°C 74.3°F23.5°C 93% 1.7 mph W2.7 kmh W 3.2 mph5.1 kmh 30.02 in1016.6 mb 0.06 in1.5 mm 1.80 in45.7 mm 0.29 in7.4 mm
08:12 AM 76.5°F24.7°C 74.3°F23.5°C 93% Calm Calm 3.2 mph5.1 kmh 30.02 in1016.6 mb 0.07 in1.8 mm 0.60 in15.2 mm 0.30 in7.6 mm
08:13 AM 76.5°F24.7°C 74.3°F23.5°C 93% 1.7 mph ESE2.7 kmh ESE 3.2 mph5.1 kmh 30.02 in1016.6 mb 0.08 in2.0 mm 0.60 in15.2 mm 0.31 in7.9 mm
08:14 AM 76.3°F24.6°C 74.1°F23.4°C 93% 1.7 mph SE2.7 kmh SE 3.2 mph5.1 kmh 30.02 in1016.6 mb 0.08 in2.0 mm 0.00 in0.0 mm 0.31 in7.9 mm
08:15 AM 76.3°F24.6°C 74.1°F23.4°C 93% 1.1 mph SSE1.8 kmh SSE 3.2 mph5.1 kmh 30.02 in1016.6 mb 0.11 in2.8 mm 1.80 in45.7 mm 0.34 in8.6 mm
08:16 AM 76.3°F24.6°C 74.1°F23.4°C 93% 2.2 mph E3.5 kmh E 2.2 mph3.5 kmh 30.02 in1016.6 mb 0.15 in3.8 mm 2.40 in61.0 mm 0.38 in9.7 mm
08:17 AM 76.1°F24.5°C 73.9°F23.3°C 93% 1.7 mph NE2.7 kmh NE 2.7 mph4.3 kmh 30.02 in1016.6 mb 0.15 in3.8 mm 0.00 in0.0 mm 0.38 in9.7 mm
08:18 AM 76.1°F24.5°C 73.9°F23.3°C 93% Calm Calm 2.7 mph4.3 kmh 30.02 in1016.6 mb 0.16 in4.1 mm 0.60 in15.2 mm 0.39 in9.9 mm
08:19 AM 76.1°F24.5°C 73.9°F23.3°C 93% Calm Calm 2.7 mph4.3 kmh 30.02 in1016.6 mb 0.17 in4.3 mm 0.60 in15.2 mm 0.40 in10.2 mm
08:20 AM 76.1°F24.5°C 73.9°F23.3°C 93% Calm Calm 2.7 mph4.3 kmh 30.02 in1016.6 mb 0.17 in4.3 mm 0.00 in0.0 mm 0.40 in10.2 mm
08:21 AM 76.1°F24.5°C 73.9°F23.3°C 93% Calm Calm 2.7 mph4.3 kmh 30.02 in1016.6 mb 0.17 in4.3 mm 0.00 in0.0 mm 0.40 in10.2 mm
08:22 AM 76.1°F24.5°C 73.9°F23.3°C 93% Calm Calm 2.7 mph4.3 kmh 30.02 in1016.6 mb 0.17 in4.3 mm 0.00 in0.0 mm 0.40 in10.2 mm
08:23 AM 76.1°F24.5°C 73.9°F23.3°C 93% Calm Calm 2.7 mph4.3 kmh 30.02 in1016.6 mb 0.17 in4.3 mm 0.00 in0.0 mm 0.40 in10.2 mm
08:24 AM 76.1°F24.5°C 73.9°F23.3°C 93% Calm Calm 2.7 mph4.3 kmh 30.02 in1016.6 mb 0.17 in4.3 mm 0.00 in0.0 mm 0.40 in10.2 mm
08:25 AM 75.9°F24.4°C 73.7°F23.2°C 93% Calm Calm 2.7 mph4.3 kmh 30.03 in1016.9 mb 0.18 in4.6 mm 0.60 in15.2 mm 0.41 in10.4 mm
08:26 AM 75.9°F24.4°C 73.7°F23.2°C 93% Calm Calm 2.7 mph4.3 kmh 30.03 in1016.9 mb 0.18 in4.6 mm 0.00 in0.0 mm 0.41 in10.4 mm
08:27 AM 75.9°F24.4°C 73.7°F23.2°C 93% Calm Calm 1.7 mph2.7 kmh 30.03 in1016.9 mb 0.18 in4.6 mm 0.00 in0.0 mm 0.41 in10.4 mm
08:28 AM 75.9°F24.4°C 73.7°F23.2°C 93% Calm Calm 1.7 mph2.7 kmh 30.03 in1016.9 mb 0.18 in4.6 mm 0.00 in0.0 mm 0.41 in10.4 mm
08:29 AM 75.9°F24.4°C 73.7°F23.2°C 93% Calm Calm -- 30.03 in1016.9 mb 0.18 in4.6 mm 0.00 in0.0 mm 0.41 in10.4 mm
08:30 AM 75.9°F24.4°C 73.7°F23.2°C 93% Calm Calm -- 30.03 in1016.9 mb 0.18 in4.6 mm 0.00 in0.0 mm 0.41 in10.4 mm
08:31 AM 75.9°F24.4°C 73.7°F23.2°C 93% Calm Calm -- 30.03 in1016.9 mb 0.18 in4.6 mm 0.00 in0.0 mm 0.41 in10.4 mm
08:32 AM 75.9°F24.4°C 73.7°F23.2°C 93% Calm Calm -- 30.03 in1016.9 mb 0.18 in4.6 mm 0.00 in0.0 mm 0.41 in10.4 mm
08:33 AM 75.9°F24.4°C 73.7°F23.2°C 93% Calm Calm -- 30.03 in1016.9 mb 0.18 in4.6 mm 0.00 in0.0 mm 0.41 in10.4 mm
08:34 AM 75.9°F24.4°C 73.7°F23.2°C 93% Calm Calm -- 30.03 in1016.9 mb 0.18 in4.6 mm 0.00 in0.0 mm 0.41 in10.4 mm
08:35 AM 75.9°F24.4°C 73.7°F23.2°C 93% Calm Calm -- 30.03 in1016.9 mb 0.18 in4.6 mm 0.00 in0.0 mm 0.41 in10.4 mm
08:36 AM 75.9°F24.4°C 73.7°F23.2°C 93% Calm Calm -- 30.03 in1016.9 mb 0.18 in4.6 mm 0.00 in0.0 mm 0.41 in10.4 mm
08:37 AM 75.9°F24.4°C 73.7°F23.2°C 93% Calm Calm -- 30.03 in1016.9 mb 0.18 in4.6 mm 0.00 in0.0 mm 0.41 in10.4 mm
08:38 AM 75.9°F24.4°C 73.7°F23.2°C 93% Calm Calm -- 30.03 in1016.9 mb 0.18 in4.6 mm 0.00 in0.0 mm 0.41 in10.4 mm
08:39 AM 76.1°F24.5°C 73.9°F23.3°C 93% Calm Calm -- 30.03 in1016.9 mb 0.18 in4.6 mm 0.00 in0.0 mm 0.41 in10.4 mm
08:40 AM 76.1°F24.5°C 73.9°F23.3°C 93% Calm Calm -- 30.03 in1016.9 mb 0.18 in4.6 mm 0.00 in0.0 mm 0.41 in10.4 mm
08:41 AM 76.1°F24.5°C 73.9°F23.3°C 93% Calm Calm -- 30.03 in1016.9 mb 0.18 in4.6 mm 0.00 in0.0 mm 0.41 in10.4 mm
08:42 AM 76.3°F24.6°C 74.1°F23.4°C 93% Calm Calm -- 30.03 in1016.9 mb 0.18 in4.6 mm 0.00 in0.0 mm 0.41 in10.4 mm
08:43 AM 76.3°F24.6°C 74.1°F23.4°C 93% Calm Calm -- 30.03 in1016.9 mb 0.18 in4.6 mm 0.00 in0.0 mm 0.41 in10.4 mm
08:44 AM 76.3°F24.6°C 74.1°F23.4°C 93% Calm Calm -- 30.03 in1016.9 mb 0.18 in4.6 mm 0.00 in0.0 mm 0.41 in10.4 mm
08:45 AM 76.5°F24.7°C 74.3°F23.5°C 93% Calm Calm -- 30.03 in1016.9 mb 0.18 in4.6 mm 0.00 in0.0 mm 0.41 in10.4 mm
08:46 AM 76.5°F24.7°C 74.3°F23.5°C 93% Calm Calm -- 30.03 in1016.9 mb 0.18 in4.6 mm 0.00 in0.0 mm 0.41 in10.4 mm
08:47 AM 76.5°F24.7°C 74.3°F23.5°C 93% Calm Calm -- 30.03 in1016.9 mb 0.18 in4.6 mm 0.00 in0.0 mm 0.41 in10.4 mm
08:48 AM 76.6°F24.8°C 74.4°F23.6°C 93% Calm Calm -- 30.03 in1016.9 mb 0.18 in4.6 mm 0.00 in0.0 mm 0.41 in10.4 mm
08:49 AM 76.6°F24.8°C 74.4°F23.6°C 93% Calm Calm -- 30.03 in1016.9 mb 0.18 in4.6 mm 0.00 in0.0 mm 0.41 in10.4 mm
08:50 AM 76.6°F24.8°C 74.4°F23.6°C 93% Calm Calm -- 30.03 in1016.9 mb 0.18 in4.6 mm 0.00 in0.0 mm 0.41 in10.4 mm
08:51 AM 76.6°F24.8°C 74.4°F23.6°C 93% Calm Calm -- 30.03 in1016.9 mb 0.18 in4.6 mm 0.00 in0.0 mm 0.41 in10.4 mm
08:52 AM 76.8°F24.9°C 74.6°F23.7°C 93% Calm Calm -- 30.03 in1016.9 mb 0.18 in4.6 mm 0.00 in0.0 mm 0.41 in10.4 mm
08:53 AM 76.8°F24.9°C 74.6°F23.7°C 93% Calm Calm -- 30.03 in1016.9 mb 0.18 in4.6 mm 0.00 in0.0 mm 0.41 in10.4 mm
08:54 AM 77.0°F25.0°C 74.8°F23.8°C 93% Calm Calm -- 30.03 in1016.9 mb 0.18 in4.6 mm 0.00 in0.0 mm 0.41 in10.4 mm
08:55 AM 77.0°F25.0°C 74.8°F23.8°C 93% Calm Calm -- 30.03 in1016.9 mb 0.18 in4.6 mm 0.00 in0.0 mm 0.41 in10.4 mm
08:56 AM 77.0°F25.0°C 74.8°F23.8°C 93% Calm Calm -- 30.03 in1016.9 mb 0.18 in4.6 mm 0.00 in0.0 mm 0.41 in10.4 mm
08:57 AM 77.0°F25.0°C 74.8°F23.8°C 93% Calm Calm -- 30.03 in1016.9 mb 0.18 in4.6 mm 0.00 in0.0 mm 0.41 in10.4 mm
08:58 AM 77.2°F25.1°C 75.0°F23.9°C 93% Calm Calm -- 30.03 in1016.9 mb 0.18 in4.6 mm 0.00 in0.0 mm 0.41 in10.4 mm
08:59 AM 77.4°F25.2°C 75.2°F24.0°C 93% Calm Calm -- 30.03 in1016.9 mb 0.18 in4.6 mm 0.00 in0.0 mm 0.41 in10.4 mm
09:00 AM 77.4°F25.2°C 75.2°F24.0°C 93% Calm Calm -- 30.03 in1016.9 mb 0.18 in4.6 mm 0.00 in0.0 mm 0.41 in10.4 mm
09:01 AM 77.5°F25.3°C 75.3°F24.1°C 93% Calm Calm -- 30.03 in1016.9 mb 0.18 in4.6 mm 0.00 in0.0 mm 0.41 in10.4 mm
09:02 AM 77.5°F25.3°C 75.3°F24.1°C 93% Calm Calm -- 30.03 in1016.9 mb 0.18 in4.6 mm 0.00 in0.0 mm 0.41 in10.4 mm
09:03 AM 77.7°F25.4°C 75.5°F24.2°C 93% Calm Calm -- 30.03 in1016.9 mb 0.18 in4.6 mm 0.00 in0.0 mm 0.41 in10.4 mm
09:04 AM 77.7°F25.4°C 75.5°F24.2°C 93% Calm Calm -- 30.03 in1016.9 mb 0.18 in4.6 mm 0.00 in0.0 mm 0.41 in10.4 mm
09:05 AM 77.7°F25.4°C 75.5°F24.2°C 93% Calm Calm -- 30.03 in1016.9 mb 0.17 in4.3 mm 0.00 in0.0 mm 0.41 in10.4 mm
09:06 AM 77.7°F25.4°C 75.5°F24.2°C 93% Calm Calm -- 30.03 in1016.9 mb 0.17 in4.3 mm 0.00 in0.0 mm 0.41 in10.4 mm
09:07 AM 77.7°F25.4°C 75.5°F24.2°C 93% Calm Calm -- 30.03 in1016.9 mb 0.17 in4.3 mm 0.00 in0.0 mm 0.41 in10.4 mm
09:08 AM 77.7°F25.4°C 75.5°F24.2°C 93% Calm Calm -- 30.03 in1016.9 mb 0.17 in4.3 mm 0.00 in0.0 mm 0.41 in10.4 mm
09:09 AM 77.9°F25.5°C 75.7°F24.3°C 93% Calm Calm -- 30.03 in1016.9 mb 0.16 in4.1 mm 0.00 in0.0 mm 0.41 in10.4 mm
09:10 AM 77.9°F25.5°C 75.7°F24.3°C 93% Calm Calm -- 30.03 in1016.9 mb 0.15 in3.8 mm 0.00 in0.0 mm 0.41 in10.4 mm
09:11 AM 77.9°F25.5°C 75.7°F24.3°C 93% Calm Calm -- 30.03 in1016.9 mb 0.14 in3.6 mm 0.00 in0.0 mm 0.42 in10.7 mm
09:12 AM 77.9°F25.5°C 75.4°F24.1°C 92% Calm Calm -- 30.03 in1016.9 mb 0.12 in3.0 mm 0.00 in0.0 mm 0.42 in10.7 mm
09:13 AM 77.7°F25.4°C 75.2°F24.0°C 92% Calm Calm -- 30.04 in1017.3 mb 0.14 in3.6 mm 1.20 in30.5 mm 0.45 in11.4 mm
09:14 AM 77.7°F25.4°C 75.2°F24.0°C 92% Calm Calm -- 30.04 in1017.3 mb 0.15 in3.8 mm 0.60 in15.2 mm 0.46 in11.7 mm
09:15 AM 77.4°F25.2°C 74.9°F23.8°C 92% Calm Calm -- 30.04 in1017.3 mb 0.14 in3.6 mm 0.00 in0.0 mm 0.48 in12.2 mm
09:16 AM 77.4°F25.2°C 74.9°F23.8°C 92% Calm Calm -- 30.04 in1017.3 mb 0.12 in3.0 mm 0.00 in0.0 mm 0.48 in12.2 mm
10:08 AM 80.4°F26.9°C 75.5°F24.2°C 85% 1.1 mph NE1.8 kmh NE 1.1 mph1.8 kmh 30.02 in1016.6 mb 0.08 in2.0 mm 0.00 in0.0 mm 0.49 in12.4 mm
10:09 AM 80.6°F27.0°C 75.7°F24.3°C 85% 2.2 mph ESE3.5 kmh ESE 2.2 mph3.5 kmh 30.02 in1016.6 mb 0.08 in2.0 mm 0.00 in0.0 mm 0.49 in12.4 mm
10:10 AM 80.8°F27.1°C 75.9°F24.4°C 85% Calm Calm 2.2 mph3.5 kmh 30.02 in1016.6 mb 0.08 in2.0 mm 0.00 in0.0 mm 0.49 in12.4 mm
10:11 AM 80.8°F27.1°C 76.2°F24.6°C 86% Calm Calm 2.2 mph3.5 kmh 30.02 in1016.6 mb 0.07 in1.8 mm 0.00 in0.0 mm 0.49 in12.4 mm
10:12 AM 80.8°F27.1°C 76.2°F24.6°C 86% Calm Calm 2.2 mph3.5 kmh 30.02 in1016.6 mb 0.07 in1.8 mm 0.00 in0.0 mm 0.49 in12.4 mm
10:15 AM 81.5°F27.5°C 76.5°F24.7°C 85% Calm Calm 2.2 mph3.5 kmh 30.02 in1016.6 mb 0.01 in0.3 mm 0.00 in0.0 mm 0.49 in12.4 mm
10:16 AM 81.5°F27.5°C 76.5°F24.7°C 85% Calm Calm 2.2 mph3.5 kmh 30.02 in1016.6 mb 0.01 in0.3 mm 0.00 in0.0 mm 0.49 in12.4 mm
10:17 AM 81.5°F27.5°C 76.5°F24.7°C 85% Calm Calm 2.2 mph3.5 kmh 30.02 in1016.6 mb 0.01 in0.3 mm 0.00 in0.0 mm 0.49 in12.4 mm
10:18 AM 81.3°F27.4°C 76.3°F24.6°C 85% Calm Calm 2.2 mph3.5 kmh 30.02 in1016.6 mb 0.01 in0.3 mm 0.00 in0.0 mm 0.49 in12.4 mm
10:19 AM 81.1°F27.3°C 76.1°F24.5°C 85% Calm Calm -- 30.02 in1016.6 mb 0.01 in0.3 mm 0.00 in0.0 mm 0.49 in12.4 mm
10:20 AM 81.1°F27.3°C 76.1°F24.5°C 85% Calm Calm -- 30.02 in1016.6 mb 0.01 in0.3 mm 0.00 in0.0 mm 0.49 in12.4 mm
10:21 AM 81.3°F27.4°C 76.3°F24.6°C 85% Calm Calm -- 30.02 in1016.6 mb 0.01 in0.3 mm 0.00 in0.0 mm 0.49 in12.4 mm
10:22 AM 81.3°F27.4°C 76.3°F24.6°C 85% Calm Calm -- 30.02 in1016.6 mb 0.01 in0.3 mm 0.00 in0.0 mm 0.49 in12.4 mm
10:23 AM 81.3°F27.4°C 76.7°F24.8°C 86% Calm Calm -- 30.02 in1016.6 mb 0.01 in0.3 mm 0.00 in0.0 mm 0.49 in12.4 mm
10:24 AM 81.3°F27.4°C 76.0°F24.4°C 84% Calm Calm -- 30.02 in1016.6 mb 0.01 in0.3 mm 0.00 in0.0 mm 0.49 in12.4 mm
10:25 AM 81.3°F27.4°C 76.0°F24.4°C 84% Calm Calm -- 30.02 in1016.6 mb 0.01 in0.3 mm 0.00 in0.0 mm 0.49 in12.4 mm
10:26 AM 81.3°F27.4°C 76.3°F24.6°C 85% Calm Calm -- 30.02 in1016.6 mb 0.01 in0.3 mm 0.00 in0.0 mm 0.49 in12.4 mm
10:27 AM 81.3°F27.4°C 76.0°F24.4°C 84% Calm Calm -- 30.02 in1016.6 mb 0.01 in0.3 mm 0.00 in0.0 mm 0.49 in12.4 mm
10:28 AM 81.3°F27.4°C 76.3°F24.6°C 85% Calm Calm -- 30.02 in1016.6 mb 0.01 in0.3 mm 0.00 in0.0 mm 0.49 in12.4 mm
10:29 AM 81.3°F27.4°C 76.3°F24.6°C 85% Calm Calm -- 30.02 in1016.6 mb 0.01 in0.3 mm 0.00 in0.0 mm 0.49 in12.4 mm
10:30 AM 81.3°F27.4°C 76.3°F24.6°C 85% Calm Calm -- 30.02 in1016.6 mb 0.01 in0.3 mm 0.00 in0.0 mm 0.49 in12.4 mm
10:31 AM 81.5°F27.5°C 76.9°F24.9°C 86% Calm Calm -- 30.02 in1016.6 mb 0.01 in0.3 mm 0.00 in0.0 mm 0.49 in12.4 mm
10:32 AM 81.5°F27.5°C 76.2°F24.6°C 84% Calm Calm -- 30.02 in1016.6 mb 0.01 in0.3 mm 0.00 in0.0 mm 0.49 in12.4 mm
10:33 AM 81.5°F27.5°C 76.2°F24.6°C 84% Calm Calm -- 30.02 in1016.6 mb 0.01 in0.3 mm 0.00 in0.0 mm 0.49 in12.4 mm
10:34 AM 81.5°F27.5°C 76.2°F24.6°C 84% Calm Calm -- 30.02 in1016.6 mb 0.01 in0.3 mm 0.00 in0.0 mm 0.49 in12.4 mm
10:35 AM 81.5°F27.5°C 76.2°F24.6°C 84% 2.2 mph S3.5 kmh S 4.7 mph7.6 kmh 30.02 in1016.6 mb 0.01 in0.3 mm 0.00 in0.0 mm 0.49 in12.4 mm
10:36 AM 81.5°F27.5°C 76.5°F24.7°C 85% 2.7 mph ESE4.3 kmh ESE 4.7 mph7.6 kmh 30.02 in1016.6 mb 0.01 in0.3 mm 0.00 in0.0 mm 0.49 in12.4 mm
10:37 AM 81.5°F27.5°C 76.2°F24.6°C 84% Calm Calm 4.7 mph7.6 kmh 30.02 in1016.6 mb 0.01 in0.3 mm 0.00 in0.0 mm 0.49 in12.4 mm
10:38 AM 81.5°F27.5°C 76.2°F24.6°C 84% Calm Calm 4.7 mph7.6 kmh 30.02 in1016.6 mb 0.01 in0.3 mm 0.00 in0.0 mm 0.49 in12.4 mm
10:39 AM 81.7°F27.6°C 76.4°F24.7°C 84% Calm Calm 4.7 mph7.6 kmh 30.02 in1016.6 mb 0.01 in0.3 mm 0.00 in0.0 mm 0.49 in12.4 mm
10:40 AM 81.7°F27.6°C 76.4°F24.7°C 84% Calm Calm 4.7 mph7.6 kmh 30.02 in1016.6 mb 0.01 in0.3 mm 0.00 in0.0 mm 0.49 in12.4 mm
10:41 AM 81.9°F27.7°C 76.6°F24.8°C 84% Calm Calm 4.7 mph7.6 kmh 30.02 in1016.6 mb 0.01 in0.3 mm 0.00 in0.0 mm 0.49 in12.4 mm
10:42 AM 81.9°F27.7°C 76.2°F24.6°C 83% Calm Calm 4.7 mph7.6 kmh 30.02 in1016.6 mb 0.01 in0.3 mm 0.00 in0.0 mm 0.49 in12.4 mm
10:43 AM 81.7°F27.6°C 76.0°F24.4°C 83% Calm Calm 4.7 mph7.6 kmh 30.02 in1016.6 mb 0.01 in0.3 mm 0.00 in0.0 mm 0.49 in12.4 mm
10:44 AM 81.7°F27.6°C 76.0°F24.4°C 83% Calm Calm 4.7 mph7.6 kmh 30.02 in1016.6 mb 0.01 in0.3 mm 0.00 in0.0 mm 0.49 in12.4 mm
10:45 AM 81.7°F27.6°C 76.4°F24.7°C 84% 2.7 mph W4.3 kmh W 2.7 mph4.3 kmh 30.02 in1016.6 mb 0.01 in0.3 mm 0.00 in0.0 mm 0.49 in12.4 mm
10:46 AM 81.5°F27.5°C 75.8°F24.3°C 83% 1.1 mph S1.8 kmh S 2.7 mph4.3 kmh 30.02 in1016.6 mb 0.01 in0.3 mm 0.00 in0.0 mm 0.49 in12.4 mm
10:47 AM 81.5°F27.5°C 75.8°F24.3°C 83% Calm Calm 2.7 mph4.3 kmh 30.02 in1016.6 mb 0.01 in0.3 mm 0.00 in0.0 mm 0.49 in12.4 mm
10:48 AM 81.5°F27.5°C 75.8°F24.3°C 83% Calm Calm 2.7 mph4.3 kmh 30.02 in1016.6 mb 0.01 in0.3 mm 0.00 in0.0 mm 0.49 in12.4 mm
10:49 AM 81.9°F27.7°C 76.9°F24.9°C 85% Calm Calm 2.7 mph4.3 kmh 30.02 in1016.6 mb 0.01 in0.3 mm 0.00 in0.0 mm 0.49 in12.4 mm
10:50 AM 81.9°F27.7°C 76.6°F24.8°C 84% Calm Calm 2.7 mph4.3 kmh 30.02 in1016.6 mb 0.01 in0.3 mm 0.00 in0.0 mm 0.49 in12.4 mm
10:51 AM 81.9°F27.7°C 76.6°F24.8°C 84% Calm Calm 2.7 mph4.3 kmh 30.02 in1016.6 mb 0.01 in0.3 mm 0.00 in0.0 mm 0.49 in12.4 mm
10:52 AM 81.9°F27.7°C 76.2°F24.6°C 83% Calm Calm 2.7 mph4.3 kmh 30.02 in1016.6 mb 0.01 in0.3 mm 0.00 in0.0 mm 0.49 in12.4 mm
10:53 AM 81.7°F27.6°C 76.0°F24.4°C 83% Calm Calm 2.7 mph4.3 kmh 30.02 in1016.6 mb 0.01 in0.3 mm 0.00 in0.0 mm 0.49 in12.4 mm
10:54 AM 81.7°F27.6°C 76.0°F24.4°C 83% Calm Calm 2.7 mph4.3 kmh 30.02 in1016.6 mb 0.01 in0.3 mm 0.00 in0.0 mm 0.49 in12.4 mm
10:55 AM 81.7°F27.6°C 76.0°F24.4°C 83% Calm Calm 2.7 mph4.3 kmh 30.02 in1016.6 mb 0.01 in0.3 mm 0.00 in0.0 mm 0.49 in12.4 mm
10:56 AM 81.7°F27.6°C 76.0°F24.4°C 83% Calm Calm 1.1 mph1.8 kmh 30.02 in1016.6 mb 0.01 in0.3 mm 0.00 in0.0 mm 0.49 in12.4 mm
10:57 AM 81.7°F27.6°C 75.7°F24.3°C 82% Calm Calm -- 30.02 in1016.6 mb 0.01 in0.3 mm 0.00 in0.0 mm 0.49 in12.4 mm
10:58 AM 81.5°F27.5°C 75.1°F23.9°C 81% Calm Calm -- 30.02 in1016.6 mb 0.01 in0.3 mm 0.00 in0.0 mm 0.49 in12.4 mm
10:59 AM 81.7°F27.6°C 75.7°F24.3°C 82% Calm Calm -- 30.02 in1016.6 mb 0.01 in0.3 mm 0.00 in0.0 mm 0.49 in12.4 mm
11:00 AM 81.7°F27.6°C 75.7°F24.3°C 82% Calm Calm -- 30.02 in1016.6 mb 0.01 in0.3 mm 0.00 in0.0 mm 0.49 in12.4 mm
11:01 AM 81.9°F27.7°C 75.8°F24.3°C 82% Calm Calm -- 30.02 in1016.6 mb 0.01 in0.3 mm 0.00 in0.0 mm 0.49 in12.4 mm
11:02 AM 81.9°F27.7°C 76.2°F24.6°C 83% Calm Calm -- 30.02 in1016.6 mb 0.01 in0.3 mm 0.00 in0.0 mm 0.49 in12.4 mm
11:03 AM 81.9°F27.7°C 76.2°F24.6°C 83% Calm Calm -- 30.02 in1016.6 mb 0.01 in0.3 mm 0.00 in0.0 mm 0.49 in12.4 mm
11:04 AM 81.9°F27.7°C 75.8°F24.3°C 82% Calm Calm -- 30.02 in1016.6 mb 0.01 in0.3 mm 0.00 in0.0 mm 0.49 in12.4 mm
11:05 AM 81.9°F27.7°C 76.2°F24.6°C 83% Calm Calm -- 30.02 in1016.6 mb 0.01 in0.3 mm 0.00 in0.0 mm 0.49 in12.4 mm
11:06 AM 81.9°F27.7°C 75.8°F24.3°C 82% Calm Calm 3.7 mph6.0 kmh 30.02 in1016.6 mb 0.01 in0.3 mm 0.00 in0.0 mm 0.49 in12.4 mm
11:07 AM 81.9°F27.7°C 76.2°F24.6°C 83% Calm Calm 3.7 mph6.0 kmh 30.02 in1016.6 mb 0.01 in0.3 mm 0.00 in0.0 mm 0.49 in12.4 mm
11:08 AM 81.7°F27.6°C 76.0°F24.4°C 83% Calm Calm 3.7 mph6.0 kmh 30.02 in1016.6 mb 0.01 in0.3 mm 0.00 in0.0 mm 0.49 in12.4 mm
11:09 AM 81.7°F27.6°C 76.4°F24.7°C 84% Calm Calm 3.7 mph6.0 kmh 30.02 in1016.6 mb 0.00 in0.0 mm 0.00 in0.0 mm 0.49 in12.4 mm
11:10 AM 81.7°F27.6°C 76.0°F24.4°C 83% Calm Calm 3.7 mph6.0 kmh 30.02 in1016.6 mb 0.00 in0.0 mm 0.00 in0.0 mm 0.49 in12.4 mm
11:11 AM 81.7°F27.6°C 76.0°F24.4°C 83% Calm Calm 3.7 mph6.0 kmh 30.02 in1016.6 mb 0.00 in0.0 mm 0.00 in0.0 mm 0.49 in12.4 mm
11:12 AM 81.7°F27.6°C 76.0°F24.4°C 83% Calm Calm 3.7 mph6.0 kmh 30.02 in1016.6 mb 0.00 in0.0 mm 0.00 in0.0 mm 0.49 in12.4 mm
11:13 AM 81.7°F27.6°C 76.0°F24.4°C 83% Calm Calm 3.7 mph6.0 kmh 30.01 in1016.3 mb 0.00 in0.0 mm 0.00 in0.0 mm 0.49 in12.4 mm
11:14 AM 81.7°F27.6°C 76.0°F24.4°C 83% Calm Calm 3.7 mph6.0 kmh 30.01 in1016.3 mb 0.00 in0.0 mm 0.00 in0.0 mm 0.49 in12.4 mm
11:15 AM 81.7°F27.6°C 76.0°F24.4°C 83% Calm Calm 3.7 mph6.0 kmh 30.01 in1016.3 mb 0.00 in0.0 mm 0.00 in0.0 mm 0.49 in12.4 mm
11:16 AM 81.7°F27.6°C 75.7°F24.3°C 82% Calm Calm -- 30.01 in1016.3 mb 0.00 in0.0 mm 0.00 in0.0 mm 0.49 in12.4 mm
11:17 AM 81.7°F27.6°C 75.7°F24.3°C 82% Calm Calm -- 30.01 in1016.3 mb 0.00 in0.0 mm 0.00 in0.0 mm 0.49 in12.4 mm
11:18 AM 81.7°F27.6°C 76.0°F24.4°C 83% Calm Calm -- 30.01 in1016.3 mb 0.00 in0.0 mm 0.00 in0.0 mm 0.49 in12.4 mm
11:19 AM 81.7°F27.6°C 76.0°F24.4°C 83% Calm Calm -- 30.01 in1016.3 mb 0.00 in0.0 mm 0.00 in0.0 mm 0.49 in12.4 mm
11:20 AM 81.9°F27.7°C 76.2°F24.6°C 83% Calm Calm -- 30.01 in1016.3 mb 0.00 in0.0 mm 0.00 in0.0 mm 0.49 in12.4 mm
11:21 AM 82.0°F27.8°C 75.9°F24.4°C 82% Calm Calm -- 30.01 in1016.3 mb 0.00 in0.0 mm 0.00 in0.0 mm 0.49 in12.4 mm
11:22 AM 82.0°F27.8°C 75.9°F24.4°C 82% Calm Calm -- 30.01 in1016.3 mb 0.00 in0.0 mm 0.00 in0.0 mm 0.49 in12.4 mm
11:23 AM 82.2°F27.9°C 76.1°F24.5°C 82% 2.2 mph NNE3.5 kmh NNE 2.7 mph4.3 kmh 30.01 in1016.3 mb 0.00 in0.0 mm 0.00 in0.0 mm 0.49 in12.4 mm
11:24 AM 82.6°F28.1°C 76.5°F24.7°C 82% Calm Calm 2.7 mph4.3 kmh 30.01 in1016.3 mb 0.00 in0.0 mm 0.00 in0.0 mm 0.49 in12.4 mm
11:25 AM 82.6°F28.1°C 76.5°F24.7°C 82% Calm Calm 2.7 mph4.3 kmh 30.01 in1016.3 mb 0.00 in0.0 mm 0.00 in0.0 mm 0.49 in12.4 mm
11:26 AM 82.8°F28.2°C 76.4°F24.7°C 81% Calm Calm 2.7 mph4.3 kmh 30.01 in1016.3 mb 0.00 in0.0 mm 0.00 in0.0 mm 0.49 in12.4 mm
11:27 AM 82.9°F28.3°C 76.5°F24.7°C 81% Calm Calm 2.7 mph4.3 kmh 30.01 in1016.3 mb 0.00 in0.0 mm 0.00 in0.0 mm 0.49 in12.4 mm
11:28 AM 82.9°F28.3°C 76.1°F24.5°C 80% Calm Calm 2.7 mph4.3 kmh 30.01 in1016.3 mb 0.00 in0.0 mm 0.00 in0.0 mm 0.49 in12.4 mm
11:29 AM 82.9°F28.3°C 76.5°F24.7°C 81% Calm Calm 2.7 mph4.3 kmh 30.01 in1016.3 mb 0.00 in0.0 mm 0.00 in0.0 mm 0.49 in12.4 mm
11:30 AM 82.9°F28.3°C 76.5°F24.7°C 81% Calm Calm 2.7 mph4.3 kmh 30.01 in1016.3 mb 0.00 in0.0 mm 0.00 in0.0 mm 0.49 in12.4 mm
11:31 AM 83.1°F28.4°C 76.6°F24.8°C 81% Calm Calm 2.7 mph4.3 kmh 30.01 in1016.3 mb 0.00 in0.0 mm 0.00 in0.0 mm 0.49 in12.4 mm
11:32 AM 83.1°F28.4°C 76.6°F24.8°C 81% Calm Calm 2.7 mph4.3 kmh 30.01 in1016.3 mb 0.00 in0.0 mm 0.00 in0.0 mm 0.49 in12.4 mm
11:33 AM 83.1°F28.4°C 76.6°F24.8°C 81% Calm Calm 2.2 mph3.5 kmh 30.01 in1016.3 mb 0.00 in0.0 mm 0.00 in0.0 mm 0.49 in12.4 mm
11:34 AM 83.1°F28.4°C 76.6°F24.8°C 81% Calm Calm -- 30.01 in1016.3 mb 0.00 in0.0 mm 0.00 in0.0 mm 0.49 in12.4 mm
11:35 AM 83.1°F28.4°C 76.6°F24.8°C 81% Calm Calm -- 30.01 in1016.3 mb 0.00 in0.0 mm 0.00 in0.0 mm 0.49 in12.4 mm
11:36 AM 83.3°F28.5°C 77.2°F25.1°C 82% Calm Calm -- 30.01 in1016.3 mb 0.00 in0.0 mm 0.00 in0.0 mm 0.49 in12.4 mm
11:37 AM 83.3°F28.5°C 76.5°F24.7°C 80% Calm Calm -- 30.00 in1015.9 mb 0.00 in0.0 mm 0.00 in0.0 mm 0.49 in12.4 mm
11:38 AM 83.3°F28.5°C 76.5°F24.7°C 80% Calm Calm -- 30.00 in1015.9 mb 0.00 in0.0 mm 0.00 in0.0 mm 0.49 in12.4 mm
11:39 AM 83.1°F28.4°C 76.6°F24.8°C 81% Calm Calm -- 30.00 in1015.9 mb 0.00 in0.0 mm 0.00 in0.0 mm 0.49 in12.4 mm
11:40 AM 82.9°F28.3°C 76.8°F24.9°C 82% 3.2 mph SSE5.1 kmh SSE 3.2 mph5.1 kmh 30.00 in1015.9 mb 0.00 in0.0 mm 0.00 in0.0 mm 0.49 in12.4 mm
11:41 AM 83.1°F28.4°C 76.6°F24.8°C 81% Calm Calm 3.2 mph5.1 kmh 30.00 in1015.9 mb 0.00 in0.0 mm 0.00 in0.0 mm 0.49 in12.4 mm
11:42 AM 83.1°F28.4°C 76.6°F24.8°C 81% Calm Calm 3.2 mph5.1 kmh 30.00 in1015.9 mb 0.00 in0.0 mm 0.00 in0.0 mm 0.49 in12.4 mm
11:43 AM 83.1°F28.4°C 76.6°F24.8°C 81% 1.1 mph SW1.8 kmh SW 3.2 mph5.1 kmh 30.00 in1015.9 mb 0.00 in0.0 mm 0.00 in0.0 mm 0.49 in12.4 mm
11:44 AM 82.8°F28.2°C 76.4°F24.7°C 81% Calm Calm 3.2 mph5.1 kmh 30.00 in1015.9 mb 0.00 in0.0 mm 0.00 in0.0 mm 0.49 in12.4 mm
11:45 AM 82.9°F28.3°C 76.5°F24.7°C 81% Calm Calm 3.2 mph5.1 kmh 30.00 in1015.9 mb 0.00 in0.0 mm 0.00 in0.0 mm 0.49 in12.4 mm
11:46 AM 83.1°F28.4°C 76.6°F24.8°C 81% Calm Calm 3.2 mph5.1 kmh 30.00 in1015.9 mb 0.00 in0.0 mm 0.00 in0.0 mm 0.49 in12.4 mm
11:47 AM 83.1°F28.4°C 76.3°F24.6°C 80% Calm Calm 3.2 mph5.1 kmh 30.00 in1015.9 mb 0.00 in0.0 mm 0.00 in0.0 mm 0.49 in12.4 mm
11:48 AM 83.3°F28.5°C 76.8°F24.9°C 81% Calm Calm 3.2 mph5.1 kmh 30.00 in1015.9 mb 0.00 in0.0 mm 0.00 in0.0 mm 0.49 in12.4 mm
11:49 AM 83.7°F28.7°C 76.9°F24.9°C 80% Calm Calm 3.2 mph5.1 kmh 30.00 in1015.9 mb 0.00 in0.0 mm 0.00 in0.0 mm 0.49 in12.4 mm
11:50 AM 83.8°F28.8°C 76.6°F24.8°C 79% Calm Calm 3.2 mph5.1 kmh 30.00 in1015.9 mb 0.00 in0.0 mm 0.00 in0.0 mm 0.49 in12.4 mm
11:51 AM 83.8°F28.8°C 76.6°F24.8°C 79% Calm Calm 3.2 mph5.1 kmh 30.00 in1015.9 mb 0.00 in0.0 mm 0.00 in0.0 mm 0.49 in12.4 mm
11:52 AM 84.0°F28.9°C 76.8°F24.9°C 79% Calm Calm 3.2 mph5.1 kmh 30.00 in1015.9 mb 0.00 in0.0 mm 0.00 in0.0 mm 0.49 in12.4 mm
11:53 AM 84.0°F28.9°C 77.1°F25.1°C 80% Calm Calm 2.7 mph4.3 kmh 30.00 in1015.9 mb 0.00 in0.0 mm 0.00 in0.0 mm 0.49 in12.4 mm
11:54 AM 84.2°F29.0°C 77.3°F25.2°C 80% Calm Calm 2.7 mph4.3 kmh 30.00 in1015.9 mb 0.00 in0.0 mm 0.00 in0.0 mm 0.49 in12.4 mm
11:55 AM 84.4°F29.1°C 77.9°F25.5°C 81% Calm Calm 2.7 mph4.3 kmh 30.00 in1015.9 mb 0.00 in0.0 mm 0.00 in0.0 mm 0.49 in12.4 mm
11:56 AM 84.2°F29.0°C 77.0°F25.0°C 79% 2.2 mph SW3.5 kmh SW 2.7 mph4.3 kmh 30.00 in1015.9 mb 0.00 in0.0 mm 0.00 in0.0 mm 0.49 in12.4 mm
11:57 AM 84.0°F28.9°C 76.8°F24.9°C 79% 2.7 mph S4.3 kmh S 3.2 mph5.1 kmh 30.00 in1015.9 mb 0.00 in0.0 mm 0.00 in0.0 mm 0.49 in12.4 mm
11:58 AM 84.0°F28.9°C 76.8°F24.9°C 79% Calm Calm 3.2 mph5.1 kmh 30.00 in1015.9 mb 0.00 in0.0 mm 0.00 in0.0 mm 0.49 in12.4 mm
11:59 AM 84.2°F29.0°C 77.3°F25.2°C 80% Calm Calm 3.2 mph5.1 kmh 30.00 in1015.9 mb 0.00 in0.0 mm 0.00 in0.0 mm 0.49 in12.4 mm
12:00 PM 84.4°F29.1°C 77.2°F25.1°C 79% Calm Calm 3.2 mph5.1 kmh 30.00 in1015.9 mb 0.00 in0.0 mm 0.00 in0.0 mm 0.49 in12.4 mm
12:01 PM 84.4°F29.1°C 76.8°F24.9°C 78% Calm Calm 3.2 mph5.1 kmh 30.00 in1015.9 mb 0.00 in0.0 mm 0.00 in0.0 mm 0.49 in12.4 mm
12:02 PM 84.4°F29.1°C 77.2°F25.1°C 79% Calm Calm 3.2 mph5.1 kmh 30.00 in1015.9 mb 0.00 in0.0 mm 0.00 in0.0 mm 0.49 in12.4 mm
12:03 PM 84.6°F29.2°C 77.7°F25.4°C 80% Calm Calm 3.2 mph5.1 kmh 30.00 in1015.9 mb 0.00 in0.0 mm 0.00 in0.0 mm 0.49 in12.4 mm
12:04 PM 84.6°F29.2°C 77.7°F25.4°C 80% Calm Calm 3.2 mph5.1 kmh 30.00 in1015.9 mb 0.00 in0.0 mm 0.00 in0.0 mm 0.49 in12.4 mm
12:05 PM 84.6°F29.2°C 77.3°F25.2°C 79% Calm Calm 3.2 mph5.1 kmh 30.00 in1015.9 mb 0.00 in0.0 mm 0.00 in0.0 mm 0.49 in12.4 mm
12:06 PM 84.7°F29.3°C 77.4°F25.2°C 79% Calm Calm 3.2 mph5.1 kmh 30.00 in1015.9 mb 0.00 in0.0 mm 0.00 in0.0 mm 0.49 in12.4 mm
12:07 PM 85.1°F29.5°C 77.4°F25.2°C 78% Calm Calm -- 30.00 in1015.9 mb 0.00 in0.0 mm 0.00 in0.0 mm 0.49 in12.4 mm
12:08 PM 84.9°F29.4°C 77.6°F25.3°C 79% 2.7 mph W4.3 kmh W 2.7 mph4.3 kmh 30.00 in1015.9 mb 0.00 in0.0 mm 0.00 in0.0 mm 0.49 in12.4 mm
12:09 PM 84.7°F29.3°C 77.1°F25.1°C 78% Calm Calm 3.2 mph5.1 kmh 30.00 in1015.9 mb 0.00 in0.0 mm 0.00 in0.0 mm 0.49 in12.4 mm
12:10 PM 84.6°F29.2°C 77.0°F25.0°C 78% 2.2 mph ESE3.5 kmh ESE 3.2 mph5.1 kmh 30.00 in1015.9 mb 0.00 in0.0 mm 0.00 in0.0 mm 0.49 in12.4 mm
12:11 PM 84.6°F29.2°C 77.0°F25.0°C 78% 1.7 mph SW2.7 kmh SW 5.3 mph8.5 kmh 30.00 in1015.9 mb 0.00 in0.0 mm 0.00 in0.0 mm 0.49 in12.4 mm
12:12 PM 84.6°F29.2°C 77.3°F25.2°C 79% Calm Calm 5.3 mph8.5 kmh 30.00 in1015.9 mb 0.00 in0.0 mm 0.00 in0.0 mm 0.49 in12.4 mm
12:13 PM 84.7°F29.3°C 77.1°F25.1°C 78% Calm Calm 5.3 mph8.5 kmh 30.00 in1015.9 mb 0.00 in0.0 mm 0.00 in0.0 mm 0.49 in12.4 mm
12:14 PM 84.6°F29.2°C 77.0°F25.0°C 78% Calm Calm 5.3 mph8.5 kmh 30.00 in1015.9 mb 0.00 in0.0 mm 0.00 in0.0 mm 0.49 in12.4 mm
12:15 PM 84.4°F29.1°C 76.8°F24.9°C 78% Calm Calm 5.3 mph8.5 kmh 30.00 in1015.9 mb 0.00 in0.0 mm 0.00 in0.0 mm 0.49 in12.4 mm
12:16 PM 84.4°F29.1°C 77.2°F25.1°C 79% Calm Calm 5.3 mph8.5 kmh 30.00 in1015.9 mb 0.00 in0.0 mm 0.00 in0.0 mm 0.49 in12.4 mm
12:17 PM 84.2°F29.0°C 77.3°F25.2°C 80% Calm Calm 5.3 mph8.5 kmh 30.00 in1015.9 mb 0.00 in0.0 mm 0.00 in0.0 mm 0.49 in12.4 mm
12:18 PM 84.2°F29.0°C 77.3°F25.2°C 80% 2.7 mph SE4.3 kmh SE 5.3 mph8.5 kmh 30.00 in1015.9 mb 0.00 in0.0 mm 0.00 in0.0 mm 0.49 in12.4 mm
12:19 PM 84.2°F29.0°C 77.3°F25.2°C 80% 1.7 mph ENE2.7 kmh ENE 5.3 mph8.5 kmh 30.00 in1015.9 mb 0.00 in0.0 mm 0.00 in0.0 mm 0.49 in12.4 mm
12:20 PM 84.2°F29.0°C 77.3°F25.2°C 80% Calm Calm 5.3 mph8.5 kmh 30.00 in1015.9 mb 0.00 in0.0 mm 0.00 in0.0 mm 0.49 in12.4 mm
12:21 PM 84.0°F28.9°C 77.5°F25.3°C 81% Calm Calm 3.2 mph5.1 kmh 30.00 in1015.9 mb 0.00 in0.0 mm 0.00 in0.0 mm 0.49 in12.4 mm
12:22 PM 84.4°F29.1°C 77.5°F25.3°C 80% Calm Calm 3.2 mph5.1 kmh 30.00 in1015.9 mb 0.00 in0.0 mm 0.00 in0.0 mm 0.49 in12.4 mm
12:23 PM 84.7°F29.3°C 77.4°F25.2°C 79% Calm Calm 3.2 mph5.1 kmh 30.00 in1015.9 mb 0.00 in0.0 mm 0.00 in0.0 mm 0.49 in12.4 mm
12:24 PM 84.9°F29.4°C 77.3°F25.2°C 78% Calm Calm 3.2 mph5.1 kmh 30.00 in1015.9 mb 0.00 in0.0 mm 0.00 in0.0 mm 0.49 in12.4 mm
12:25 PM 84.7°F29.3°C 77.1°F25.1°C 78% 3.2 mph W5.1 kmh W 3.2 mph5.1 kmh 30.00 in1015.9 mb 0.00 in0.0 mm 0.00 in0.0 mm 0.49 in12.4 mm
12:26 PM 84.6°F29.2°C 77.3°F25.2°C 79% Calm Calm 3.2 mph5.1 kmh 29.99 in1015.6 mb 0.00 in0.0 mm 0.00 in0.0 mm 0.49 in12.4 mm
12:27 PM 84.6°F29.2°C 77.3°F25.2°C 79% Calm Calm 3.2 mph5.1 kmh 29.99 in1015.6 mb 0.00 in0.0 mm 0.00 in0.0 mm 0.49 in12.4 mm
12:28 PM 84.4°F29.1°C 77.5°F25.3°C 80% Calm Calm 3.2 mph5.1 kmh 29.99 in1015.6 mb 0.00 in0.0 mm 0.00 in0.0 mm 0.49 in12.4 mm
12:29 PM 84.6°F29.2°C 77.7°F25.4°C 80% Calm Calm 3.2 mph5.1 kmh 29.99 in1015.6 mb 0.00 in0.0 mm 0.00 in0.0 mm 0.49 in12.4 mm
12:30 PM 84.6°F29.2°C 77.3°F25.2°C 79% Calm Calm 3.2 mph5.1 kmh 29.99 in1015.6 mb 0.00 in0.0 mm 0.00 in0.0 mm 0.49 in12.4 mm
12:31 PM 84.2°F29.0°C 77.3°F25.2°C 80% Calm Calm 3.2 mph5.1 kmh 29.99 in1015.6 mb 0.00 in0.0 mm 0.00 in0.0 mm 0.49 in12.4 mm
12:32 PM 84.0°F28.9°C 77.1°F25.1°C 80% Calm Calm 3.2 mph5.1 kmh 29.99 in1015.6 mb 0.00 in0.0 mm 0.00 in0.0 mm 0.49 in12.4 mm
12:33 PM 84.0°F28.9°C 77.1°F25.1°C 80% Calm Calm 3.2 mph5.1 kmh 29.99 in1015.6 mb 0.00 in0.0 mm 0.00 in0.0 mm 0.49 in12.4 mm
12:34 PM 84.0°F28.9°C 77.5°F25.3°C 81% Calm Calm 3.2 mph5.1 kmh 29.99 in1015.6 mb 0.00 in0.0 mm 0.00 in0.0 mm 0.49 in12.4 mm
12:35 PM 84.2°F29.0°C 77.7°F25.4°C 81% Calm Calm 3.2 mph5.1 kmh 29.99 in1015.6 mb 0.00 in0.0 mm 0.00 in0.0 mm 0.49 in12.4 mm
12:36 PM 84.0°F28.9°C 77.5°F25.3°C 81% Calm Calm -- 29.99 in1015.6 mb 0.00 in0.0 mm 0.00 in0.0 mm 0.49 in12.4 mm
12:37 PM 84.0°F28.9°C 77.5°F25.3°C 81% Calm Calm -- 29.98 in1015.2 mb 0.00 in0.0 mm 0.00 in0.0 mm 0.49 in12.4 mm
12:38 PM 84.0°F28.9°C 77.5°F25.3°C 81% Calm Calm -- 29.98 in1015.2 mb 0.00 in0.0 mm 0.00 in0.0 mm 0.49 in12.4 mm
12:39 PM 84.0°F28.9°C 77.1°F25.1°C 80% Calm Calm -- 29.98 in1015.2 mb 0.00 in0.0 mm 0.00 in0.0 mm 0.49 in12.4 mm
12:40 PM 84.0°F28.9°C 77.1°F25.1°C 80% Calm Calm -- 29.98 in1015.2 mb 0.00 in0.0 mm 0.00 in0.0 mm 0.49 in12.4 mm
12:41 PM 84.0°F28.9°C 77.1°F25.1°C 80% 3.2 mph ESE5.1 kmh ESE 3.2 mph5.1 kmh 29.98 in1015.2 mb 0.00 in0.0 mm 0.00 in0.0 mm 0.49 in12.4 mm
12:42 PM 83.8°F28.8°C 77.0°F25.0°C 80% Calm Calm 3.2 mph5.1 kmh 29.98 in1015.2 mb 0.00 in0.0 mm 0.00 in0.0 mm 0.49 in12.4 mm
12:43 PM 83.5°F28.6°C 76.7°F24.8°C 80% Calm Calm 3.2 mph5.1 kmh 29.98 in1015.2 mb 0.00 in0.0 mm 0.00 in0.0 mm 0.49 in12.4 mm
12:44 PM 83.5°F28.6°C 76.7°F24.8°C 80% 1.7 mph ESE2.7 kmh ESE 3.2 mph5.1 kmh 29.98 in1015.2 mb 0.00 in0.0 mm 0.00 in0.0 mm 0.49 in12.4 mm
12:45 PM 83.5°F28.6°C 76.7°F24.8°C 80% 1.1 mph W1.8 kmh W 3.2 mph5.1 kmh 29.98 in1015.2 mb 0.00 in0.0 mm 0.00 in0.0 mm 0.49 in12.4 mm
12:46 PM 83.7°F28.7°C 77.2°F25.1°C 81% Calm Calm 3.2 mph5.1 kmh 29.98 in1015.2 mb 0.00 in0.0 mm 0.00 in0.0 mm 0.49 in12.4 mm
12:47 PM 83.7°F28.7°C 77.2°F25.1°C 81% Calm Calm 3.2 mph5.1 kmh 29.98 in1015.2 mb 0.00 in0.0 mm 0.00 in0.0 mm 0.49 in12.4 mm
12:48 PM 83.7°F28.7°C 77.2°F25.1°C 81% Calm Calm 3.2 mph5.1 kmh 29.98 in1015.2 mb 0.00 in0.0 mm 0.00 in0.0 mm 0.49 in12.4 mm
12:49 PM 83.7°F28.7°C 77.6°F25.3°C 82% Calm Calm 3.2 mph5.1 kmh 29.98 in1015.2 mb 0.00 in0.0 mm 0.00 in0.0 mm 0.49 in12.4 mm
12:50 PM 83.5°F28.6°C 77.4°F25.2°C 82% Calm Calm 3.2 mph5.1 kmh 29.98 in1015.2 mb 0.00 in0.0 mm 0.00 in0.0 mm 0.49 in12.4 mm
12:51 PM 83.3°F28.5°C 77.2°F25.1°C 82% 2.7 mph SSW4.3 kmh SSW 2.7 mph4.3 kmh 29.98 in1015.2 mb 0.00 in0.0 mm 0.00 in0.0 mm 0.49 in12.4 mm
12:52 PM 83.1°F28.4°C 77.0°F25.0°C 82% Calm Calm 2.7 mph4.3 kmh 29.98 in1015.2 mb 0.00 in0.0 mm 0.00 in0.0 mm 0.49 in12.4 mm
12:53 PM 83.1°F28.4°C 77.0°F25.0°C 82% Calm Calm 2.7 mph4.3 kmh 29.98 in1015.2 mb 0.00 in0.0 mm 0.00 in0.0 mm 0.49 in12.4 mm
12:54 PM 83.1°F28.4°C 77.0°F25.0°C 82% 2.2 mph SE3.5 kmh SE 2.7 mph4.3 kmh 29.98 in1015.2 mb 0.00 in0.0 mm 0.00 in0.0 mm 0.49 in12.4 mm
12:55 PM 83.1°F28.4°C 77.0°F25.0°C 82% Calm Calm 2.7 mph4.3 kmh 29.98 in1015.2 mb 0.00 in0.0 mm 0.00 in0.0 mm 0.49 in12.4 mm
12:56 PM 82.9°F28.3°C 76.8°F24.9°C 82% Calm Calm 2.7 mph4.3 kmh 29.98 in1015.2 mb 0.00 in0.0 mm 0.00 in0.0 mm 0.49 in12.4 mm
12:57 PM 82.9°F28.3°C 76.8°F24.9°C 82% Calm Calm 2.7 mph4.3 kmh 29.98 in1015.2 mb 0.01 in0.3 mm 0.60 in15.2 mm 0.50 in12.7 mm
12:58 PM 82.8°F28.2°C 76.7°F24.8°C 82% 2.2 mph SSW3.5 kmh SSW 2.7 mph4.3 kmh 29.98 in1015.2 mb 0.01 in0.3 mm 0.00 in0.0 mm 0.50 in12.7 mm
12:59 PM 82.6°F28.1°C 76.5°F24.7°C 82% Calm Calm 2.7 mph4.3 kmh 29.98 in1015.2 mb 0.02 in0.5 mm 0.60 in15.2 mm 0.51 in13.0 mm
01:00 PM 82.4°F28.0°C 76.7°F24.8°C 83% Calm Calm 2.7 mph4.3 kmh 29.98 in1015.2 mb 0.03 in0.8 mm 0.01 in0.3 mm 0.52 in13.2 mm
01:01 PM 82.2°F27.9°C 76.9°F24.9°C 84% 2.2 mph WSW3.5 kmh WSW 4.2 mph6.8 kmh 29.98 in1015.2 mb 0.03 in0.8 mm 0.00 in0.0 mm 0.52 in13.2 mm
01:02 PM 81.9°F27.7°C 76.6°F24.8°C 84% Calm Calm 4.2 mph6.8 kmh 29.99 in1015.6 mb 0.03 in0.8 mm 0.00 in0.0 mm 0.52 in13.2 mm
01:03 PM 81.5°F27.5°C 76.2°F24.6°C 84% 5.3 mph W8.5 kmh W 5.3 mph8.5 kmh 29.99 in1015.6 mb 0.03 in0.8 mm 0.00 in0.0 mm 0.52 in13.2 mm
01:04 PM 81.3°F27.4°C 76.3°F24.6°C 85% 5.8 mph WSW9.3 kmh WSW 7.3 mph11.7 kmh 29.99 in1015.6 mb 0.03 in0.8 mm 0.00 in0.0 mm 0.52 in13.2 mm
01:05 PM 81.0°F27.2°C 76.4°F24.7°C 86% 6.8 mph W10.9 kmh W 7.3 mph11.7 kmh 29.99 in1015.6 mb 0.03 in0.8 mm 0.00 in0.0 mm 0.52 in13.2 mm
01:06 PM 80.6°F27.0°C 76.4°F24.7°C 87% 4.7 mph WSW7.6 kmh WSW 8.3 mph13.4 kmh 29.99 in1015.6 mb 0.03 in0.8 mm 0.00 in0.0 mm 0.52 in13.2 mm
01:07 PM 80.2°F26.8°C 76.0°F24.4°C 87% 7.3 mph W11.7 kmh W 8.3 mph13.4 kmh 29.99 in1015.6 mb 0.03 in0.8 mm 0.00 in0.0 mm 0.52 in13.2 mm
01:08 PM 79.9°F26.6°C 75.7°F24.3°C 87% 9.4 mph W15.1 kmh W 9.4 mph15.1 kmh 29.99 in1015.6 mb 0.03 in0.8 mm 0.00 in0.0 mm 0.52 in13.2 mm
01:09 PM 79.7°F26.5°C 75.1°F23.9°C 86% 9.4 mph W15.1 kmh W 9.4 mph15.1 kmh 29.99 in1015.6 mb 0.03 in0.8 mm 0.00 in0.0 mm 0.52 in13.2 mm
01:10 PM 79.5°F26.4°C 74.2°F23.4°C 84% 6.8 mph WNW10.9 kmh WNW 10.9 mph17.5 kmh 29.99 in1015.6 mb 0.03 in0.8 mm 0.00 in0.0 mm 0.52 in13.2 mm
01:11 PM 79.5°F26.4°C 74.2°F23.4°C 84% 5.8 mph W9.3 kmh W 10.9 mph17.5 kmh 29.99 in1015.6 mb 0.03 in0.8 mm 0.00 in0.0 mm 0.52 in13.2 mm
01:12 PM 79.7°F26.5°C 74.4°F23.6°C 84% 7.3 mph W11.7 kmh W 10.9 mph17.5 kmh 29.99 in1015.6 mb 0.03 in0.8 mm 0.00 in0.0 mm 0.52 in13.2 mm
01:13 PM 79.7°F26.5°C 74.4°F23.6°C 84% 6.3 mph WNW10.1 kmh WNW 10.9 mph17.5 kmh 29.99 in1015.6 mb 0.03 in0.8 mm 0.00 in0.0 mm 0.52 in13.2 mm
01:14 PM 79.7°F26.5°C 74.4°F23.6°C 84% 7.8 mph W12.6 kmh W 10.9 mph17.5 kmh 29.98 in1015.2 mb 0.03 in0.8 mm 0.00 in0.0 mm 0.52 in13.2 mm
01:15 PM 79.7°F26.5°C 74.4°F23.6°C 84% 2.7 mph WSW4.3 kmh WSW 10.9 mph17.5 kmh 29.98 in1015.2 mb 0.03 in0.8 mm 0.00 in0.0 mm 0.52 in13.2 mm
01:16 PM 79.7°F26.5°C 74.4°F23.6°C 84% 3.2 mph W5.1 kmh W 10.9 mph17.5 kmh 29.98 in1015.2 mb 0.03 in0.8 mm 0.00 in0.0 mm 0.52 in13.2 mm
01:17 PM 79.7°F26.5°C 74.4°F23.6°C 84% 2.7 mph WSW4.3 kmh WSW 10.9 mph17.5 kmh 29.98 in1015.2 mb 0.03 in0.8 mm 0.00 in0.0 mm 0.52 in13.2 mm
01:18 PM 79.7°F26.5°C 74.4°F23.6°C 84% 3.2 mph SW5.1 kmh SW 10.9 mph17.5 kmh 29.98 in1015.2 mb 0.03 in0.8 mm 0.00 in0.0 mm 0.52 in13.2 mm
01:19 PM 79.5°F26.4°C 74.6°F23.7°C 85% 2.2 mph W3.5 kmh W 10.9 mph17.5 kmh 29.98 in1015.2 mb 0.03 in0.8 mm 0.00 in0.0 mm 0.52 in13.2 mm
01:20 PM 79.5°F26.4°C 74.9°F23.8°C 86% Calm Calm 7.8 mph12.6 kmh 29.98 in1015.2 mb 0.03 in0.8 mm 0.00 in0.0 mm 0.52 in13.2 mm
01:21 PM 79.5°F26.4°C 74.9°F23.8°C 86% Calm Calm 7.8 mph12.6 kmh 29.98 in1015.2 mb 0.03 in0.8 mm 0.00 in0.0 mm 0.52 in13.2 mm
01:22 PM 79.5°F26.4°C 74.9°F23.8°C 86% Calm Calm 7.8 mph12.6 kmh 29.98 in1015.2 mb 0.04 in1.0 mm 0.60 in15.2 mm 0.53 in13.5 mm
01:23 PM 79.5°F26.4°C 74.9°F23.8°C 86% 1.1 mph W1.8 kmh W 7.8 mph12.6 kmh 29.98 in1015.2 mb 0.04 in1.0 mm 0.00 in0.0 mm 0.53 in13.5 mm
01:24 PM 79.5°F26.4°C 74.9°F23.8°C 86% Calm Calm 7.8 mph12.6 kmh 29.98 in1015.2 mb 0.04 in1.0 mm 0.00 in0.0 mm 0.53 in13.5 mm
01:25 PM 79.2°F26.2°C 74.6°F23.7°C 86% 2.7 mph W4.3 kmh W 5.8 mph9.3 kmh 29.98 in1015.2 mb 0.04 in1.0 mm 0.00 in0.0 mm 0.53 in13.5 mm
01:26 PM 79.2°F26.2°C 74.6°F23.7°C 86% Calm Calm 3.7 mph6.0 kmh 29.98 in1015.2 mb 0.04 in1.0 mm 0.00 in0.0 mm 0.53 in13.5 mm
01:27 PM 79.2°F26.2°C 74.6°F23.7°C 86% Calm Calm 3.7 mph6.0 kmh 29.98 in1015.2 mb 0.04 in1.0 mm 0.00 in0.0 mm 0.53 in13.5 mm
01:28 PM 79.0°F26.1°C 74.4°F23.6°C 86% 6.3 mph W10.1 kmh W 6.3 mph10.1 kmh 29.98 in1015.2 mb 0.04 in1.0 mm 0.00 in0.0 mm 0.53 in13.5 mm
01:29 PM 78.8°F26.0°C 74.6°F23.7°C 87% 3.7 mph W6.0 kmh W 6.3 mph10.1 kmh 29.98 in1015.2 mb 0.04 in1.0 mm 0.00 in0.0 mm 0.53 in13.5 mm
01:30 PM 78.8°F26.0°C 74.9°F23.8°C 88% 4.7 mph W7.6 kmh W 6.3 mph10.1 kmh 29.98 in1015.2 mb 0.04 in1.0 mm 0.00 in0.0 mm 0.53 in13.5 mm
01:31 PM 78.8°F26.0°C 74.9°F23.8°C 88% 1.7 mph SW2.7 kmh SW 6.3 mph10.1 kmh 29.98 in1015.2 mb 0.04 in1.0 mm 0.00 in0.0 mm 0.53 in13.5 mm
01:32 PM 78.8°F26.0°C 74.9°F23.8°C 88% 2.7 mph SW4.3 kmh SW 6.3 mph10.1 kmh 29.98 in1015.2 mb 0.04 in1.0 mm 0.00 in0.0 mm 0.53 in13.5 mm
01:33 PM 78.8°F26.0°C 74.9°F23.8°C 88% 1.7 mph W2.7 kmh W 6.3 mph10.1 kmh 29.98 in1015.2 mb 0.04 in1.0 mm 0.00 in0.0 mm 0.53 in13.5 mm
01:34 PM 78.8°F26.0°C 74.9°F23.8°C 88% Calm Calm 6.3 mph10.1 kmh 29.98 in1015.2 mb 0.04 in1.0 mm 0.00 in0.0 mm 0.53 in13.5 mm
01:35 PM 79.0°F26.1°C 75.1°F23.9°C 88% Calm Calm 6.3 mph10.1 kmh 29.98 in1015.2 mb 0.04 in1.0 mm 0.00 in0.0 mm 0.53 in13.5 mm
01:36 PM 79.2°F26.2°C 75.3°F24.1°C 88% Calm Calm 6.3 mph10.1 kmh 29.98 in1015.2 mb 0.04 in1.0 mm 0.00 in0.0 mm 0.53 in13.5 mm
01:37 PM 79.2°F26.2°C 75.3°F24.1°C 88% Calm Calm 6.3 mph10.1 kmh 29.98 in1015.2 mb 0.05 in1.3 mm 0.60 in15.2 mm 0.54 in13.7 mm
01:38 PM 79.2°F26.2°C 75.7°F24.3°C 89% Calm Calm 5.8 mph9.3 kmh 29.98 in1015.2 mb 0.05 in1.3 mm 0.00 in0.0 mm 0.54 in13.7 mm
01:39 PM 79.2°F26.2°C 75.7°F24.3°C 89% Calm Calm 4.7 mph7.6 kmh 29.98 in1015.2 mb 0.05 in1.3 mm 0.00 in0.0 mm 0.54 in13.7 mm
01:40 PM 79.2°F26.2°C 75.7°F24.3°C 89% Calm Calm 4.7 mph7.6 kmh 29.98 in1015.2 mb 0.06 in1.5 mm 0.60 in15.2 mm 0.55 in14.0 mm
01:41 PM 79.2°F26.2°C 75.7°F24.3°C 89% Calm Calm 2.7 mph4.3 kmh 29.98 in1015.2 mb 0.06 in1.5 mm 0.00 in0.0 mm 0.55 in14.0 mm
01:42 PM 79.2°F26.2°C 75.7°F24.3°C 89% Calm Calm 2.7 mph4.3 kmh 29.98 in1015.2 mb 0.07 in1.8 mm 0.60 in15.2 mm 0.56 in14.2 mm
01:43 PM 79.2°F26.2°C 75.7°F24.3°C 89% Calm Calm 1.1 mph1.8 kmh 29.98 in1015.2 mb 0.08 in2.0 mm 0.60 in15.2 mm 0.57 in14.5 mm
01:44 PM 79.2°F26.2°C 75.7°F24.3°C 89% Calm Calm -- 29.98 in1015.2 mb 0.09 in2.3 mm 0.60 in15.2 mm 0.58 in14.7 mm
01:45 PM 79.2°F26.2°C 75.7°F24.3°C 89% Calm Calm -- 29.98 in1015.2 mb 0.10 in2.5 mm 0.60 in15.2 mm 0.59 in15.0 mm
01:46 PM 79.0°F26.1°C 75.5°F24.2°C 89% Calm Calm -- 29.98 in1015.2 mb 0.11 in2.8 mm 0.60 in15.2 mm 0.60 in15.2 mm
01:47 PM 79.0°F26.1°C 75.5°F24.2°C 89% Calm Calm -- 29.98 in1015.2 mb 0.12 in3.0 mm 0.60 in15.2 mm 0.61 in15.5 mm
01:48 PM 79.0°F26.1°C 75.8°F24.3°C 90% 2.2 mph WSW3.5 kmh WSW 2.2 mph3.5 kmh 29.98 in1015.2 mb 0.12 in3.0 mm 0.00 in0.0 mm 0.61 in15.5 mm
01:49 PM 79.0°F26.1°C 75.8°F24.3°C 90% 1.1 mph WSW1.8 kmh WSW 2.2 mph3.5 kmh 29.99 in1015.6 mb 0.14 in3.6 mm 1.20 in30.5 mm 0.63 in16.0 mm
01:50 PM 78.8°F26.0°C 75.6°F24.2°C 90% Calm Calm 2.2 mph3.5 kmh 29.99 in1015.6 mb 0.15 in3.8 mm 0.60 in15.2 mm 0.64 in16.3 mm
01:51 PM 78.8°F26.0°C 75.6°F24.2°C 90% Calm Calm 2.2 mph3.5 kmh 29.99 in1015.6 mb 0.20 in5.1 mm 3.00 in76.2 mm 0.69 in17.5 mm
01:52 PM 78.8°F26.0°C 75.6°F24.2°C 90% 1.1 mph W1.8 kmh W 2.2 mph3.5 kmh 29.99 in1015.6 mb 0.27 in6.9 mm 4.20 in106.7 mm 0.76 in19.3 mm
01:53 PM 78.6°F25.9°C 75.4°F24.1°C 90% 1.7 mph SSW2.7 kmh SSW 2.2 mph3.5 kmh 29.99 in1015.6 mb 0.31 in7.9 mm 2.40 in61.0 mm 0.80 in20.3 mm
01:54 PM 78.6°F25.9°C 75.4°F24.1°C 90% 1.1 mph SSE1.8 kmh SSE 2.2 mph3.5 kmh 29.99 in1015.6 mb 0.38 in9.7 mm 4.20 in106.7 mm 0.87 in22.1 mm
01:55 PM 78.4°F25.8°C 75.2°F24.0°C 90% Calm Calm 2.2 mph3.5 kmh 29.99 in1015.6 mb 0.39 in9.9 mm 0.60 in15.2 mm 0.88 in22.4 mm
01:56 PM 78.4°F25.8°C 75.2°F24.0°C 90% Calm Calm 2.2 mph3.5 kmh 29.99 in1015.6 mb 0.43 in10.9 mm 2.40 in61.0 mm 0.92 in23.4 mm
01:57 PM 78.3°F25.7°C 75.1°F23.9°C 90% Calm Calm 2.2 mph3.5 kmh 29.99 in1015.6 mb 0.50 in12.7 mm 4.20 in106.7 mm 1.00 in25.4 mm
01:58 PM 78.3°F25.7°C 75.1°F23.9°C 90% Calm Calm 2.2 mph3.5 kmh 29.99 in1015.6 mb 0.54 in13.7 mm 2.40 in61.0 mm 1.04 in26.4 mm
01:59 PM 78.1°F25.6°C 74.9°F23.8°C 90% Calm Calm 1.7 mph2.7 kmh 29.99 in1015.6 mb 0.57 in14.5 mm 1.80 in45.7 mm 1.08 in27.4 mm
02:00 PM 78.1°F25.6°C 74.9°F23.8°C 90% Calm Calm 1.7 mph2.7 kmh 29.99 in1015.6 mb 0.59 in15.0 mm 0.02 in0.5 mm 1.11 in28.2 mm
02:01 PM 77.9°F25.5°C 74.7°F23.7°C 90% Calm Calm 1.7 mph2.7 kmh 29.98 in1015.2 mb 0.60 in15.2 mm 0.60 in15.2 mm 1.12 in28.4 mm
02:02 PM 77.7°F25.4°C 74.5°F23.6°C 90% Calm Calm 1.7 mph2.7 kmh 29.98 in1015.2 mb 0.60 in15.2 mm 0.00 in0.0 mm 1.12 in28.4 mm
02:03 PM 77.7°F25.4°C 74.5°F23.6°C 90% Calm Calm 1.7 mph2.7 kmh 29.98 in1015.2 mb 0.60 in15.2 mm 0.00 in0.0 mm 1.12 in28.4 mm
02:04 PM 77.7°F25.4°C 74.5°F23.6°C 90% Calm Calm -- 29.98 in1015.2 mb 0.60 in15.2 mm 0.00 in0.0 mm 1.12 in28.4 mm
02:05 PM 77.5°F25.3°C 74.3°F23.5°C 90% Calm Calm -- 29.98 in1015.2 mb 0.60 in15.2 mm 0.00 in0.0 mm 1.12 in28.4 mm
02:06 PM 77.5°F25.3°C 74.3°F23.5°C 90% Calm Calm -- 29.98 in1015.2 mb 0.60 in15.2 mm 0.00 in0.0 mm 1.12 in28.4 mm
02:07 PM 77.5°F25.3°C 74.3°F23.5°C 90% Calm Calm -- 29.98 in1015.2 mb 0.60 in15.2 mm 0.00 in0.0 mm 1.12 in28.4 mm
02:08 PM 77.5°F25.3°C 74.3°F23.5°C 90% Calm Calm -- 29.98 in1015.2 mb 0.60 in15.2 mm 0.00 in0.0 mm 1.12 in28.4 mm
02:09 PM 77.5°F25.3°C 74.3°F23.5°C 90% Calm Calm -- 29.98 in1015.2 mb 0.60 in15.2 mm 0.00 in0.0 mm 1.12 in28.4 mm
02:10 PM 77.7°F25.4°C 74.5°F23.6°C 90% Calm Calm -- 29.98 in1015.2 mb 0.60 in15.2 mm 0.00 in0.0 mm 1.12 in28.4 mm
02:11 PM 77.7°F25.4°C 74.5°F23.6°C 90% Calm Calm -- 29.98 in1015.2 mb 0.60 in15.2 mm 0.00 in0.0 mm 1.12 in28.4 mm
02:12 PM 77.9°F25.5°C 74.7°F23.7°C 90% Calm Calm -- 29.98 in1015.2 mb 0.60 in15.2 mm 0.00 in0.0 mm 1.12 in28.4 mm
02:13 PM 77.9°F25.5°C 75.1°F23.9°C 91% Calm Calm -- 29.98 in1015.2 mb 0.60 in15.2 mm 0.00 in0.0 mm 1.12 in28.4 mm
02:14 PM 77.9°F25.5°C 75.1°F23.9°C 91% Calm Calm -- 29.98 in1015.2 mb 0.60 in15.2 mm 0.00 in0.0 mm 1.12 in28.4 mm
02:15 PM 78.1°F25.6°C 75.3°F24.1°C 91% Calm Calm -- 29.98 in1015.2 mb 0.60 in15.2 mm 0.00 in0.0 mm 1.12 in28.4 mm
02:16 PM 78.3°F25.7°C 75.4°F24.1°C 91% Calm Calm -- 29.98 in1015.2 mb 0.60 in15.2 mm 0.00 in0.0 mm 1.12 in28.4 mm
02:17 PM 78.3°F25.7°C 75.4°F24.1°C 91% Calm Calm -- 29.98 in1015.2 mb 0.60 in15.2 mm 0.00 in0.0 mm 1.12 in28.4 mm
02:18 PM 78.3°F25.7°C 75.4°F24.1°C 91% Calm Calm -- 29.98 in1015.2 mb 0.60 in15.2 mm 0.00 in0.0 mm 1.12 in28.4 mm
02:19 PM 78.4°F25.8°C 75.5°F24.2°C 91% Calm Calm -- 29.98 in1015.2 mb 0.60 in15.2 mm 0.00 in0.0 mm 1.12 in28.4 mm
02:20 PM 78.4°F25.8°C 75.5°F24.2°C 91% Calm Calm -- 29.98 in1015.2 mb 0.60 in15.2 mm 0.00 in0.0 mm 1.12 in28.4 mm
02:21 PM 78.4°F25.8°C 75.5°F24.2°C 91% Calm Calm -- 29.98 in1015.2 mb 0.60 in15.2 mm 0.00 in0.0 mm 1.12 in28.4 mm
02:22 PM 78.6°F25.9°C 75.7°F24.3°C 91% Calm Calm -- 29.98 in1015.2 mb 0.59 in15.0 mm 0.00 in0.0 mm 1.12 in28.4 mm
02:23 PM 78.6°F25.9°C 75.7°F24.3°C 91% Calm Calm -- 29.98 in1015.2 mb 0.59 in15.0 mm 0.00 in0.0 mm 1.12 in28.4 mm
02:24 PM 78.6°F25.9°C 75.7°F24.3°C 91% Calm Calm -- 29.98 in1015.2 mb 0.59 in15.0 mm 0.00 in0.0 mm 1.12 in28.4 mm
02:25 PM 78.8°F26.0°C 75.9°F24.4°C 91% Calm Calm -- 29.98 in1015.2 mb 0.59 in15.0 mm 0.00 in0.0 mm 1.12 in28.4 mm
02:26 PM 78.8°F26.0°C 75.9°F24.4°C 91% Calm Calm -- 29.98 in1015.2 mb 0.59 in15.0 mm 0.00 in0.0 mm 1.12 in28.4 mm
02:27 PM 78.8°F26.0°C 75.9°F24.4°C 91% Calm Calm -- 29.98 in1015.2 mb 0.59 in15.0 mm 0.00 in0.0 mm 1.12 in28.4 mm
02:28 PM 79.0°F26.1°C 76.1°F24.5°C 91% Calm Calm -- 29.98 in1015.2 mb 0.59 in15.0 mm 0.00 in0.0 mm 1.12 in28.4 mm
02:29 PM 79.0°F26.1°C 75.8°F24.3°C 90% Calm Calm -- 29.98 in1015.2 mb 0.59 in15.0 mm 0.00 in0.0 mm 1.12 in28.4 mm
02:30 PM 79.0°F26.1°C 75.8°F24.3°C 90% Calm Calm -- 29.98 in1015.2 mb 0.59 in15.0 mm 0.00 in0.0 mm 1.12 in28.4 mm
02:31 PM 79.0°F26.1°C 75.8°F24.3°C 90% Calm Calm -- 29.98 in1015.2 mb 0.59 in15.0 mm 0.00 in0.0 mm 1.12 in28.4 mm
02:32 PM 79.0°F26.1°C 75.8°F24.3°C 90% Calm Calm -- 29.98 in1015.2 mb 0.59 in15.0 mm 0.00 in0.0 mm 1.12 in28.4 mm
02:33 PM 79.0°F26.1°C 75.8°F24.3°C 90% Calm Calm -- 29.98 in1015.2 mb 0.59 in15.0 mm 0.00 in0.0 mm 1.12 in28.4 mm
02:34 PM 79.2°F26.2°C 76.0°F24.4°C 90% Calm Calm -- 29.98 in1015.2 mb 0.59 in15.0 mm 0.00 in0.0 mm 1.12 in28.4 mm
02:35 PM 79.2°F26.2°C 76.0°F24.4°C 90% Calm Calm -- 29.98 in1015.2 mb 0.59 in15.0 mm 0.00 in0.0 mm 1.12 in28.4 mm
02:36 PM 79.2°F26.2°C 76.0°F24.4°C 90% Calm Calm -- 29.98 in1015.2 mb 0.59 in15.0 mm 0.00 in0.0 mm 1.12 in28.4 mm
02:37 PM 79.3°F26.3°C 76.4°F24.7°C 91% Calm Calm -- 29.98 in1015.2 mb 0.58 in14.7 mm 0.00 in0.0 mm 1.12 in28.4 mm
02:38 PM 79.3°F26.3°C 76.4°F24.7°C 91% Calm Calm -- 29.98 in1015.2 mb 0.58 in14.7 mm 0.00 in0.0 mm 1.12 in28.4 mm
02:39 PM 79.3°F26.3°C 76.4°F24.7°C 91% Calm Calm -- 29.98 in1015.2 mb 0.58 in14.7 mm 0.00 in0.0 mm 1.12 in28.4 mm
02:40 PM 79.3°F26.3°C 76.4°F24.7°C 91% Calm Calm -- 29.98 in1015.2 mb 0.57 in14.5 mm 0.00 in0.0 mm 1.12 in28.4 mm
02:41 PM 79.3°F26.3°C 76.4°F24.7°C 91% Calm Calm -- 29.98 in1015.2 mb 0.57 in14.5 mm 0.00 in0.0 mm 1.12 in28.4 mm
02:42 PM 79.3°F26.3°C 76.4°F24.7°C 91% Calm Calm -- 29.98 in1015.2 mb 0.57 in14.5 mm 0.00 in0.0 mm 1.12 in28.4 mm
02:43 PM 79.5°F26.4°C 76.6°F24.8°C 91% Calm Calm -- 29.98 in1015.2 mb 0.55 in14.0 mm 0.00 in0.0 mm 1.12 in28.4 mm
02:44 PM 79.5°F26.4°C 76.6°F24.8°C 91% Calm Calm -- 29.98 in1015.2 mb 0.54 in13.7 mm 0.00 in0.0 mm 1.12 in28.4 mm
02:45 PM 79.7°F26.5°C 76.8°F24.9°C 91% Calm Calm -- 29.98 in1015.2 mb 0.53 in13.5 mm 0.00 in0.0 mm 1.12 in28.4 mm
02:46 PM 79.7°F26.5°C 76.8°F24.9°C 91% Calm Calm -- 29.98 in1015.2 mb 0.52 in13.2 mm 0.00 in0.0 mm 1.12 in28.4 mm
02:47 PM 79.7°F26.5°C 76.8°F24.9°C 91% Calm Calm -- 29.98 in1015.2 mb 0.52 in13.2 mm 0.00 in0.0 mm 1.12 in28.4 mm
02:48 PM 79.7°F26.5°C 76.8°F24.9°C 91% Calm Calm -- 29.98 in1015.2 mb 0.51 in13.0 mm 0.00 in0.0 mm 1.12 in28.4 mm
02:49 PM 79.7°F26.5°C 76.8°F24.9°C 91% Calm Calm -- 29.98 in1015.2 mb 0.50 in12.7 mm 0.00 in0.0 mm 1.12 in28.4 mm
02:50 PM 79.7°F26.5°C 76.8°F24.9°C 91% Calm Calm -- 29.98 in1015.2 mb 0.48 in12.2 mm 0.00 in0.0 mm 1.12 in28.4 mm
02:51 PM 79.7°F26.5°C 76.8°F24.9°C 91% Calm Calm -- 29.98 in1015.2 mb 0.43 in10.9 mm 0.00 in0.0 mm 1.12 in28.4 mm
02:52 PM 79.7°F26.5°C 76.8°F24.9°C 91% Calm Calm -- 29.98 in1015.2 mb 0.40 in10.2 mm 0.00 in0.0 mm 1.12 in28.4 mm
02:53 PM 79.7°F26.5°C 76.8°F24.9°C 91% Calm Calm -- 29.98 in1015.2 mb 0.32 in8.1 mm 0.00 in0.0 mm 1.12 in28.4 mm
02:54 PM 79.7°F26.5°C 76.8°F24.9°C 91% Calm Calm -- 29.98 in1015.2 mb 0.32 in8.1 mm 0.00 in0.0 mm 1.12 in28.4 mm
02:55 PM 79.7°F26.5°C 76.8°F24.9°C 91% Calm Calm -- 29.98 in1015.2 mb 0.24 in6.1 mm 0.00 in0.0 mm 1.12 in28.4 mm
02:56 PM 79.7°F26.5°C 76.8°F24.9°C 91% Calm Calm -- 29.98 in1015.2 mb 0.22 in5.6 mm 0.00 in0.0 mm 1.12 in28.4 mm
02:57 PM 79.3°F26.3°C 76.1°F24.5°C 90% 3.7 mph SW6.0 kmh SW 3.7 mph6.0 kmh 29.98 in1015.2 mb 0.17 in4.3 mm 0.00 in0.0 mm 1.12 in28.4 mm
02:58 PM 79.2°F26.2°C 76.0°F24.4°C 90% 8.9 mph WSW14.3 kmh WSW 8.9 mph14.3 kmh 29.98 in1015.2 mb 0.08 in2.0 mm 0.00 in0.0 mm 1.12 in28.4 mm
02:59 PM 79.2°F26.2°C 76.0°F24.4°C 90% 4.7 mph WSW7.6 kmh WSW 8.9 mph14.3 kmh 29.98 in1015.2 mb 0.06 in1.5 mm 0.00 in0.0 mm 1.12 in28.4 mm
03:00 PM 78.3°F25.7°C 74.8°F23.8°C 89% 5.3 mph WSW8.5 kmh WSW 9.4 mph15.1 kmh 29.98 in1015.2 mb 0.01 in0.3 mm 0.00 in0.0 mm 1.12 in28.4 mm
03:01 PM 78.3°F25.7°C 74.8°F23.8°C 89% 9.9 mph WSW15.9 kmh WSW 9.9 mph15.9 kmh 29.98 in1015.2 mb 0.01 in0.3 mm 0.00 in0.0 mm 1.12 in28.4 mm
03:02 PM 77.9°F25.5°C 74.4°F23.6°C 89% 5.3 mph SSW8.5 kmh SSW 10.4 mph16.7 kmh 29.98 in1015.2 mb 0.01 in0.3 mm 0.00 in0.0 mm 1.13 in28.7 mm
03:03 PM 77.5°F25.3°C 74.0°F23.3°C 89% 7.3 mph W11.7 kmh W 10.4 mph16.7 kmh 29.98 in1015.2 mb 0.01 in0.3 mm 0.00 in0.0 mm 1.13 in28.7 mm
03:04 PM 77.4°F25.2°C 73.9°F23.3°C 89% 8.3 mph W13.4 kmh W 10.4 mph16.7 kmh 29.98 in1015.2 mb 0.02 in0.5 mm 0.60 in15.2 mm 1.14 in29.0 mm
03:05 PM 77.2°F25.1°C 74.4°F23.6°C 91% 10.4 mph W16.7 kmh W 10.4 mph16.7 kmh 29.98 in1015.2 mb 0.03 in0.8 mm 0.60 in15.2 mm 1.15 in29.2 mm
03:06 PM 77.0°F25.0°C 74.2°F23.4°C 91% 10.4 mph W16.7 kmh W 14.0 mph22.5 kmh 29.98 in1015.2 mb 0.06 in1.5 mm 1.80 in45.7 mm 1.18 in30.0 mm
03:07 PM 77.0°F25.0°C 74.2°F23.4°C 91% 6.8 mph W10.9 kmh W 14.0 mph22.5 kmh 29.98 in1015.2 mb 0.09 in2.3 mm 1.80 in45.7 mm 1.21 in30.7 mm
03:08 PM 77.0°F25.0°C 74.5°F23.6°C 92% 9.9 mph WSW15.9 kmh WSW 14.0 mph22.5 kmh 29.98 in1015.2 mb 0.09 in2.3 mm 0.00 in0.0 mm 1.21 in30.7 mm
03:09 PM 77.0°F25.0°C 74.5°F23.6°C 92% 7.3 mph W11.7 kmh W 14.0 mph22.5 kmh 29.98 in1015.2 mb 0.11 in2.8 mm 1.20 in30.5 mm 1.23 in31.2 mm
03:10 PM 77.0°F25.0°C 74.5°F23.6°C 92% 6.3 mph W10.1 kmh W 14.0 mph22.5 kmh 29.98 in1015.2 mb 0.13 in3.3 mm 1.20 in30.5 mm 1.25 in31.8 mm
03:11 PM 77.0°F25.0°C 74.8°F23.8°C 93% 4.2 mph SW6.8 kmh SW 14.0 mph22.5 kmh 29.98 in1015.2 mb 0.15 in3.8 mm 1.20 in30.5 mm 1.27 in32.3 mm
03:12 PM 77.0°F25.0°C 74.8°F23.8°C 93% 4.7 mph WSW7.6 kmh WSW 14.0 mph22.5 kmh 29.98 in1015.2 mb 0.17 in4.3 mm 1.20 in30.5 mm 1.29 in32.8 mm
03:13 PM 76.8°F24.9°C 74.3°F23.5°C 92% 10.9 mph W17.5 kmh W 14.0 mph22.5 kmh 29.98 in1015.2 mb 0.18 in4.6 mm 0.60 in15.2 mm 1.30 in33.0 mm
03:14 PM 76.8°F24.9°C 74.3°F23.5°C 92% 6.8 mph W10.9 kmh W 14.0 mph22.5 kmh 29.98 in1015.2 mb 0.18 in4.6 mm 0.00 in0.0 mm 1.30 in33.0 mm
03:15 PM 76.8°F24.9°C 74.3°F23.5°C 92% 7.3 mph W11.7 kmh W 14.0 mph22.5 kmh 29.98 in1015.2 mb 0.19 in4.8 mm 0.60 in15.2 mm 1.31 in33.3 mm
03:16 PM 76.8°F24.9°C 74.3°F23.5°C 92% 6.8 mph W10.9 kmh W 13.0 mph20.9 kmh 29.98 in1015.2 mb 0.19 in4.8 mm 0.00 in0.0 mm 1.31 in33.3 mm
03:17 PM 76.6°F24.8°C 74.1°F23.4°C 92% 9.9 mph SW15.9 kmh SW 13.0 mph20.9 kmh 29.98 in1015.2 mb 0.20 in5.1 mm 0.60 in15.2 mm 1.32 in33.5 mm
03:18 PM 76.5°F24.7°C 74.0°F23.3°C 92% 8.3 mph W13.4 kmh W 13.0 mph20.9 kmh 29.98 in1015.2 mb 0.20 in5.1 mm 0.00 in0.0 mm 1.32 in33.5 mm
03:19 PM 76.6°F24.8°C 74.1°F23.4°C 92% 8.9 mph WSW14.3 kmh WSW 13.0 mph20.9 kmh 29.98 in1015.2 mb 0.20 in5.1 mm 0.00 in0.0 mm 1.32 in33.5 mm
03:20 PM 76.6°F24.8°C 74.1°F23.4°C 92% 8.3 mph WSW13.4 kmh WSW 13.0 mph20.9 kmh 29.98 in1015.2 mb 0.20 in5.1 mm 0.00 in0.0 mm 1.32 in33.5 mm
03:21 PM 76.6°F24.8°C 74.1°F23.4°C 92% 5.8 mph WSW9.3 kmh WSW 13.0 mph20.9 kmh 29.98 in1015.2 mb 0.21 in5.3 mm 0.60 in15.2 mm 1.33 in33.8 mm
03:22 PM 76.6°F24.8°C 74.1°F23.4°C 92% 9.4 mph SW15.1 kmh SW 13.0 mph20.9 kmh 29.98 in1015.2 mb 0.22 in5.6 mm 0.60 in15.2 mm 1.34 in34.0 mm
03:23 PM 76.3°F24.6°C 73.8°F23.2°C 92% 5.3 mph SW8.5 kmh SW 13.0 mph20.9 kmh 29.98 in1015.2 mb 0.22 in5.6 mm 0.00 in0.0 mm 1.34 in34.0 mm
03:24 PM 76.3°F24.6°C 73.8°F23.2°C 92% 3.7 mph SSW6.0 kmh SSW 13.0 mph20.9 kmh 29.98 in1015.2 mb 0.28 in7.1 mm 3.60 in91.4 mm 1.40 in35.6 mm
03:25 PM 76.5°F24.7°C 74.0°F23.3°C 92% 7.8 mph SSW12.6 kmh SSW 10.4 mph16.7 kmh 29.98 in1015.2 mb 0.30 in7.6 mm 1.20 in30.5 mm 1.42 in36.1 mm
03:26 PM 76.3°F24.6°C 73.8°F23.2°C 92% 8.3 mph W13.4 kmh W 10.4 mph16.7 kmh 29.98 in1015.2 mb 0.32 in8.1 mm 1.20 in30.5 mm 1.44 in36.6 mm
03:27 PM 76.3°F24.6°C 73.8°F23.2°C 92% 4.2 mph W6.8 kmh W 10.4 mph16.7 kmh 29.98 in1015.2 mb 0.33 in8.4 mm 0.60 in15.2 mm 1.45 in36.8 mm
03:28 PM 76.1°F24.5°C 73.6°F23.1°C 92% 6.3 mph W10.1 kmh W 9.4 mph15.1 kmh 29.98 in1015.2 mb 0.33 in8.4 mm 0.00 in0.0 mm 1.45 in36.8 mm
03:29 PM 76.1°F24.5°C 73.6°F23.1°C 92% 2.7 mph WSW4.3 kmh WSW 9.4 mph15.1 kmh 29.98 in1015.2 mb 0.33 in8.4 mm 0.00 in0.0 mm 1.45 in36.8 mm
03:30 PM 76.1°F24.5°C 73.6°F23.1°C 92% 4.7 mph SSW7.6 kmh SSW 9.4 mph15.1 kmh 29.98 in1015.2 mb 0.34 in8.6 mm 0.60 in15.2 mm 1.46 in37.1 mm
03:31 PM 75.9°F24.4°C 73.4°F23.0°C 92% 2.7 mph WSW4.3 kmh WSW 9.4 mph15.1 kmh 29.98 in1015.2 mb 0.34 in8.6 mm 0.00 in0.0 mm 1.46 in37.1 mm
03:32 PM 75.9°F24.4°C 73.4°F23.0°C 92% 2.7 mph SSW4.3 kmh SSW 9.4 mph15.1 kmh 29.98 in1015.2 mb 0.34 in8.6 mm 0.00 in0.0 mm 1.46 in37.1 mm
03:33 PM 76.1°F24.5°C 73.9°F23.3°C 93% 3.7 mph SSW6.0 kmh SSW 8.3 mph13.4 kmh 29.98 in1015.2 mb 0.35 in8.9 mm 0.60 in15.2 mm 1.47 in37.3 mm
03:34 PM 76.1°F24.5°C 73.9°F23.3°C 93% 2.7 mph S4.3 kmh S 8.3 mph13.4 kmh 29.98 in1015.2 mb 0.36 in9.1 mm 0.60 in15.2 mm 1.48 in37.6 mm
03:35 PM 76.1°F24.5°C 73.9°F23.3°C 93% 3.7 mph W6.0 kmh W 8.3 mph13.4 kmh 29.98 in1015.2 mb 0.36 in9.1 mm 0.00 in0.0 mm 1.48 in37.6 mm
03:36 PM 76.1°F24.5°C 73.9°F23.3°C 93% 3.2 mph SW5.1 kmh SW 7.8 mph12.6 kmh 29.98 in1015.2 mb 0.36 in9.1 mm 0.00 in0.0 mm 1.48 in37.6 mm
03:37 PM 76.1°F24.5°C 73.9°F23.3°C 93% 2.7 mph SSW4.3 kmh SSW 6.3 mph10.1 kmh 29.98 in1015.2 mb 0.36 in9.1 mm 0.00 in0.0 mm 1.48 in37.6 mm
03:38 PM 76.1°F24.5°C 73.9°F23.3°C 93% 2.7 mph WSW4.3 kmh WSW 5.8 mph9.3 kmh 30.00 in1015.9 mb 0.37 in9.4 mm 0.60 in15.2 mm 1.49 in37.8 mm
03:39 PM 76.1°F24.5°C 73.9°F23.3°C 93% 2.2 mph WSW3.5 kmh WSW 4.7 mph7.6 kmh 30.00 in1015.9 mb 0.38 in9.7 mm 0.60 in15.2 mm 1.50 in38.1 mm
03:40 PM 76.1°F24.5°C 73.9°F23.3°C 93% Calm Calm 4.7 mph7.6 kmh 30.00 in1015.9 mb 0.38 in9.7 mm 0.00 in0.0 mm 1.50 in38.1 mm
03:41 PM 76.1°F24.5°C 73.6°F23.1°C 92% 2.7 mph W4.3 kmh W 4.2 mph6.8 kmh 30.00 in1015.9 mb 0.40 in10.2 mm 1.20 in30.5 mm 1.52 in38.6 mm
03:42 PM 75.9°F24.4°C 73.4°F23.0°C 92% 4.7 mph W7.6 kmh W 4.7 mph7.6 kmh 30.00 in1015.9 mb 0.41 in10.4 mm 0.60 in15.2 mm 1.53 in38.9 mm
03:43 PM 75.7°F24.3°C 73.2°F22.9°C 92% 3.7 mph WSW6.0 kmh WSW 4.7 mph7.6 kmh 30.00 in1015.9 mb 0.41 in10.4 mm 0.00 in0.0 mm 1.53 in38.9 mm
03:44 PM 75.7°F24.3°C 73.2°F22.9°C 92% 3.2 mph SW5.1 kmh SW 4.7 mph7.6 kmh 30.00 in1015.9 mb 0.42 in10.7 mm 0.60 in15.2 mm 1.54 in39.1 mm
03:45 PM 75.7°F24.3°C 73.2°F22.9°C 92% 2.7 mph SW4.3 kmh SW 4.7 mph7.6 kmh 30.00 in1015.9 mb 0.43 in10.9 mm 0.60 in15.2 mm 1.55 in39.4 mm
03:46 PM 75.7°F24.3°C 73.2°F22.9°C 92% 2.7 mph SW4.3 kmh SW 4.7 mph7.6 kmh 30.00 in1015.9 mb 0.43 in10.9 mm 0.00 in0.0 mm 1.55 in39.4 mm
03:47 PM 75.7°F24.3°C 73.2°F22.9°C 92% 2.2 mph WSW3.5 kmh WSW 4.7 mph7.6 kmh 30.00 in1015.9 mb 0.43 in10.9 mm 0.00 in0.0 mm 1.55 in39.4 mm
03:48 PM 75.7°F24.3°C 73.2°F22.9°C 92% 2.7 mph SSW4.3 kmh SSW 4.7 mph7.6 kmh 30.00 in1015.9 mb 0.44 in11.2 mm 0.60 in15.2 mm 1.56 in39.6 mm
03:49 PM 75.7°F24.3°C 73.2°F22.9°C 92% 3.2 mph SW5.1 kmh SW 4.7 mph7.6 kmh 30.00 in1015.9 mb 0.44 in11.2 mm 0.00 in0.0 mm 1.56 in39.6 mm
03:50 PM 75.7°F24.3°C 73.2°F22.9°C 92% 2.7 mph SW4.3 kmh SW 4.7 mph7.6 kmh 30.00 in1015.9 mb 0.44 in11.2 mm 0.00 in0.0 mm 1.56 in39.6 mm
03:51 PM 75.9°F24.4°C 73.4°F23.0°C 92% Calm Calm 4.7 mph7.6 kmh 30.00 in1015.9 mb 0.44 in11.2 mm 0.00 in0.0 mm 1.56 in39.6 mm
03:52 PM 75.9°F24.4°C 73.4°F23.0°C 92% Calm Calm 3.7 mph6.0 kmh 30.00 in1015.9 mb 0.44 in11.2 mm 0.00 in0.0 mm 1.56 in39.6 mm
03:53 PM 75.9°F24.4°C 73.4°F23.0°C 92% Calm Calm 3.7 mph6.0 kmh 30.00 in1015.9 mb 0.44 in11.2 mm 0.00 in0.0 mm 1.56 in39.6 mm
03:54 PM 75.9°F24.4°C 73.4°F23.0°C 92% Calm Calm 3.7 mph6.0 kmh 30.00 in1015.9 mb 0.46 in11.7 mm 1.20 in30.5 mm 1.58 in40.1 mm
03:55 PM 75.9°F24.4°C 73.4°F23.0°C 92% 1.7 mph SW2.7 kmh SW 3.7 mph6.0 kmh 30.00 in1015.9 mb 0.46 in11.7 mm 0.00 in0.0 mm 1.58 in40.1 mm
03:56 PM 75.9°F24.4°C 73.4°F23.0°C 92% Calm Calm 3.7 mph6.0 kmh 30.00 in1015.9 mb 0.47 in11.9 mm 0.60 in15.2 mm 1.59 in40.4 mm
03:57 PM 75.9°F24.4°C 73.4°F23.0°C 92% Calm Calm 3.7 mph6.0 kmh 30.00 in1015.9 mb 0.47 in11.9 mm 0.00 in0.0 mm 1.59 in40.4 mm
03:58 PM 75.9°F24.4°C 73.4°F23.0°C 92% Calm Calm 3.7 mph6.0 kmh 30.00 in1015.9 mb 0.47 in11.9 mm 0.00 in0.0 mm 1.59 in40.4 mm
03:59 PM 75.9°F24.4°C 73.4°F23.0°C 92% Calm Calm 3.2 mph5.1 kmh 30.00 in1015.9 mb 0.48 in12.2 mm 0.60 in15.2 mm 1.60 in40.6 mm
04:00 PM 75.9°F24.4°C 73.7°F23.2°C 93% Calm Calm 2.7 mph4.3 kmh 30.00 in1015.9 mb 0.48 in12.2 mm 0.00 in0.0 mm 1.60 in40.6 mm
04:01 PM 75.9°F24.4°C 73.7°F23.2°C 93% Calm Calm 2.2 mph3.5 kmh 30.00 in1015.9 mb 0.48 in12.2 mm 0.00 in0.0 mm 1.60 in40.6 mm
04:02 PM 75.9°F24.4°C 73.7°F23.2°C 93% Calm Calm 2.2 mph3.5 kmh 30.00 in1015.9 mb 0.47 in11.9 mm 0.00 in0.0 mm 1.60 in40.6 mm
04:03 PM 75.9°F24.4°C 73.7°F23.2°C 93% Calm Calm 2.2 mph3.5 kmh 30.00 in1015.9 mb 0.47 in11.9 mm 0.00 in0.0 mm 1.60 in40.6 mm
04:04 PM 75.9°F24.4°C 73.7°F23.2°C 93% 1.7 mph W2.7 kmh W 3.7 mph6.0 kmh 30.00 in1015.9 mb 0.47 in11.9 mm 0.00 in0.0 mm 1.60 in40.6 mm
04:05 PM 76.1°F24.5°C 73.9°F23.3°C 93% 6.8 mph W10.9 kmh W 6.8 mph10.9 kmh 30.00 in1015.9 mb 0.45 in11.4 mm 0.00 in0.0 mm 1.60 in40.6 mm
04:06 PM 76.3°F24.6°C 74.1°F23.4°C 93% 5.8 mph SW9.3 kmh SW 6.8 mph10.9 kmh 30.00 in1015.9 mb 0.42 in10.7 mm 0.00 in0.0 mm 1.60 in40.6 mm
04:07 PM 76.5°F24.7°C 74.3°F23.5°C 93% 2.7 mph SW4.3 kmh SW 9.9 mph15.9 kmh 30.00 in1015.9 mb 0.41 in10.4 mm 0.00 in0.0 mm 1.61 in40.9 mm
04:08 PM 76.5°F24.7°C 74.3°F23.5°C 93% 3.7 mph W6.0 kmh W 9.9 mph15.9 kmh 30.00 in1015.9 mb 0.40 in10.2 mm 0.00 in0.0 mm 1.61 in40.9 mm
04:09 PM 76.5°F24.7°C 74.3°F23.5°C 93% 2.7 mph SSW4.3 kmh SSW 9.9 mph15.9 kmh 30.00 in1015.9 mb 0.40 in10.2 mm 0.00 in0.0 mm 1.61 in40.9 mm
04:10 PM 76.5°F24.7°C 74.3°F23.5°C 93% 3.2 mph SW5.1 kmh SW 9.9 mph15.9 kmh 30.00 in1015.9 mb 0.36 in9.1 mm 0.00 in0.0 mm 1.61 in40.9 mm
04:11 PM 76.5°F24.7°C 74.3°F23.5°C 93% 3.2 mph WSW5.1 kmh WSW 9.9 mph15.9 kmh 30.00 in1015.9 mb 0.34 in8.6 mm 0.00 in0.0 mm 1.61 in40.9 mm
04:12 PM 76.5°F24.7°C 74.3°F23.5°C 93% 5.8 mph W9.3 kmh W 9.9 mph15.9 kmh 30.00 in1015.9 mb 0.32 in8.1 mm 0.00 in0.0 mm 1.61 in40.9 mm
04:13 PM 76.6°F24.8°C 74.4°F23.6°C 93% 6.3 mph WSW10.1 kmh WSW 9.9 mph15.9 kmh 29.98 in1015.2 mb 0.31 in7.9 mm 0.00 in0.0 mm 1.61 in40.9 mm
04:14 PM 76.6°F24.8°C 74.4°F23.6°C 93% 4.2 mph WSW6.8 kmh WSW 9.9 mph15.9 kmh 29.98 in1015.2 mb 0.31 in7.9 mm 0.00 in0.0 mm 1.61 in40.9 mm
04:15 PM 76.6°F24.8°C 74.4°F23.6°C 93% 9.4 mph SW15.1 kmh SW 9.9 mph15.9 kmh 29.98 in1015.2 mb 0.30 in7.6 mm 0.00 in0.0 mm 1.61 in40.9 mm
04:16 PM 76.8°F24.9°C 74.6°F23.7°C 93% 3.7 mph WSW6.0 kmh WSW 9.9 mph15.9 kmh 29.98 in1015.2 mb 0.31 in7.9 mm 0.60 in15.2 mm 1.62 in41.1 mm
04:17 PM 76.8°F24.9°C 74.6°F23.7°C 93% 4.7 mph W7.6 kmh W 9.4 mph15.1 kmh 29.98 in1015.2 mb 0.30 in7.6 mm 0.00 in0.0 mm 1.62 in41.1 mm
04:18 PM 76.8°F24.9°C 74.6°F23.7°C 93% 5.3 mph WSW8.5 kmh WSW 9.4 mph15.1 kmh 29.98 in1015.2 mb 0.30 in7.6 mm 0.00 in0.0 mm 1.62 in41.1 mm
04:19 PM 77.0°F25.0°C 74.8°F23.8°C 93% 5.3 mph W8.5 kmh W 9.4 mph15.1 kmh 29.98 in1015.2 mb 0.30 in7.6 mm 0.00 in0.0 mm 1.62 in41.1 mm
04:20 PM 77.0°F25.0°C 74.8°F23.8°C 93% 4.2 mph WSW6.8 kmh WSW 9.4 mph15.1 kmh 29.98 in1015.2 mb 0.30 in7.6 mm 0.00 in0.0 mm 1.62 in41.1 mm
04:21 PM 77.0°F25.0°C 74.8°F23.8°C 93% 5.3 mph W8.5 kmh W 9.4 mph15.1 kmh 29.98 in1015.2 mb 0.29 in7.4 mm 0.00 in0.0 mm 1.62 in41.1 mm
04:22 PM 77.0°F25.0°C 74.8°F23.8°C 93% 4.7 mph WSW7.6 kmh WSW 9.4 mph15.1 kmh 29.98 in1015.2 mb 0.28 in7.1 mm 0.00 in0.0 mm 1.62 in41.1 mm
04:23 PM 77.0°F25.0°C 74.8°F23.8°C 93% 2.2 mph SSW3.5 kmh SSW 9.4 mph15.1 kmh 29.98 in1015.2 mb 0.28 in7.1 mm 0.00 in0.0 mm 1.62 in41.1 mm
04:24 PM 77.0°F25.0°C 74.8°F23.8°C 93% 3.2 mph SSW5.1 kmh SSW 9.4 mph15.1 kmh 29.98 in1015.2 mb 0.24 in6.1 mm 0.00 in0.0 mm 1.62 in41.1 mm
04:25 PM 77.0°F25.0°C 74.8°F23.8°C 93% 3.2 mph W5.1 kmh W 9.4 mph15.1 kmh 29.98 in1015.2 mb 0.20 in5.1 mm 0.00 in0.0 mm 1.62 in41.1 mm
04:26 PM 77.0°F25.0°C 74.8°F23.8°C 93% 2.2 mph W3.5 kmh W 8.9 mph14.3 kmh 29.98 in1015.2 mb 0.18 in4.6 mm 0.00 in0.0 mm 1.62 in41.1 mm
04:27 PM 76.8°F24.9°C 74.6°F23.7°C 93% 4.2 mph WSW6.8 kmh WSW 8.9 mph14.3 kmh 29.98 in1015.2 mb 0.18 in4.6 mm 0.00 in0.0 mm 1.62 in41.1 mm
04:28 PM 76.8°F24.9°C 74.6°F23.7°C 93% 2.7 mph SW4.3 kmh SW 8.9 mph14.3 kmh 29.98 in1015.2 mb 0.17 in4.3 mm 0.00 in0.0 mm 1.62 in41.1 mm
04:29 PM 76.8°F24.9°C 74.6°F23.7°C 93% 3.7 mph SW6.0 kmh SW 8.9 mph14.3 kmh 29.98 in1015.2 mb 0.17 in4.3 mm 0.00 in0.0 mm 1.62 in41.1 mm
04:30 PM 76.8°F24.9°C 74.6°F23.7°C 93% 2.7 mph WSW4.3 kmh WSW 8.9 mph14.3 kmh 29.98 in1015.2 mb 0.17 in4.3 mm 0.00 in0.0 mm 1.63 in41.4 mm
04:31 PM 76.6°F24.8°C 74.1°F23.4°C 92% 3.7 mph W6.0 kmh W 8.9 mph14.3 kmh 29.98 in1015.2 mb 0.17 in4.3 mm 0.00 in0.0 mm 1.63 in41.4 mm
04:32 PM 76.5°F24.7°C 74.0°F23.3°C 92% 2.2 mph SW3.5 kmh SW 8.9 mph14.3 kmh 29.98 in1015.2 mb 0.17 in4.3 mm 0.00 in0.0 mm 1.63 in41.4 mm
04:33 PM 76.5°F24.7°C 74.0°F23.3°C 92% 5.3 mph WSW8.5 kmh WSW 5.3 mph8.5 kmh 29.98 in1015.2 mb 0.16 in4.1 mm 0.00 in0.0 mm 1.63 in41.4 mm
04:34 PM 76.5°F24.7°C 74.0°F23.3°C 92% 3.7 mph WSW6.0 kmh WSW 5.3 mph8.5 kmh 29.98 in1015.2 mb 0.16 in4.1 mm 0.00 in0.0 mm 1.63 in41.4 mm
04:35 PM 76.5°F24.7°C 74.0°F23.3°C 92% 3.2 mph WSW5.1 kmh WSW 5.3 mph8.5 kmh 29.98 in1015.2 mb 0.15 in3.8 mm 0.00 in0.0 mm 1.63 in41.4 mm
04:36 PM 76.5°F24.7°C 74.0°F23.3°C 92% Calm Calm 5.3 mph8.5 kmh 29.98 in1015.2 mb 0.15 in3.8 mm 0.00 in0.0 mm 1.63 in41.4 mm
04:37 PM 76.5°F24.7°C 74.0°F23.3°C 92% 2.2 mph WSW3.5 kmh WSW 5.3 mph8.5 kmh 29.98 in1015.2 mb 0.15 in3.8 mm 0.00 in0.0 mm 1.63 in41.4 mm
04:38 PM 76.5°F24.7°C 74.0°F23.3°C 92% Calm Calm 5.3 mph8.5 kmh 29.98 in1015.2 mb 0.14 in3.6 mm 0.00 in0.0 mm 1.63 in41.4 mm
04:39 PM 76.5°F24.7°C 74.0°F23.3°C 92% 4.7 mph W7.6 kmh W 5.3 mph8.5 kmh 29.98 in1015.2 mb 0.14 in3.6 mm 0.00 in0.0 mm 1.63 in41.4 mm
04:40 PM 76.6°F24.8°C 74.1°F23.4°C 92% 2.2 mph W3.5 kmh W 5.3 mph8.5 kmh 29.98 in1015.2 mb 0.13 in3.3 mm 0.00 in0.0 mm 1.63 in41.4 mm
04:41 PM 76.6°F24.8°C 74.1°F23.4°C 92% 3.7 mph W6.0 kmh W 5.3 mph8.5 kmh 29.98 in1015.2 mb 0.11 in2.8 mm 0.00 in0.0 mm 1.63 in41.4 mm
04:42 PM 76.6°F24.8°C 74.1°F23.4°C 92% 6.8 mph W10.9 kmh W 6.8 mph10.9 kmh 29.98 in1015.2 mb 0.11 in2.8 mm 0.00 in0.0 mm 1.63 in41.4 mm
04:43 PM 76.8°F24.9°C 74.3°F23.5°C 92% 3.2 mph WSW5.1 kmh WSW 7.3 mph11.7 kmh 29.98 in1015.2 mb 0.10 in2.5 mm 0.00 in0.0 mm 1.63 in41.4 mm
04:44 PM 76.8°F24.9°C 74.3°F23.5°C 92% 2.7 mph WSW4.3 kmh WSW 7.3 mph11.7 kmh 29.98 in1015.2 mb 0.09 in2.3 mm 0.00 in0.0 mm 1.63 in41.4 mm
04:45 PM 76.6°F24.8°C 74.1°F23.4°C 92% 5.3 mph W8.5 kmh W 7.3 mph11.7 kmh 29.98 in1015.2 mb 0.08 in2.0 mm 0.00 in0.0 mm 1.63 in41.4 mm
04:46 PM 76.6°F24.8°C 73.8°F23.2°C 91% 4.7 mph W7.6 kmh W 7.3 mph11.7 kmh 29.98 in1015.2 mb 0.09 in2.3 mm 0.60 in15.2 mm 1.64 in41.7 mm
04:47 PM 76.5°F24.7°C 73.7°F23.2°C 91% 3.2 mph WSW5.1 kmh WSW 7.3 mph11.7 kmh 29.98 in1015.2 mb 0.09 in2.3 mm 0.00 in0.0 mm 1.64 in41.7 mm
04:48 PM 76.5°F24.7°C 73.3°F22.9°C 90% 6.3 mph W10.1 kmh W 7.3 mph11.7 kmh 29.98 in1015.2 mb 0.08 in2.0 mm 0.00 in0.0 mm 1.64 in41.7 mm
04:49 PM 76.5°F24.7°C 73.3°F22.9°C 90% 5.8 mph WSW9.3 kmh WSW 7.3 mph11.7 kmh 29.97 in1014.9 mb 0.08 in2.0 mm 0.00 in0.0 mm 1.64 in41.7 mm
04:50 PM 76.3°F24.6°C 73.1°F22.8°C 90% 4.2 mph WSW6.8 kmh WSW 7.3 mph11.7 kmh 29.97 in1014.9 mb 0.08 in2.0 mm 0.00 in0.0 mm 1.64 in41.7 mm
04:51 PM 76.3°F24.6°C 73.1°F22.8°C 90% 5.8 mph W9.3 kmh W 7.3 mph11.7 kmh 29.97 in1014.9 mb 0.08 in2.0 mm 0.00 in0.0 mm 1.64 in41.7 mm
04:52 PM 76.3°F24.6°C 72.8°F22.7°C 89% 3.7 mph SW6.0 kmh SW 7.3 mph11.7 kmh 29.97 in1014.9 mb 0.08 in2.0 mm 0.00 in0.0 mm 1.64 in41.7 mm
04:53 PM 76.3°F24.6°C 72.8°F22.7°C 89% 4.2 mph WSW6.8 kmh WSW 6.8 mph10.9 kmh 29.97 in1014.9 mb 0.08 in2.0 mm 0.00 in0.0 mm 1.64 in41.7 mm
04:54 PM 76.3°F24.6°C 72.8°F22.7°C 89% Calm Calm 6.8 mph10.9 kmh 29.97 in1014.9 mb 0.07 in1.8 mm 0.00 in0.0 mm 1.64 in41.7 mm
04:55 PM 76.3°F24.6°C 73.1°F22.8°C 90% Calm Calm 6.8 mph10.9 kmh 29.97 in1014.9 mb 0.06 in1.5 mm 0.00 in0.0 mm 1.64 in41.7 mm
04:56 PM 76.3°F24.6°C 73.1°F22.8°C 90% Calm Calm 6.8 mph10.9 kmh 29.97 in1014.9 mb 0.06 in1.5 mm 0.00 in0.0 mm 1.64 in41.7 mm
04:57 PM 76.3°F24.6°C 73.1°F22.8°C 90% 5.3 mph W8.5 kmh W 6.8 mph10.9 kmh 29.97 in1014.9 mb 0.05 in1.3 mm 0.00 in0.0 mm 1.64 in41.7 mm
04:58 PM 76.3°F24.6°C 73.1°F22.8°C 90% 3.7 mph W6.0 kmh W 6.3 mph10.1 kmh 29.97 in1014.9 mb 0.05 in1.3 mm 0.00 in0.0 mm 1.64 in41.7 mm
04:59 PM 76.3°F24.6°C 73.1°F22.8°C 90% 1.1 mph WSW1.8 kmh WSW 5.8 mph9.3 kmh 29.97 in1014.9 mb 0.04 in1.0 mm 0.00 in0.0 mm 1.64 in41.7 mm
05:00 PM 76.3°F24.6°C 73.1°F22.8°C 90% Calm Calm 5.8 mph9.3 kmh 29.97 in1014.9 mb 0.04 in1.0 mm 0.00 in0.0 mm 1.64 in41.7 mm
05:01 PM 76.3°F24.6°C 73.1°F22.8°C 90% 2.2 mph SW3.5 kmh SW 5.8 mph9.3 kmh 29.97 in1014.9 mb 0.04 in1.0 mm 0.00 in0.0 mm 1.64 in41.7 mm
05:02 PM 76.3°F24.6°C 73.1°F22.8°C 90% 1.7 mph SSW2.7 kmh SSW 5.3 mph8.5 kmh 29.97 in1014.9 mb 0.04 in1.0 mm 0.00 in0.0 mm 1.64 in41.7 mm
05:03 PM 76.3°F24.6°C 73.1°F22.8°C 90% 1.7 mph W2.7 kmh W 5.3 mph8.5 kmh 29.97 in1014.9 mb 0.04 in1.0 mm 0.00 in0.0 mm 1.64 in41.7 mm
05:04 PM 76.3°F24.6°C 73.1°F22.8°C 90% Calm Calm 5.3 mph8.5 kmh 29.97 in1014.9 mb 0.04 in1.0 mm 0.00 in0.0 mm 1.64 in41.7 mm
05:05 PM 76.3°F24.6°C 73.1°F22.8°C 90% Calm Calm 5.3 mph8.5 kmh 29.97 in1014.9 mb 0.04 in1.0 mm 0.00 in0.0 mm 1.64 in41.7 mm
05:06 PM 76.3°F24.6°C 73.1°F22.8°C 90% Calm Calm 5.3 mph8.5 kmh 29.97 in1014.9 mb 0.04 in1.0 mm 0.00 in0.0 mm 1.64 in41.7 mm
05:07 PM 76.3°F24.6°C 73.5°F23.1°C 91% Calm Calm 4.2 mph6.8 kmh 29.97 in1014.9 mb 0.04 in1.0 mm 0.00 in0.0 mm 1.64 in41.7 mm
05:08 PM 76.3°F24.6°C 73.5°F23.1°C 91% Calm Calm 3.7 mph6.0 kmh 29.97 in1014.9 mb 0.03 in0.8 mm 0.00 in0.0 mm 1.64 in41.7 mm
05:09 PM 76.3°F24.6°C 73.5°F23.1°C 91% Calm Calm 2.2 mph3.5 kmh 29.97 in1014.9 mb 0.03 in0.8 mm 0.00 in0.0 mm 1.64 in41.7 mm
05:10 PM 76.3°F24.6°C 73.5°F23.1°C 91% Calm Calm 2.2 mph3.5 kmh 29.97 in1014.9 mb 0.03 in0.8 mm 0.00 in0.0 mm 1.64 in41.7 mm
05:11 PM 76.3°F24.6°C 73.5°F23.1°C 91% Calm Calm 2.2 mph3.5 kmh 29.97 in1014.9 mb 0.03 in0.8 mm 0.00 in0.0 mm 1.64 in41.7 mm
05:12 PM 76.3°F24.6°C 73.5°F23.1°C 91% Calm Calm 2.2 mph3.5 kmh 29.97 in1014.9 mb 0.03 in0.8 mm 0.00 in0.0 mm 1.64 in41.7 mm
05:13 PM 76.3°F24.6°C 73.8°F23.2°C 92% Calm Calm 2.2 mph3.5 kmh 29.96 in1014.6 mb 0.03 in0.8 mm 0.00 in0.0 mm 1.64 in41.7 mm
05:14 PM 76.3°F24.6°C 73.8°F23.2°C 92% Calm Calm -- 29.96 in1014.6 mb 0.03 in0.8 mm 0.00 in0.0 mm 1.64 in41.7 mm
05:15 PM 76.3°F24.6°C 73.8°F23.2°C 92% Calm Calm -- 29.96 in1014.6 mb 0.03 in0.8 mm 0.00 in0.0 mm 1.64 in41.7 mm
05:16 PM 76.3°F24.6°C 73.8°F23.2°C 92% Calm Calm -- 29.96 in1014.6 mb 0.03 in0.8 mm 0.00 in0.0 mm 1.64 in41.7 mm
05:17 PM 76.3°F24.6°C 73.8°F23.2°C 92% Calm Calm -- 29.96 in1014.6 mb 0.02 in0.5 mm 0.00 in0.0 mm 1.64 in41.7 mm
05:18 PM 76.3°F24.6°C 73.8°F23.2°C 92% Calm Calm -- 29.96 in1014.6 mb 0.02 in0.5 mm 0.00 in0.0 mm 1.64 in41.7 mm
05:19 PM 76.3°F24.6°C 73.8°F23.2°C 92% Calm Calm -- 29.96 in1014.6 mb 0.02 in0.5 mm 0.00 in0.0 mm 1.64 in41.7 mm
05:20 PM 76.3°F24.6°C 73.8°F23.2°C 92% Calm Calm -- 29.96 in1014.6 mb 0.02 in0.5 mm 0.00 in0.0 mm 1.64 in41.7 mm
05:21 PM 76.3°F24.6°C 73.8°F23.2°C 92% Calm Calm -- 29.96 in1014.6 mb 0.02 in0.5 mm 0.00 in0.0 mm 1.64 in41.7 mm
05:22 PM 76.3°F24.6°C 73.8°F23.2°C 92% Calm Calm -- 29.96 in1014.6 mb 0.02 in0.5 mm 0.00 in0.0 mm 1.64 in41.7 mm
05:23 PM 76.1°F24.5°C 73.6°F23.1°C 92% Calm Calm -- 29.96 in1014.6 mb 0.02 in0.5 mm 0.00 in0.0 mm 1.64 in41.7 mm
05:24 PM 76.1°F24.5°C 73.6°F23.1°C 92% Calm Calm -- 29.96 in1014.6 mb 0.02 in0.5 mm 0.00 in0.0 mm 1.64 in41.7 mm
05:25 PM 76.1°F24.5°C 73.6°F23.1°C 92% Calm Calm -- 29.96 in1014.6 mb 0.02 in0.5 mm 0.00 in0.0 mm 1.64 in41.7 mm
05:26 PM 76.1°F24.5°C 73.6°F23.1°C 92% Calm Calm -- 29.96 in1014.6 mb 0.02 in0.5 mm 0.00 in0.0 mm 1.64 in41.7 mm
05:27 PM 76.1°F24.5°C 73.6°F23.1°C 92% Calm Calm -- 29.96 in1014.6 mb 0.02 in0.5 mm 0.00 in0.0 mm 1.64 in41.7 mm
05:28 PM 76.1°F24.5°C 73.6°F23.1°C 92% Calm Calm -- 29.96 in1014.6 mb 0.02 in0.5 mm 0.00 in0.0 mm 1.64 in41.7 mm
05:29 PM 76.1°F24.5°C 73.6°F23.1°C 92% Calm Calm -- 29.96 in1014.6 mb 0.03 in0.8 mm 0.60 in15.2 mm 1.65 in41.9 mm
05:30 PM 76.1°F24.5°C 73.6°F23.1°C 92% Calm Calm -- 29.96 in1014.6 mb 0.02 in0.5 mm 0.00 in0.0 mm 1.65 in41.9 mm
05:31 PM 76.1°F24.5°C 73.6°F23.1°C 92% Calm Calm -- 29.96 in1014.6 mb 0.02 in0.5 mm 0.00 in0.0 mm 1.65 in41.9 mm
05:32 PM 76.1°F24.5°C 73.6°F23.1°C 92% Calm Calm -- 29.96 in1014.6 mb 0.02 in0.5 mm 0.00 in0.0 mm 1.65 in41.9 mm
05:33 PM 75.9°F24.4°C 73.4°F23.0°C 92% Calm Calm -- 29.96 in1014.6 mb 0.02 in0.5 mm 0.00 in0.0 mm 1.65 in41.9 mm
05:34 PM 75.9°F24.4°C 73.4°F23.0°C 92% Calm Calm -- 29.96 in1014.6 mb 0.03 in0.8 mm 0.60 in15.2 mm 1.66 in42.2 mm
05:35 PM 75.9°F24.4°C 73.4°F23.0°C 92% Calm Calm -- 29.96 in1014.6 mb 0.03 in0.8 mm 0.00 in0.0 mm 1.66 in42.2 mm
05:36 PM 75.9°F24.4°C 73.4°F23.0°C 92% Calm Calm -- 29.96 in1014.6 mb 0.03 in0.8 mm 0.00 in0.0 mm 1.66 in42.2 mm
05:37 PM 75.9°F24.4°C 73.4°F23.0°C 92% Calm Calm -- 29.96 in1014.6 mb 0.03 in0.8 mm 0.00 in0.0 mm 1.66 in42.2 mm
05:38 PM 75.9°F24.4°C 73.4°F23.0°C 92% Calm Calm -- 29.97 in1014.9 mb 0.03 in0.8 mm 0.00 in0.0 mm 1.66 in42.2 mm
05:39 PM 75.9°F24.4°C 73.4°F23.0°C 92% Calm Calm -- 29.97 in1014.9 mb 0.03 in0.8 mm 0.00 in0.0 mm 1.66 in42.2 mm
05:40 PM 75.9°F24.4°C 73.4°F23.0°C 92% Calm Calm -- 29.97 in1014.9 mb 0.03 in0.8 mm 0.00 in0.0 mm 1.66 in42.2 mm
05:41 PM 75.9°F24.4°C 73.4°F23.0°C 92% Calm Calm -- 29.97 in1014.9 mb 0.03 in0.8 mm 0.00 in0.0 mm 1.66 in42.2 mm
05:42 PM 75.9°F24.4°C 73.4°F23.0°C 92% Calm Calm -- 29.97 in1014.9 mb 0.03 in0.8 mm 0.00 in0.0 mm 1.66 in42.2 mm
05:43 PM 75.9°F24.4°C 73.4°F23.0°C 92% Calm Calm -- 29.97 in1014.9 mb 0.03 in0.8 mm 0.00 in0.0 mm 1.66 in42.2 mm
05:44 PM 75.9°F24.4°C 73.4°F23.0°C 92% Calm Calm -- 29.97 in1014.9 mb 0.03 in0.8 mm 0.00 in0.0 mm 1.66 in42.2 mm
05:45 PM 75.9°F24.4°C 73.4°F23.0°C 92% Calm Calm -- 29.97 in1014.9 mb 0.03 in0.8 mm 0.00 in0.0 mm 1.66 in42.2 mm
05:46 PM 75.9°F24.4°C 73.4°F23.0°C 92% Calm Calm -- 29.97 in1014.9 mb 0.02 in0.5 mm 0.00 in0.0 mm 1.66 in42.2 mm
05:47 PM 75.7°F24.3°C 73.2°F22.9°C 92% Calm Calm -- 29.97 in1014.9 mb 0.02 in0.5 mm 0.00 in0.0 mm 1.66 in42.2 mm
05:48 PM 75.7°F24.3°C 73.2°F22.9°C 92% Calm Calm -- 29.97 in1014.9 mb 0.02 in0.5 mm 0.00 in0.0 mm 1.66 in42.2 mm
05:49 PM 75.7°F24.3°C 73.5°F23.1°C 93% Calm Calm -- 29.97 in1014.9 mb 0.02 in0.5 mm 0.00 in0.0 mm 1.66 in42.2 mm
05:50 PM 75.7°F24.3°C 73.5°F23.1°C 93% Calm Calm -- 29.97 in1014.9 mb 0.02 in0.5 mm 0.00 in0.0 mm 1.66 in42.2 mm
05:51 PM 75.7°F24.3°C 73.5°F23.1°C 93% Calm Calm -- 29.97 in1014.9 mb 0.02 in0.5 mm 0.00 in0.0 mm 1.66 in42.2 mm
05:52 PM 75.7°F24.3°C 73.5°F23.1°C 93% Calm Calm -- 29.97 in1014.9 mb 0.02 in0.5 mm 0.00 in0.0 mm 1.66 in42.2 mm
05:53 PM 75.7°F24.3°C 73.5°F23.1°C 93% Calm Calm -- 29.97 in1014.9 mb 0.02 in0.5 mm 0.00 in0.0 mm 1.66 in42.2 mm
05:54 PM 75.7°F24.3°C 73.5°F23.1°C 93% Calm Calm -- 29.97 in1014.9 mb 0.02 in0.5 mm 0.00 in0.0 mm 1.66 in42.2 mm
05:55 PM 75.7°F24.3°C 73.5°F23.1°C 93% Calm Calm -- 29.97 in1014.9 mb 0.02 in0.5 mm 0.00 in0.0 mm 1.66 in42.2 mm
05:56 PM 75.7°F24.3°C 73.5°F23.1°C 93% Calm Calm -- 29.97 in1014.9 mb 0.02 in0.5 mm 0.00 in0.0 mm 1.66 in42.2 mm
05:57 PM 75.7°F24.3°C 73.5°F23.1°C 93% Calm Calm -- 29.97 in1014.9 mb 0.02 in0.5 mm 0.00 in0.0 mm 1.66 in42.2 mm
05:58 PM 75.7°F24.3°C 73.5°F23.1°C 93% Calm Calm -- 29.97 in1014.9 mb 0.02 in0.5 mm 0.00 in0.0 mm 1.66 in42.2 mm
05:59 PM 75.7°F24.3°C 73.5°F23.1°C 93% Calm Calm -- 29.97 in1014.9 mb 0.02 in0.5 mm 0.00 in0.0 mm 1.66 in42.2 mm
06:00 PM 75.7°F24.3°C 73.5°F23.1°C 93% Calm Calm -- 29.97 in1014.9 mb 0.02 in0.5 mm 0.00 in0.0 mm 1.66 in42.2 mm
06:01 PM 75.7°F24.3°C 73.5°F23.1°C 93% Calm Calm -- 29.97 in1014.9 mb 0.02 in0.5 mm 0.00 in0.0 mm 1.66 in42.2 mm
06:02 PM 75.6°F24.2°C 73.4°F23.0°C 93% Calm Calm -- 29.98 in1015.2 mb 0.02 in0.5 mm 0.00 in0.0 mm 1.66 in42.2 mm
06:03 PM 75.6°F24.2°C 73.4°F23.0°C 93% Calm Calm -- 29.98 in1015.2 mb 0.02 in0.5 mm 0.00 in0.0 mm 1.66 in42.2 mm
06:04 PM 75.6°F24.2°C 73.4°F23.0°C 93% Calm Calm -- 29.98 in1015.2 mb 0.02 in0.5 mm 0.00 in0.0 mm 1.66 in42.2 mm
06:05 PM 75.6°F24.2°C 73.4°F23.0°C 93% Calm Calm -- 29.98 in1015.2 mb 0.02 in0.5 mm 0.00 in0.0 mm 1.66 in42.2 mm
06:06 PM 75.6°F24.2°C 73.4°F23.0°C 93% Calm Calm -- 29.98 in1015.2 mb 0.02 in0.5 mm 0.00 in0.0 mm 1.66 in42.2 mm
06:07 PM 75.6°F24.2°C 73.4°F23.0°C 93% Calm Calm -- 29.98 in1015.2 mb 0.02 in0.5 mm 0.00 in0.0 mm 1.66 in42.2 mm
06:08 PM 75.6°F24.2°C 73.4°F23.0°C 93% Calm Calm -- 29.98 in1015.2 mb 0.02 in0.5 mm 0.00 in0.0 mm 1.66 in42.2 mm
06:09 PM 75.6°F24.2°C 73.4°F23.0°C 93% Calm Calm -- 29.98 in1015.2 mb 0.02 in0.5 mm 0.00 in0.0 mm 1.66 in42.2 mm
06:10 PM 75.6°F24.2°C 73.4°F23.0°C 93% Calm Calm -- 29.98 in1015.2 mb 0.02 in0.5 mm 0.00 in0.0 mm 1.66 in42.2 mm
06:11 PM 75.6°F24.2°C 73.4°F23.0°C 93% Calm Calm -- 29.98 in1015.2 mb 0.02 in0.5 mm 0.00 in0.0 mm 1.66 in42.2 mm
06:12 PM 75.6°F24.2°C 73.4°F23.0°C 93% Calm Calm -- 29.98 in1015.2 mb 0.02 in0.5 mm 0.00 in0.0 mm 1.66 in42.2 mm
06:13 PM 75.6°F24.2°C 73.4°F23.0°C 93% Calm Calm -- 29.98 in1015.2 mb 0.02 in0.5 mm 0.00 in0.0 mm 1.66 in42.2 mm
06:14 PM 75.4°F24.1°C 73.2°F22.9°C 93% Calm Calm -- 29.98 in1015.2 mb 0.02 in0.5 mm 0.00 in0.0 mm 1.66 in42.2 mm
06:15 PM 75.4°F24.1°C 73.2°F22.9°C 93% Calm Calm -- 29.98 in1015.2 mb 0.02 in0.5 mm 0.00 in0.0 mm 1.66 in42.2 mm
06:16 PM 75.4°F24.1°C 73.2°F22.9°C 93% Calm Calm -- 29.98 in1015.2 mb 0.02 in0.5 mm 0.00 in0.0 mm 1.66 in42.2 mm
06:17 PM 75.4°F24.1°C 73.2°F22.9°C 93% Calm Calm -- 29.98 in1015.2 mb 0.02 in0.5 mm 0.00 in0.0 mm 1.66 in42.2 mm
06:18 PM 75.4°F24.1°C 73.2°F22.9°C 93% Calm Calm -- 29.98 in1015.2 mb 0.02 in0.5 mm 0.00 in0.0 mm 1.66 in42.2 mm
06:19 PM 75.4°F24.1°C 73.2°F22.9°C 93% Calm Calm -- 29.98 in1015.2 mb 0.02 in0.5 mm 0.00 in0.0 mm 1.66 in42.2 mm
06:20 PM 75.4°F24.1°C 73.2°F22.9°C 93% Calm Calm -- 29.98 in1015.2 mb 0.02 in0.5 mm 0.00 in0.0 mm 1.66 in42.2 mm
06:21 PM 75.4°F24.1°C 73.2°F22.9°C 93% Calm Calm -- 29.98 in1015.2 mb 0.02 in0.5 mm 0.00 in0.0 mm 1.66 in42.2 mm
06:22 PM 75.4°F24.1°C 73.2°F22.9°C 93% Calm Calm -- 29.98 in1015.2 mb 0.02 in0.5 mm 0.00 in0.0 mm 1.66 in42.2 mm
06:23 PM 75.4°F24.1°C 73.2°F22.9°C 93% Calm Calm -- 29.98 in1015.2 mb 0.02 in0.5 mm 0.00 in0.0 mm 1.66 in42.2 mm
06:24 PM 75.4°F24.1°C 73.2°F22.9°C 93% Calm Calm -- 29.98 in1015.2 mb 0.02 in0.5 mm 0.00 in0.0 mm 1.66 in42.2 mm
06:25 PM 75.4°F24.1°C 73.2°F22.9°C 93% Calm Calm -- 29.98 in1015.2 mb 0.02 in0.5 mm 0.00 in0.0 mm 1.66 in42.2 mm
06:26 PM 75.4°F24.1°C 73.2°F22.9°C 93% Calm Calm -- 29.98 in1015.2 mb 0.02 in0.5 mm 0.00 in0.0 mm 1.66 in42.2 mm
06:27 PM 75.4°F24.1°C 73.5°F23.1°C 94% Calm Calm -- 29.98 in1015.2 mb 0.02 in0.5 mm 0.00 in0.0 mm 1.66 in42.2 mm
06:28 PM 75.4°F24.1°C 73.5°F23.1°C 94% Calm Calm -- 29.98 in1015.2 mb 0.02 in0.5 mm 0.00 in0.0 mm 1.66 in42.2 mm
06:29 PM 75.4°F24.1°C 73.5°F23.1°C 94% Calm Calm -- 29.98 in1015.2 mb 0.02 in0.5 mm 0.00 in0.0 mm 1.66 in42.2 mm
06:30 PM 75.4°F24.1°C 73.5°F23.1°C 94% Calm Calm -- 29.98 in1015.2 mb 0.01 in0.3 mm 0.00 in0.0 mm 1.66 in42.2 mm
06:31 PM 75.4°F24.1°C 73.5°F23.1°C 94% Calm Calm -- 29.98 in1015.2 mb 0.01 in0.3 mm 0.00 in0.0 mm 1.66 in42.2 mm
06:32 PM 75.4°F24.1°C 73.5°F23.1°C 94% Calm Calm -- 29.98 in1015.2 mb 0.01 in0.3 mm 0.00 in0.0 mm 1.66 in42.2 mm
06:33 PM 75.4°F24.1°C 73.5°F23.1°C 94% Calm Calm -- 29.98 in1015.2 mb 0.01 in0.3 mm 0.00 in0.0 mm 1.66 in42.2 mm
06:34 PM 75.4°F24.1°C 73.5°F23.1°C 94% Calm Calm -- 29.98 in1015.2 mb 0.01 in0.3 mm 0.00 in0.0 mm 1.66 in42.2 mm
06:35 PM 75.4°F24.1°C 73.5°F23.1°C 94% Calm Calm -- 29.98 in1015.2 mb 0.00 in0.0 mm 0.00 in0.0 mm 1.66 in42.2 mm
06:36 PM 75.6°F24.2°C 73.7°F23.2°C 94% Calm Calm -- 29.98 in1015.2 mb 0.00 in0.0 mm 0.00 in0.0 mm 1.66 in42.2 mm
06:37 PM 75.6°F24.2°C 73.7°F23.2°C 94% Calm Calm -- 29.99 in1015.6 mb 0.00 in0.0 mm 0.00 in0.0 mm 1.66 in42.2 mm
06:38 PM 75.6°F24.2°C 73.7°F23.2°C 94% Calm Calm -- 29.99 in1015.6 mb 0.00 in0.0 mm 0.00 in0.0 mm 1.66 in42.2 mm
06:39 PM 75.6°F24.2°C 73.7°F23.2°C 94% Calm Calm -- 29.99 in1015.6 mb 0.00 in0.0 mm 0.00 in0.0 mm 1.66 in42.2 mm
06:40 PM 75.6°F24.2°C 73.7°F23.2°C 94% Calm Calm -- 29.99 in1015.6 mb 0.00 in0.0 mm 0.00 in0.0 mm 1.66 in42.2 mm
06:41 PM 75.6°F24.2°C 73.7°F23.2°C 94% Calm Calm -- 29.99 in1015.6 mb 0.00 in0.0 mm 0.00 in0.0 mm 1.66 in42.2 mm
06:42 PM 75.6°F24.2°C 73.7°F23.2°C 94% Calm Calm -- 29.99 in1015.6 mb 0.00 in0.0 mm 0.00 in0.0 mm 1.66 in42.2 mm
06:43 PM 75.6°F24.2°C 73.7°F23.2°C 94% Calm Calm -- 29.99 in1015.6 mb 0.01 in0.3 mm 0.60 in15.2 mm 1.67 in42.4 mm
06:44 PM 75.6°F24.2°C 73.7°F23.2°C 94% Calm Calm -- 29.99 in1015.6 mb 0.01 in0.3 mm 0.00 in0.0 mm 1.67 in42.4 mm
06:45 PM 75.7°F24.3°C 73.8°F23.2°C 94% Calm Calm -- 29.99 in1015.6 mb 0.01 in0.3 mm 0.00 in0.0 mm 1.67 in42.4 mm
06:46 PM 75.7°F24.3°C 73.8°F23.2°C 94% Calm Calm -- 29.99 in1015.6 mb 0.01 in0.3 mm 0.00 in0.0 mm 1.67 in42.4 mm
06:47 PM 75.7°F24.3°C 73.8°F23.2°C 94% Calm Calm -- 29.99 in1015.6 mb 0.01 in0.3 mm 0.00 in0.0 mm 1.67 in42.4 mm
06:48 PM 75.7°F24.3°C 73.8°F23.2°C 94% Calm Calm -- 29.99 in1015.6 mb 0.01 in0.3 mm 0.00 in0.0 mm 1.67 in42.4 mm
06:49 PM 75.7°F24.3°C 73.8°F23.2°C 94% Calm Calm -- 29.99 in1015.6 mb 0.01 in0.3 mm 0.00 in0.0 mm 1.67 in42.4 mm
06:50 PM 75.7°F24.3°C 73.8°F23.2°C 94% Calm Calm -- 29.99 in1015.6 mb 0.01 in0.3 mm 0.00 in0.0 mm 1.67 in42.4 mm
06:51 PM 75.7°F24.3°C 73.8°F23.2°C 94% Calm Calm -- 29.99 in1015.6 mb 0.01 in0.3 mm 0.00 in0.0 mm 1.67 in42.4 mm
06:52 PM 75.7°F24.3°C 73.8°F23.2°C 94% Calm Calm -- 29.99 in1015.6 mb 0.01 in0.3 mm 0.00 in0.0 mm 1.67 in42.4 mm
06:53 PM 75.7°F24.3°C 73.8°F23.2°C 94% Calm Calm -- 29.99 in1015.6 mb 0.01 in0.3 mm 0.00 in0.0 mm 1.67 in42.4 mm
06:54 PM 75.7°F24.3°C 73.8°F23.2°C 94% Calm Calm -- 29.99 in1015.6 mb 0.01 in0.3 mm 0.00 in0.0 mm 1.67 in42.4 mm
06:55 PM 75.6°F24.2°C 73.7°F23.2°C 94% Calm Calm -- 29.99 in1015.6 mb 0.01 in0.3 mm 0.00 in0.0 mm 1.67 in42.4 mm
06:56 PM 75.6°F24.2°C 73.7°F23.2°C 94% Calm Calm -- 29.99 in1015.6 mb 0.01 in0.3 mm 0.00 in0.0 mm 1.67 in42.4 mm
06:57 PM 75.6°F24.2°C 73.7°F23.2°C 94% Calm Calm -- 29.99 in1015.6 mb 0.01 in0.3 mm 0.00 in0.0 mm 1.67 in42.4 mm
06:58 PM 75.6°F24.2°C 73.7°F23.2°C 94% Calm Calm -- 29.99 in1015.6 mb 0.01 in0.3 mm 0.00 in0.0 mm 1.67 in42.4 mm
06:59 PM 75.6°F24.2°C 73.7°F23.2°C 94% Calm Calm -- 29.99 in1015.6 mb 0.01 in0.3 mm 0.00 in0.0 mm 1.67 in42.4 mm
07:00 PM 75.6°F24.2°C 73.7°F23.2°C 94% Calm Calm -- 29.99 in1015.6 mb 0.01 in0.3 mm 0.00 in0.0 mm 1.67 in42.4 mm
07:01 PM 75.6°F24.2°C 73.7°F23.2°C 94% Calm Calm -- 29.99 in1015.6 mb 0.01 in0.3 mm 0.00 in0.0 mm 1.67 in42.4 mm
07:02 PM 75.6°F24.2°C 73.7°F23.2°C 94% Calm Calm -- 29.99 in1015.6 mb 0.02 in0.5 mm 0.60 in15.2 mm 1.68 in42.7 mm
07:03 PM 75.6°F24.2°C 73.7°F23.2°C 94% Calm Calm -- 29.99 in1015.6 mb 0.02 in0.5 mm 0.00 in0.0 mm 1.68 in42.7 mm
07:04 PM 75.6°F24.2°C 73.7°F23.2°C 94% Calm Calm -- 29.99 in1015.6 mb 0.02 in0.5 mm 0.00 in0.0 mm 1.68 in42.7 mm
07:05 PM 75.6°F24.2°C 73.7°F23.2°C 94% Calm Calm -- 29.99 in1015.6 mb 0.02 in0.5 mm 0.00 in0.0 mm 1.68 in42.7 mm
07:06 PM 75.6°F24.2°C 73.7°F23.2°C 94% Calm Calm -- 29.99 in1015.6 mb 0.02 in0.5 mm 0.00 in0.0 mm 1.68 in42.7 mm
07:07 PM 75.6°F24.2°C 73.7°F23.2°C 94% Calm Calm -- 29.99 in1015.6 mb 0.02 in0.5 mm 0.00 in0.0 mm 1.68 in42.7 mm
07:08 PM 75.6°F24.2°C 73.7°F23.2°C 94% Calm Calm -- 29.99 in1015.6 mb 0.02 in0.5 mm 0.00 in0.0 mm 1.68 in42.7 mm
07:09 PM 75.6°F24.2°C 73.7°F23.2°C 94% Calm Calm -- 29.99 in1015.6 mb 0.02 in0.5 mm 0.00 in0.0 mm 1.68 in42.7 mm
07:10 PM 75.6°F24.2°C 73.7°F23.2°C 94% Calm Calm -- 29.99 in1015.6 mb 0.02 in0.5 mm 0.00 in0.0 mm 1.68 in42.7 mm
07:11 PM 75.6°F24.2°C 73.7°F23.2°C 94% Calm Calm -- 29.99 in1015.6 mb 0.02 in0.5 mm 0.00 in0.0 mm 1.68 in42.7 mm
07:12 PM 75.6°F24.2°C 73.7°F23.2°C 94% Calm Calm -- 29.99 in1015.6 mb 0.02 in0.5 mm 0.00 in0.0 mm 1.68 in42.7 mm
07:13 PM 75.6°F24.2°C 73.7°F23.2°C 94% Calm Calm -- 30.00 in1015.9 mb 0.02 in0.5 mm 0.00 in0.0 mm 1.68 in42.7 mm
07:14 PM 75.6°F24.2°C 73.7°F23.2°C 94% Calm Calm -- 30.00 in1015.9 mb 0.02 in0.5 mm 0.00 in0.0 mm 1.68 in42.7 mm
07:15 PM 75.6°F24.2°C 73.7°F23.2°C 94% Calm Calm -- 30.00 in1015.9 mb 0.02 in0.5 mm 0.00 in0.0 mm 1.68 in42.7 mm
07:16 PM 75.6°F24.2°C 73.7°F23.2°C 94% Calm Calm -- 30.00 in1015.9 mb 0.02 in0.5 mm 0.00 in0.0 mm 1.68 in42.7 mm
07:17 PM 75.6°F24.2°C 73.7°F23.2°C 94% Calm Calm -- 30.00 in1015.9 mb 0.02 in0.5 mm 0.00 in0.0 mm 1.68 in42.7 mm
07:18 PM 75.6°F24.2°C 73.7°F23.2°C 94% Calm Calm -- 30.00 in1015.9 mb 0.02 in0.5 mm 0.00 in0.0 mm 1.68 in42.7 mm
07:19 PM 75.6°F24.2°C 73.7°F23.2°C 94% Calm Calm -- 30.00 in1015.9 mb 0.02 in0.5 mm 0.00 in0.0 mm 1.68 in42.7 mm
07:20 PM 75.6°F24.2°C 73.7°F23.2°C 94% Calm Calm -- 30.00 in1015.9 mb 0.02 in0.5 mm 0.00 in0.0 mm 1.68 in42.7 mm
07:21 PM 75.6°F24.2°C 73.7°F23.2°C 94% Calm Calm -- 30.00 in1015.9 mb 0.02 in0.5 mm 0.00 in0.0 mm 1.68 in42.7 mm
07:22 PM 75.6°F24.2°C 73.7°F23.2°C 94% Calm Calm -- 30.00 in1015.9 mb 0.02 in0.5 mm 0.00 in0.0 mm 1.68 in42.7 mm
07:23 PM 75.6°F24.2°C 73.7°F23.2°C 94% Calm Calm -- 30.00 in1015.9 mb 0.02 in0.5 mm 0.00 in0.0 mm 1.68 in42.7 mm
07:24 PM 75.6°F24.2°C 73.7°F23.2°C 94% Calm Calm -- 30.00 in1015.9 mb 0.02 in0.5 mm 0.00 in0.0 mm 1.68 in42.7 mm
07:25 PM 75.6°F24.2°C 73.7°F23.2°C 94% Calm Calm -- 30.01 in1016.3 mb 0.02 in0.5 mm 0.00 in0.0 mm 1.68 in42.7 mm
07:26 PM 75.6°F24.2°C 73.7°F23.2°C 94% Calm Calm -- 30.01 in1016.3 mb 0.02 in0.5 mm 0.00 in0.0 mm 1.68 in42.7 mm
07:27 PM 75.6°F24.2°C 73.7°F23.2°C 94% Calm Calm -- 30.01 in1016.3 mb 0.02 in0.5 mm 0.00 in0.0 mm 1.68 in42.7 mm
07:28 PM 75.6°F24.2°C 73.7°F23.2°C 94% Calm Calm -- 30.01 in1016.3 mb 0.02 in0.5 mm 0.00 in0.0 mm 1.68 in42.7 mm
07:29 PM 75.6°F24.2°C 73.7°F23.2°C 94% Calm Calm -- 30.01 in1016.3 mb 0.02 in0.5 mm 0.00 in0.0 mm 1.68 in42.7 mm
07:30 PM 75.6°F24.2°C 73.7°F23.2°C 94% Calm Calm -- 30.01 in1016.3 mb 0.02 in0.5 mm 0.00 in0.0 mm 1.68 in42.7 mm
07:31 PM 75.6°F24.2°C 73.7°F23.2°C 94% Calm Calm -- 30.01 in1016.3 mb 0.02 in0.5 mm 0.00 in0.0 mm 1.68 in42.7 mm
07:32 PM 75.6°F24.2°C 73.7°F23.2°C 94% Calm Calm -- 30.01 in1016.3 mb 0.02 in0.5 mm 0.00 in0.0 mm 1.68 in42.7 mm
07:33 PM 75.6°F24.2°C 73.7°F23.2°C 94% Calm Calm -- 30.01 in1016.3 mb 0.02 in0.5 mm 0.00 in0.0 mm 1.68 in42.7 mm
07:34 PM 75.6°F24.2°C 73.7°F23.2°C 94% Calm Calm -- 30.01 in1016.3 mb 0.02 in0.5 mm 0.00 in0.0 mm 1.68 in42.7 mm
07:35 PM 75.6°F24.2°C 73.7°F23.2°C 94% Calm Calm -- 30.01 in1016.3 mb 0.02 in0.5 mm 0.00 in0.0 mm 1.68 in42.7 mm
07:36 PM 75.6°F24.2°C 73.7°F23.2°C 94% Calm Calm -- 30.01 in1016.3 mb 0.02 in0.5 mm 0.00 in0.0 mm 1.68 in42.7 mm
07:37 PM 75.6°F24.2°C 73.7°F23.2°C 94% Calm Calm -- 30.02 in1016.6 mb 0.02 in0.5 mm 0.00 in0.0 mm 1.68 in42.7 mm
07:38 PM 75.6°F24.2°C 73.7°F23.2°C 94% Calm Calm -- 30.02 in1016.6 mb 0.02 in0.5 mm 0.00 in0.0 mm 1.68 in42.7 mm
07:39 PM 75.6°F24.2°C 73.7°F23.2°C 94% Calm Calm -- 30.02 in1016.6 mb 0.02 in0.5 mm 0.00 in0.0 mm 1.68 in42.7 mm
07:40 PM 75.6°F24.2°C 73.7°F23.2°C 94% Calm Calm -- 30.02 in1016.6 mb 0.02 in0.5 mm 0.00 in0.0 mm 1.68 in42.7 mm
07:41 PM 75.6°F24.2°C 73.7°F23.2°C 94% Calm Calm -- 30.02 in1016.6 mb 0.02 in0.5 mm 0.00 in0.0 mm 1.68 in42.7 mm
07:42 PM 75.6°F24.2°C 73.7°F23.2°C 94% Calm Calm -- 30.02 in1016.6 mb 0.02 in0.5 mm 0.00 in0.0 mm 1.68 in42.7 mm
07:43 PM 75.6°F24.2°C 73.7°F23.2°C 94% Calm Calm -- 30.02 in1016.6 mb 0.01 in0.3 mm 0.00 in0.0 mm 1.68 in42.7 mm
07:44 PM 75.6°F24.2°C 73.7°F23.2°C 94% Calm Calm -- 30.02 in1016.6 mb 0.01 in0.3 mm 0.00 in0.0 mm 1.68 in42.7 mm
07:45 PM 75.6°F24.2°C 73.7°F23.2°C 94% Calm Calm -- 30.02 in1016.6 mb 0.01 in0.3 mm 0.00 in0.0 mm 1.68 in42.7 mm
07:46 PM 75.6°F24.2°C 73.7°F23.2°C 94% Calm Calm -- 30.02 in1016.6 mb 0.02 in0.5 mm 0.60 in15.2 mm 1.69 in42.9 mm
07:47 PM 75.6°F24.2°C 73.7°F23.2°C 94% Calm Calm -- 30.02 in1016.6 mb 0.02 in0.5 mm 0.00 in0.0 mm 1.69 in42.9 mm
07:48 PM 75.6°F24.2°C 73.7°F23.2°C 94% Calm Calm -- 30.02 in1016.6 mb 0.02 in0.5 mm 0.00 in0.0 mm 1.69 in42.9 mm
07:49 PM 75.6°F24.2°C 73.7°F23.2°C 94% Calm Calm -- 30.02 in1016.6 mb 0.02 in0.5 mm 0.00 in0.0 mm 1.69 in42.9 mm
07:50 PM 75.6°F24.2°C 73.7°F23.2°C 94% Calm Calm -- 30.02 in1016.6 mb 0.02 in0.5 mm 0.00 in0.0 mm 1.69 in42.9 mm
07:51 PM 75.6°F24.2°C 73.7°F23.2°C 94% Calm Calm -- 30.02 in1016.6 mb 0.02 in0.5 mm 0.00 in0.0 mm 1.69 in42.9 mm
07:52 PM 75.6°F24.2°C 73.7°F23.2°C 94% Calm Calm -- 30.02 in1016.6 mb 0.02 in0.5 mm 0.00 in0.0 mm 1.69 in42.9 mm
07:53 PM 75.6°F24.2°C 73.7°F23.2°C 94% Calm Calm -- 30.02 in1016.6 mb 0.02 in0.5 mm 0.00 in0.0 mm 1.69 in42.9 mm
07:54 PM 75.6°F24.2°C 73.7°F23.2°C 94% Calm Calm -- 30.02 in1016.6 mb 0.02 in0.5 mm 0.00 in0.0 mm 1.69 in42.9 mm
07:55 PM 75.6°F24.2°C 73.7°F23.2°C 94% Calm Calm -- 30.02 in1016.6 mb 0.02 in0.5 mm 0.00 in0.0 mm 1.69 in42.9 mm
07:56 PM 75.6°F24.2°C 73.7°F23.2°C 94% Calm Calm -- 30.02 in1016.6 mb 0.02 in0.5 mm 0.00 in0.0 mm 1.69 in42.9 mm
07:57 PM 75.6°F24.2°C 73.7°F23.2°C 94% Calm Calm -- 30.02 in1016.6 mb 0.02 in0.5 mm 0.00 in0.0 mm 1.69 in42.9 mm
07:58 PM 75.6°F24.2°C 73.7°F23.2°C 94% Calm Calm -- 30.02 in1016.6 mb 0.02 in0.5 mm 0.00 in0.0 mm 1.69 in42.9 mm
07:59 PM 75.6°F24.2°C 73.7°F23.2°C 94% Calm Calm -- 30.02 in1016.6 mb 0.02 in0.5 mm 0.00 in0.0 mm 1.69 in42.9 mm
08:00 PM 75.6°F24.2°C 73.7°F23.2°C 94% Calm Calm -- 30.02 in1016.6 mb 0.02 in0.5 mm 0.00 in0.0 mm 1.69 in42.9 mm
08:01 PM 75.6°F24.2°C 73.7°F23.2°C 94% Calm Calm -- 30.02 in1016.6 mb 0.02 in0.5 mm 0.00 in0.0 mm 1.69 in42.9 mm
08:02 PM 75.6°F24.2°C 73.7°F23.2°C 94% Calm Calm -- 30.02 in1016.6 mb 0.02 in0.5 mm 0.00 in0.0 mm 1.69 in42.9 mm
08:03 PM 75.6°F24.2°C 73.7°F23.2°C 94% Calm Calm -- 30.02 in1016.6 mb 0.01 in0.3 mm 0.00 in0.0 mm 1.69 in42.9 mm
08:04 PM 75.6°F24.2°C 73.7°F23.2°C 94% Calm Calm -- 30.02 in1016.6 mb 0.01 in0.3 mm 0.00 in0.0 mm 1.69 in42.9 mm
08:05 PM 75.6°F24.2°C 73.7°F23.2°C 94% Calm Calm -- 30.02 in1016.6 mb 0.01 in0.3 mm 0.00 in0.0 mm 1.69 in42.9 mm
08:06 PM 75.6°F24.2°C 73.7°F23.2°C 94% Calm Calm -- 30.02 in1016.6 mb 0.01 in0.3 mm 0.00 in0.0 mm 1.69 in42.9 mm
08:07 PM 75.6°F24.2°C 73.7°F23.2°C 94% Calm Calm -- 30.02 in1016.6 mb 0.01 in0.3 mm 0.00 in0.0 mm 1.69 in42.9 mm
08:08 PM 75.6°F24.2°C 73.7°F23.2°C 94% Calm Calm -- 30.02 in1016.6 mb 0.01 in0.3 mm 0.00 in0.0 mm 1.69 in42.9 mm
08:09 PM 75.4°F24.1°C 73.5°F23.1°C 94% Calm Calm -- 30.02 in1016.6 mb 0.01 in0.3 mm 0.00 in0.0 mm 1.69 in42.9 mm
08:10 PM 75.4°F24.1°C 73.5°F23.1°C 94% Calm Calm -- 30.02 in1016.6 mb 0.01 in0.3 mm 0.00 in0.0 mm 1.69 in42.9 mm
08:11 PM 75.4°F24.1°C 73.5°F23.1°C 94% Calm Calm -- 30.02 in1016.6 mb 0.01 in0.3 mm 0.00 in0.0 mm 1.69 in42.9 mm
08:12 PM 75.4°F24.1°C 73.5°F23.1°C 94% Calm Calm -- 30.02 in1016.6 mb 0.01 in0.3 mm 0.00 in0.0 mm 1.69 in42.9 mm
08:13 PM 75.4°F24.1°C 73.5°F23.1°C 94% Calm Calm -- 30.02 in1016.6 mb 0.01 in0.3 mm 0.00 in0.0 mm 1.69 in42.9 mm
08:14 PM 75.4°F24.1°C 73.5°F23.1°C 94% Calm Calm -- 30.02 in1016.6 mb 0.01 in0.3 mm 0.00 in0.0 mm 1.69 in42.9 mm
08:15 PM 75.4°F24.1°C 73.5°F23.1°C 94% Calm Calm -- 30.02 in1016.6 mb 0.01 in0.3 mm 0.00 in0.0 mm 1.69 in42.9 mm
08:16 PM 75.4°F24.1°C 73.5°F23.1°C 94% Calm Calm -- 30.02 in1016.6 mb 0.01 in0.3 mm 0.00 in0.0 mm 1.69 in42.9 mm
08:17 PM 75.4°F24.1°C 73.5°F23.1°C 94% Calm Calm -- 30.02 in1016.6 mb 0.01 in0.3 mm 0.00 in0.0 mm 1.69 in42.9 mm
08:18 PM 75.4°F24.1°C 73.5°F23.1°C 94% Calm Calm -- 30.02 in1016.6 mb 0.01 in0.3 mm 0.00 in0.0 mm 1.69 in42.9 mm
08:19 PM 75.4°F24.1°C 73.5°F23.1°C 94% Calm Calm -- 30.02 in1016.6 mb 0.01 in0.3 mm 0.00 in0.0 mm 1.69 in42.9 mm
08:20 PM 75.4°F24.1°C 73.5°F23.1°C 94% Calm Calm -- 30.02 in1016.6 mb 0.01 in0.3 mm 0.00 in0.0 mm 1.69 in42.9 mm
08:21 PM 75.4°F24.1°C 73.5°F23.1°C 94% Calm Calm -- 30.02 in1016.6 mb 0.01 in0.3 mm 0.00 in0.0 mm 1.69 in42.9 mm
08:22 PM 75.4°F24.1°C 73.5°F23.1°C 94% Calm Calm -- 30.02 in1016.6 mb 0.01 in0.3 mm 0.00 in0.0 mm 1.69 in42.9 mm
08:23 PM 75.4°F24.1°C 73.5°F23.1°C 94% Calm Calm -- 30.02 in1016.6 mb 0.01 in0.3 mm 0.00 in0.0 mm 1.69 in42.9 mm
08:24 PM 75.4°F24.1°C 73.5°F23.1°C 94% Calm Calm -- 30.02 in1016.6 mb 0.01 in0.3 mm 0.00 in0.0 mm 1.69 in42.9 mm
08:25 PM 75.4°F24.1°C 73.5°F23.1°C 94% Calm Calm -- 30.02 in1016.6 mb 0.01 in0.3 mm 0.00 in0.0 mm 1.69 in42.9 mm
08:26 PM 75.4°F24.1°C 73.5°F23.1°C 94% Calm Calm -- 30.02 in1016.6 mb 0.01 in0.3 mm 0.00 in0.0 mm 1.69 in42.9 mm
08:27 PM 75.4°F24.1°C 73.5°F23.1°C 94% Calm Calm -- 30.02 in1016.6 mb 0.01 in0.3 mm 0.00 in0.0 mm 1.69 in42.9 mm
08:28 PM 75.4°F24.1°C 73.5°F23.1°C 94% Calm Calm -- 30.02 in1016.6 mb 0.01 in0.3 mm 0.00 in0.0 mm 1.69 in42.9 mm
08:29 PM 75.4°F24.1°C 73.5°F23.1°C 94% Calm Calm -- 30.02 in1016.6 mb 0.01 in0.3 mm 0.00 in0.0 mm 1.69 in42.9 mm
08:30 PM 75.4°F24.1°C 73.5°F23.1°C 94% Calm Calm -- 30.02 in1016.6 mb 0.01 in0.3 mm 0.00 in0.0 mm 1.69 in42.9 mm
08:31 PM 75.4°F24.1°C 73.5°F23.1°C 94% Calm Calm -- 30.02 in1016.6 mb 0.01 in0.3 mm 0.00 in0.0 mm 1.69 in42.9 mm
08:32 PM 75.4°F24.1°C 73.5°F23.1°C 94% Calm Calm -- 30.02 in1016.6 mb 0.01 in0.3 mm 0.00 in0.0 mm 1.69 in42.9 mm
08:33 PM 75.4°F24.1°C 73.5°F23.1°C 94% Calm Calm -- 30.02 in1016.6 mb 0.01 in0.3 mm 0.00 in0.0 mm 1.69 in42.9 mm
08:34 PM 75.4°F24.1°C 73.5°F23.1°C 94% Calm Calm -- 30.02 in1016.6 mb 0.01 in0.3 mm 0.00 in0.0 mm 1.69 in42.9 mm
08:35 PM 75.4°F24.1°C 73.5°F23.1°C 94% Calm Calm -- 30.02 in1016.6 mb 0.01 in0.3 mm 0.00 in0.0 mm 1.69 in42.9 mm
08:36 PM 75.4°F24.1°C 73.5°F23.1°C 94% Calm Calm -- 30.02 in1016.6 mb 0.01 in0.3 mm 0.00 in0.0 mm 1.69 in42.9 mm
08:37 PM 75.4°F24.1°C 73.5°F23.1°C 94% Calm Calm -- 30.02 in1016.6 mb 0.01 in0.3 mm 0.00 in0.0 mm 1.69 in42.9 mm
08:38 PM 75.4°F24.1°C 73.5°F23.1°C 94% Calm Calm -- 30.02 in1016.6 mb 0.01 in0.3 mm 0.00 in0.0 mm 1.69 in42.9 mm
08:39 PM 75.4°F24.1°C 73.5°F23.1°C 94% Calm Calm -- 30.02 in1016.6 mb 0.01 in0.3 mm 0.00 in0.0 mm 1.69 in42.9 mm
08:40 PM 75.4°F24.1°C 73.5°F23.1°C 94% Calm Calm -- 30.02 in1016.6 mb 0.01 in0.3 mm 0.00 in0.0 mm 1.69 in42.9 mm
08:41 PM 75.4°F24.1°C 73.5°F23.1°C 94% Calm Calm -- 30.02 in1016.6 mb 0.01 in0.3 mm 0.00 in0.0 mm 1.69 in42.9 mm
08:42 PM 75.4°F24.1°C 73.5°F23.1°C 94% Calm Calm -- 30.02 in1016.6 mb 0.01 in0.3 mm 0.00 in0.0 mm 1.69 in42.9 mm
08:43 PM 75.4°F24.1°C 73.5°F23.1°C 94% Calm Calm -- 30.02 in1016.6 mb 0.01 in0.3 mm 0.00 in0.0 mm 1.69 in42.9 mm
08:44 PM 75.4°F24.1°C 73.5°F23.1°C 94% Calm Calm -- 30.02 in1016.6 mb 0.01 in0.3 mm 0.00 in0.0 mm 1.69 in42.9 mm
08:45 PM 75.4°F24.1°C 73.5°F23.1°C 94% Calm Calm -- 30.02 in1016.6 mb 0.01 in0.3 mm 0.00 in0.0 mm 1.69 in42.9 mm
08:46 PM 75.4°F24.1°C 73.5°F23.1°C 94% Calm Calm -- 30.02 in1016.6 mb 0.00 in0.0 mm 0.00 in0.0 mm 1.69 in42.9 mm
08:47 PM 75.2°F24.0°C 73.3°F22.9°C 94% Calm Calm -- 30.02 in1016.6 mb 0.00 in0.0 mm 0.00 in0.0 mm 1.69 in42.9 mm
08:48 PM 75.2°F24.0°C 73.3°F22.9°C 94% Calm Calm -- 30.02 in1016.6 mb 0.0